Ship Status Report: callsign 000000

sailwx.info

Track history (hours):
 
Tides and Currents Weather Stations Pressure Air Temp Water Temp Dewpoint Dewpoint Depression Visibility Wind Speed Wind Dir Waves Ship Positions

Callsign 000000 (name unknown)

Last reported at 2014-Sep-19 11:33 UTC. Time now 2014-Sep-19 11:54 UTC.
Position N 23°04' E 113°29'.

Type: Fishing. MMSI: 200007452.

Date/timePositionNaut miles runAvg speedWind from/ knotsBaromVisibWave heightAir tempDewpointWater temp
2014-Sep-19 11:33N 23°04' E 113°29'979160205.8
2014-Sep-19 11:33N 37°46' E 121°41'98354419.6
2014-Sep-19 11:32N 22°59' E 113°31'65712851.0
2014-Sep-19 11:29N 31°21' E 121°27'6732780.3
2014-Sep-19 11:14N 22°47' E 113°19'19297.5
2014-Sep-19 11:10N 23°04' E 113°29'97825701.9
2014-Sep-19 11:08N 37°10' E 122°56'97816226.6
2014-Sep-19 11:04N 23°04' E 113°29'9771894.4
2014-Sep-19 10:33N 37°46' E 121°36'977319800.5
2014-Sep-19 10:33N 23°04' E 113°29'3104.9
2014-Sep-19 10:31N 23°04' E 113°25'592085.2
2014-Sep-19 10:30N 22°06' E 113°34'582879.0
2014-Sep-19 10:28N 23°04' E 113°29'0 0.4
2014-Sep-19 10:27N 23°04' E 113°29'65711265.0
2014-Sep-19 10:24N 31°48' E 120°56'381148.8
2014-Sep-19 10:22N 31°21' E 121°27'761419.0
2014-Sep-19 10:19N 30°25' E 122°27'139183.8
2014-Sep-19 09:34N 31°58' E 120°27'352422397.1
2014-Sep-19 09:33N 37°46' E 121°32'975113259.9
2014-Sep-19 09:33N 23°04' E 113°29'65213973.3
2014-Sep-19 09:30N 30°25' E 122°27'65214055.9
2014-Sep-19 09:27N 23°04' E 113°29'101053.7
2014-Sep-19 09:27N 23°03' E 113°19'128526.3
2014-Sep-19 09:27N 22°59' E 113°31'5617.9
2014-Sep-19 09:26N 23°04' E 113°29'65481215.6
2014-Sep-19 09:26N 31°21' E 121°27'353287.1
2014-Sep-19 09:25N 31°46' E 120°59'6735359.8
2014-Sep-19 09:18N 22°44' E 113°30'12118.8
2014-Sep-19 09:12N 22°55' E 113°36'6551032.1
2014-Sep-19 08:33N 31°58' E 120°27'348313354.3
2014-Sep-19 08:33N 37°43' E 121°21'969348735.9
2014-Sep-19 08:33N 23°04' E 113°29'585945.5
2014-Sep-19 08:33N 22°19' E 114°08'66172113.4
2014-Sep-19 08:32N 30°25' E 122°27'761983.0
2014-Sep-19 08:30N 31°21' E 121°27'313542.6
2014-Sep-19 08:29N 31°45' E 121°02'658473615.0
2014-Sep-19 08:29N 23°04' E 113°29'0 1.8
2014-Sep-19 08:27N 23°04' E 113°29'12111.0
2014-Sep-19 08:21N 23°04' E 113°16'20355.2
2014-Sep-19 08:18N 22°55' E 113°36'654888.1
2014-Sep-19 07:33N 31°57' E 120°28'6501169377.8
2014-Sep-19 07:33N 23°04' E 113°29'239291.2
2014-Sep-19 07:33N 22°43' E 113°40'265856.6
2014-Sep-19 07:33N 23°02' E 113°21'660792431.0
2014-Sep-19 07:33N 31°21' E 121°27'2913621.5
2014-Sep-19 07:28N 26°45' E 119°43'26310170.5
2014-Sep-19 07:26N 30°25' E 122°27'652156503.1
2014-Sep-19 07:26N 23°04' E 113°29'1175.6
2014-Sep-19 07:17N 22°55' E 113°36'1115.1
2014-Sep-19 06:33N 23°04' E 113°29'652293450.3
2014-Sep-19 06:33N 30°25' E 122°27'65465435.2
2014-Sep-19 06:33N 23°04' E 113°26'534364.7
2014-Sep-19 06:32N 22°11' E 113°25'69910480.0
2014-Sep-19 06:28N 31°21' E 121°27'6583832.0
2014-Sep-19 06:17N 22°55' E 113°36'112196.7
2014-Sep-19 06:17N 23°04' E 113°29'96246782.0
2014-Sep-19 06:16N 36°57' E 122°44'2681884.1
2014-Sep-19 06:07N 39°05' E 117°45'4 6.6
2014-Sep-19 05:33N 39°04' E 117°49'986236549.3
2014-Sep-19 05:33N 23°04' E 113°29'013.6
2014-Sep-19 05:33N 23°04' E 113°29'955687669.8
2014-Sep-19 05:33N 36°53' E 122°36'100457386.3
2014-Sep-19 05:32N 22°11' E 113°25'69318207.3
2014-Sep-19 05:30N 30°25' E 122°27'654589010.3
2014-Sep-19 05:29N 22°55' E 113°36'112470.2
2014-Sep-19 05:29N 23°04' E 113°29'6544673.2
2014-Sep-19 05:21N 31°21' E 121°27'658833.8
2014-Sep-19 04:33N 23°03' E 113°24'41796.5
2014-Sep-19 04:33N 23°04' E 113°29'050.8
2014-Sep-19 04:33N 23°04' E 113°29'986443509.1
2014-Sep-19 04:33N 39°04' E 117°51'25343439.3
2014-Sep-19 04:33N 36°51' E 122°24'3336770.7
2014-Sep-19 04:30N 31°21' E 121°27'6984926.2
2014-Sep-19 04:21N 22°12' E 113°24'6913690.7
2014-Sep-19 04:10N 31°58' E 120°17'6498469.7
2014-Sep-19 04:05N 22°55' E 113°36'1120.4
2014-Sep-19 03:33N 23°04' E 113°29'61827.0
2014-Sep-19 03:33N 22°59' E 113°31'91363.2
2014-Sep-19 03:32N 23°02' E 113°21'66715299.4
2014-Sep-19 03:30N 31°47' E 121°06'31932.1
2014-Sep-19 03:28N 31°21' E 121°27'311736.1
2014-Sep-19 03:27N 31°44' E 121°02'66242583.3
2014-Sep-19 03:26N 23°02' E 113°24'4 4.8
2014-Sep-19 02:34N 23°05' E 113°27'2150.9
2014-Sep-19 02:33N 23°04' E 113°29'986131400.8
2014-Sep-19 02:32N 39°04' E 117°49'49616692.0
2014-Sep-19 02:31N 31°21' E 121°27'6586087.8
2014-Sep-19 02:24N 22°55' E 113°36'9943544.5
2014-Sep-19 02:07N 39°05' E 117°51'9871735.0
2014-Sep-19 01:33N 23°04' E 113°29'595753.7
2014-Sep-19 01:33N 22°09' E 113°52'68714375.7
2014-Sep-19 01:30N 31°22' E 121°29'65667438.3
2014-Sep-19 01:29N 23°04' E 113°29'6391698.0
2014-Sep-19 01:07N 32°03' E 119°55'433783.1
2014-Sep-19 00:33N 39°04' E 117°52'503452903.6
2014-Sep-19 00:33N 31°14' E 121°30'650260054.5
2014-Sep-19 00:33N 23°04' E 113°29'98698602.5
2014-Sep-19 00:33N 39°04' E 117°51'10331240186.4
2014-Sep-19 00:33N 22°13' E 113°44'537622.7
2014-Sep-19 00:32N 23°04' E 113°29'473102.8
2014-Sep-19 00:31N 22°17' E 113°36'38158.7
2014-Sep-19 00:17N 22°55' E 113°36'6624080.0
2014-Sep-19 00:07N 31°24' E 121°30'6921199.9
2014-Sep-18 23:33N 22°17' E 113°37'686823595.3
2014-Sep-18 23:33N 31°16' E 121°33'65339183.9
2014-Sep-18 23:32N 23°04' E 113°29'51695.1
2014-Sep-18 23:27N 22°14' E 113°36'51435.1
2014-Sep-18 23:20N 23°04' E 113°29'11197.1
2014-Sep-18 23:17N 22°55' E 113°36'1115.4
2014-Sep-18 22:33N 23°04' E 113°29'011.5
2014-Sep-18 22:32N 23°04' E 113°29'65724656.2
2014-Sep-18 22:31N 31°45' E 121°00'398206.4
2014-Sep-18 22:30N 31°19' E 121°33'65926974.9
2014-Sep-18 22:29N 22°55' E 113°36'6643934.3
2014-Sep-18 22:19N 31°47' E 121°04'3552844.4
2014-Sep-18 22:11N 37°42' E 121°09'381600.0
2014-Sep-18 21:33N 31°21' E 121°31'656236180.4
2014-Sep-18 21:33N 23°04' E 113°29'018.3
2014-Sep-18 21:32N 23°04' E 113°29'1169.3
2014-Sep-18 21:23N 22°55' E 113°36'1113.4
2014-Sep-18 20:33N 23°04' E 113°29'65878927.8
2014-Sep-18 20:33N 31°44' E 121°02'3210435.4
2014-Sep-18 20:33N 31°24' E 121°31'65884660.7
2014-Sep-18 20:32N 23°04' E 113°29'111360.4
2014-Sep-18 20:32N 22°54' E 113°35'412.3
2014-Sep-18 20:12N 22°57' E 113°38'812.8
2014-Sep-18 19:33N 22°54' E 113°30'5642.5
2014-Sep-18 19:33N 22°54' E 113°35'1210501.8
2014-Sep-18 19:33N 23°04' E 113°29'020.2
2014-Sep-18 19:32N 23°04' E 113°29'97710016.7
2014-Sep-18 19:26N 37°52' E 121°20'3558818.6
2014-Sep-18 19:24N 31°58' E 120°51'662794638.8
2014-Sep-18 19:24N 23°04' E 113°29'65811721.9
2014-Sep-18 19:20N 31°44' E 121°02'658836.1
2014-Sep-18 18:33N 23°04' E 113°29'6612381336.8
2014-Sep-18 18:33N 32°00' E 120°46'66295259.0
2014-Sep-18 18:33N 23°04' E 113°29'014.6
2014-Sep-18 18:32N 23°04' E 113°29'12415.2
2014-Sep-18 18:30N 22°54' E 113°22'9908306.8
2014-Sep-18 18:23N 37°52' E 121°24'9781173.7
2014-Sep-18 17:33N 23°04' E 113°29'22303.1
2014-Sep-18 17:29N 22°42' E 113°30'22265.1
2014-Sep-18 17:24N 23°04' E 113°29'9798350.8
2014-Sep-18 17:17N 37°51' E 121°29'9796777.4
2014-Sep-18 17:08N 23°04' E 113°29'1932.1
2014-Sep-18 16:33N 22°48' E 113°19'356920.4
2014-Sep-18 16:33N 22°17' E 113°36'486377.2
2014-Sep-18 16:33N 23°04' E 113°29'974500693.1
2014-Sep-18 16:33N 37°45' E 121°29'974152403.9
2014-Sep-18 16:32N 23°04' E 113°29'0 1.3
2014-Sep-18 16:24N 23°04' E 113°29'65812528.3
2014-Sep-18 16:21N 31°44' E 121°02'363461.0
2014-Sep-18 15:33N 37°46' E 121°26'97468723.9
2014-Sep-18 15:33N 23°04' E 113°29'030.0
2014-Sep-18 15:32N 23°04' E 113°29'5424209.4
2014-Sep-18 15:32N 22°12' E 113°43'54289.7
2014-Sep-18 15:21N 23°04' E 113°29'6585106.0
2014-Sep-18 15:13N 31°29' E 121°24'658993.0
2014-Sep-18 14:33N 23°04' E 113°29'973166760.0
2014-Sep-18 14:33N 37°48' E 121°22'10191835068.3
2014-Sep-18 14:33N 22°06' E 113°49'614452.3
2014-Sep-18 14:32N 23°04' E 113°29'0 0.8
2014-Sep-18 14:24N 23°04' E 113°29'6584254.8
2014-Sep-18 14:15N 31°24' E 121°30'658943.0
2014-Sep-18 13:33N 23°04' E 113°29'0 0.7
2014-Sep-18 13:21N 23°04' E 113°29'0 9.5
2014-Sep-18 13:20N 23°04' E 113°29'65817036.2
2014-Sep-18 13:18N 31°44' E 121°02'658886.8
2014-Sep-18 12:33N 23°04' E 113°29'017.7
2014-Sep-18 12:33N 23°04' E 113°29'6581330.3
2014-Sep-18 12:03N 31°29' E 121°24'6581324.6
2014-Sep-18 11:33N 23°04' E 113°28'7245.7
2014-Sep-18 11:32N 23°02' E 113°21'857.8
2014-Sep-18 11:23N 23°04' E 113°30'1 2.7
2014-Sep-18 11:12N 23°04' E 113°29'0 0.2
2014-Sep-18 10:33N 23°04' E 113°29'12086.9
2014-Sep-18 10:33N 23°05' E 113°28'29465.0
2014-Sep-18 10:30N 22°38' E 113°41'66330590.5
2014-Sep-18 10:28N 30°25' E 122°27'65614399.5
2014-Sep-18 10:25N 22°58' E 113°30'6233.1
2014-Sep-18 10:24N 23°04' E 113°29'96899575.4
2014-Sep-18 10:23N 37°45' E 121°14'9681155.5
2014-Sep-18 09:33N 23°04' E 113°29'052.7
2014-Sep-18 09:33N 23°04' E 113°29'281352.7
2014-Sep-18 09:32N 22°38' E 113°41'663125608.1
2014-Sep-18 09:31N 30°25' E 122°27'4419178.6
2014-Sep-18 09:28N 37°42' E 121°09'96324071.4
2014-Sep-18 09:26N 23°04' E 113°30'6582300.5
2014-Sep-18 09:09N 31°44' E 121°02'6581111.4
2014-Sep-18 08:33N 23°04' E 113°30'068.4
2014-Sep-18 08:33N 23°04' E 113°29'652111781.8
2014-Sep-18 08:33N 30°25' E 122°27'6565556.8
2014-Sep-18 08:25N 22°58' E 113°30'6 7.2
2014-Sep-18 07:33N 23°04' E 113°30'65273330.8
2014-Sep-18 07:33N 30°25' E 122°27'6527475.9
2014-Sep-18 07:28N 23°04' E 113°29'6585313.8
2014-Sep-18 07:20N 31°24' E 121°30'6785161.5
2014-Sep-18 07:12N 22°27' E 113°46'4061.3
2014-Sep-18 06:33N 23°04' E 113°30'65232591.5
2014-Sep-18 06:32N 30°25' E 122°27'6529169.7
2014-Sep-18 06:28N 23°04' E 113°29'6176.9
2014-Sep-18 06:25N 22°58' E 113°30'661.1
2014-Sep-18 06:19N 23°04' E 113°30'6582501.8
2014-Sep-18 06:03N 31°24' E 121°30'6581299.7
2014-Sep-18 05:33N 23°04' E 113°30'652180505.4
2014-Sep-18 05:33N 30°25' E 122°27'65627461.3
2014-Sep-18 05:31N 22°58' E 113°30'6101.7
2014-Sep-18 05:28N 23°04' E 113°29'0 3.3
2014-Sep-18 05:22N 23°04' E 113°29'6584093.4
2014-Sep-18 05:12N 31°24' E 121°30'6581010.8
2014-Sep-18 04:33N 23°04' E 113°30'146.2
2014-Sep-18 04:32N 23°04' E 113°28'652782806.6
2014-Sep-18 04:32N 30°25' E 122°27'6529169.7
2014-Sep-18 04:28N 23°04' E 113°29'6175.7
2014-Sep-18 04:25N 22°58' E 113°30'6524644.9
2014-Sep-18 04:17N 31°58' E 120°20'6883428.1
2014-Sep-18 04:05N 22°13' E 113°35'5197.7
2014-Sep-18 03:33N 23°04' E 113°30'6427069.1
2014-Sep-18 03:28N 31°56' E 120°15'1458145.8
2014-Sep-18 03:27N 30°25' E 122°27'65218197.0
2014-Sep-18 03:25N 23°04' E 113°29'49242.2
2014-Sep-18 03:13N 22°15' E 113°22'6921029.5
2014-Sep-18 02:32N 30°25' E 122°27'65280916.8
2014-Sep-18 02:32N 23°04' E 113°30'63960514.9
2014-Sep-18 02:31N 31°56' E 120°08'63911005.6
2014-Sep-18 02:28N 23°04' E 113°29'6589038.0
2014-Sep-18 02:23N 31°44' E 121°02'30180.3
2014-Sep-18 02:13N 32°01' E 120°33'91606.4
2014-Sep-18 02:13N 31°58' E 120°23'6955234.2
2014-Sep-18 02:05N 22°10' E 113°26'70372283.7
2014-Sep-18 02:05N 31°24' E 121°30'6581269.7
2014-Sep-18 01:33N 23°04' E 113°30'93270.2
2014-Sep-18 01:33N 22°56' E 113°34'66222920.0
2014-Sep-18 01:32N 31°24' E 121°30'651768.9
2014-Sep-18 01:29N 32°02' E 120°28'6229.7
2014-Sep-18 01:28N 31°58' E 120°23'648388697.5
2014-Sep-18 01:28N 23°04' E 113°29'6525782.2
2014-Sep-18 01:21N 30°25' E 122°27'881181.7
2014-Sep-18 01:16N 31°31' E 121°19'68829500.9
2014-Sep-18 01:15N 22°09' E 113°54'6086.0
2014-Sep-18 00:33N 23°04' E 113°29'650585114.2
2014-Sep-18 00:33N 31°59' E 120°26'686224587.4
2014-Sep-18 00:33N 22°11' E 113°48'6852467613.7
2014-Sep-18 00:33N 31°58' E 120°25'6541177013.6
2014-Sep-18 00:33N 22°56' E 113°34'431217.2
2014-Sep-18 00:31N 22°13' E 113°35'52977.1
2014-Sep-18 00:28N 23°04' E 113°29'6525059.4
2014-Sep-18 00:20N 30°25' E 122°27'6932906.1
2014-Sep-18 00:06N 22°10' E 113°27'713.6
2014-Sep-17 23:34N 22°10' E 113°35'545114.9
2014-Sep-17 23:33N 23°04' E 113°29'5412980.9
2014-Sep-17 23:33N 22°10' E 113°31'4682586.1
2014-Sep-17 23:33N 22°56' E 113°34'423504.8
2014-Sep-17 23:32N 22°15' E 113°41'51718.6
2014-Sep-17 23:28N 23°04' E 113°29'65236680.6
2014-Sep-17 23:27N 30°25' E 122°27'77284.9
2014-Sep-17 23:10N 31°24' E 121°30'7913597.3
2014-Sep-17 23:10N 30°38' E 122°46'43115987.9
2014-Sep-17 23:08N 37°42' E 121°09'9631632.9
2014-Sep-17 22:33N 23°04' E 113°29'91115.6
2014-Sep-17 22:33N 22°56' E 113°34'467562.7
2014-Sep-17 22:32N 22°10' E 113°31'69111299.6
2014-Sep-17 22:29N 30°25' E 122°27'68254574.0
2014-Sep-17 22:28N 22°17' E 113°35'72454.3
2014-Sep-17 22:28N 22°10' E 113°32'53230.8
2014-Sep-17 22:14N 23°02' E 113°22'1319.0
2014-Sep-17 21:33N 22°56' E 113°34'41416.8
2014-Sep-17 21:33N 22°56' E 113°30'9469.7
2014-Sep-17 21:32N 23°03' E 113°25'559389.3
2014-Sep-17 21:32N 22°09' E 113°33'55828.1
2014-Sep-17 21:28N 23°04' E 113°29'66815919.6
2014-Sep-17 21:25N 30°33' E 122°43'112941.7
2014-Sep-17 21:18N 31°44' E 121°02'3651771.7
2014-Sep-17 21:06N 37°49' E 121°21'9801815.9
2014-Sep-17 20:33N 22°56' E 113°34'92417.5
2014-Sep-17 20:33N 23°04' E 113°30'974140248.0
2014-Sep-17 20:33N 37°48' E 121°23'44672979.4
2014-Sep-17 20:32N 30°25' E 122°27'65275727.3
2014-Sep-17 20:32N 23°04' E 113°29'6703177.6
2014-Sep-17 20:19N 30°34' E 122°45'70812317.5
2014-Sep-17 20:16N 22°07' E 113°33'691983.5
2014-Sep-17 19:34N 30°25' E 122°27'655157176.2
2014-Sep-17 19:33N 22°56' E 113°34'97997890.3
2014-Sep-17 19:33N 37°48' E 121°21'97363681.2
2014-Sep-17 19:32N 23°04' E 113°29'555647.9
2014-Sep-17 19:31N 22°09' E 113°32'690717.5
2014-Sep-17 18:33N 30°25' E 122°27'65569342.0
2014-Sep-17 18:33N 22°56' E 113°34'9476.7
2014-Sep-17 18:32N 23°04' E 113°29'542985.8
2014-Sep-17 18:31N 22°10' E 113°32'341534.2
2014-Sep-17 18:29N 22°18' E 114°07'661698.2
2014-Sep-17 17:32N 30°25' E 122°27'65252168.1
2014-Sep-17 17:32N 23°04' E 113°29'542940.5
2014-Sep-17 17:31N 22°10' E 113°32'467459.0
2014-Sep-17 17:30N 22°56' E 113°34'351668.4
2014-Sep-17 17:29N 22°26' E 113°53'10005247.2
2014-Sep-17 17:18N 37°49' E 121°19'447608.6
2014-Sep-17 16:34N 30°25' E 122°27'44729236.2
2014-Sep-17 16:33N 37°49' E 121°22'97467412.8
2014-Sep-17 16:32N 23°04' E 113°29'54798.7
2014-Sep-17 16:28N 22°10' E 113°32'46478.4
2014-Sep-17 16:22N 22°56' E 113°34'655811.3
2014-Sep-17 15:34N 30°25' E 122°27'65512090.4
2014-Sep-17 15:30N 22°56' E 113°34'492430.5
2014-Sep-17 15:29N 22°18' E 114°07'5810411.8
2014-Sep-17 15:29N 23°04' E 113°29'63810730.3
2014-Sep-17 15:25N 31°59' E 120°00'55488.3
2014-Sep-17 15:18N 31°44' E 121°02'66310022.2
2014-Sep-17 15:14N 22°58' E 113°30'64312126.2
2014-Sep-17 15:11N 32°00' E 119°60'3552787.5
2014-Sep-17 15:04N 37°49' E 121°24'357697.9
2014-Sep-17 14:33N 31°58' E 120°03'64220102.0
2014-Sep-17 14:31N 22°59' E 113°30'4333.0
2014-Sep-17 14:30N 22°56' E 113°34'6554841.2
2014-Sep-17 14:22N 30°25' E 122°27'68980066.5
2014-Sep-17 14:22N 22°10' E 113°32'6845624.7
2014-Sep-17 14:14N 31°58' E 120°06'4372636.8
2014-Sep-17 14:04N 24°46' E 118°49'311583.9
2014-Sep-17 13:32N 22°58' E 113°30'41160.9
2014-Sep-17 13:32N 22°56' E 113°34'51142.9
2014-Sep-17 13:32N 22°54' E 113°29'64920502.6
2014-Sep-17 13:30N 31°57' E 120°10'014.1
2014-Sep-17 13:29N 31°57' E 120°10'1491598.0
2014-Sep-17 13:23N 30°25' E 122°27'76351.6
2014-Sep-17 13:10N 31°24' E 121°30'71116.2
2014-Sep-17 12:33N 31°57' E 120°16'64846688.4
2014-Sep-17 12:32N 22°58' E 113°30'64930755.9
2014-Sep-17 12:31N 31°57' E 120°17'14523659.4
2014-Sep-17 12:31N 30°25' E 122°27'6551717.1
2014-Sep-17 12:08N 22°56' E 113°34'6531135.8
2014-Sep-17 11:33N 31°60' E 120°21'52369.4
2014-Sep-17 11:33N 32°01' E 120°27'65745511.5
2014-Sep-17 11:32N 22°58' E 113°30'65641433.8
2014-Sep-17 11:32N 30°25' E 122°27'6552418.1
2014-Sep-17 11:15N 22°56' E 113°34'657935.7
2014-Sep-17 10:33N 32°01' E 120°25'657181811.4
2014-Sep-17 10:33N 22°56' E 113°34'4480.7
2014-Sep-17 10:32N 22°58' E 113°30'661792754.5
2014-Sep-17 10:32N 32°02' E 120°33'68149.8
2014-Sep-17 10:05N 31°15' E 121°32'69131.0
2014-Sep-17 09:33N 30°25' E 122°27'1397154.9
2014-Sep-17 09:32N 32°02' E 120°30'70016040.0
2014-Sep-17 09:30N 22°10' E 113°32'34733.8
2014-Sep-17 09:27N 22°45' E 113°33'67511853.8
2014-Sep-17 09:23N 32°00' E 120°45'910.2
2014-Sep-17 08:33N 32°01' E 120°35'136244454.2
2014-Sep-17 08:33N 30°25' E 122°27'13336880.6
2014-Sep-17 08:33N 31°60' E 120°37'66176773.6
2014-Sep-17 08:32N 22°58' E 113°30'99199132.5
2014-Sep-17 08:32N 39°04' E 117°48'4266191967.2
2014-Sep-17 08:31S 23°50' E 151°15'3825327852.1
2014-Sep-17 08:30N 32°00' E 120°24'67813.2
2014-Sep-17 08:25N 31°24' E 121°30'66238099.5
2014-Sep-17 08:25N 31°58' E 120°24'6485665.6
2014-Sep-17 08:18N 23°04' E 113°30'652878.3
2014-Sep-17 07:33N 30°25' E 122°27'9303.1
2014-Sep-17 07:32N 30°27' E 122°16'65352202.0
2014-Sep-17 07:31N 22°51' E 113°33'13457.2
2014-Sep-17 07:29N 22°48' E 113°20'67233139.2
2014-Sep-17 07:28N 32°02' E 120°28'92210.6
2014-Sep-17 07:28N 31°57' E 120°19'18221.3
2014-Sep-17 07:23N 32°00' E 120°39'341656.1
2014-Sep-17 07:22N 32°00' E 119°60'35012466.3
2014-Sep-17 07:20N 37°31' E 122°19'50724.9
2014-Sep-17 07:16N 36°44' E 122°40'3121589.2
2014-Sep-17 07:04N 32°03' E 119°55'20674043.8
2014-Sep-17 06:34N 01°18' E 103°44'2402393065.9
2014-Sep-17 06:33N 39°04' E 117°52'446801947.9
2014-Sep-17 06:33N 32°01' E 120°43'187046.3
2014-Sep-17 06:33N 31°60' E 120°23'308277604.3
2014-Sep-17 06:33N 36°48' E 122°34'38330639.8
2014-Sep-17 06:32N 30°25' E 122°27'6563364.5
2014-Sep-17 06:20N 22°58' E 113°30'99124778.6
2014-Sep-17 06:18N 37°36' E 122°23'9861182793.3
2014-Sep-17 06:18N 23°04' E 113°30'64079388.2
2014-Sep-17 06:18N 31°56' E 120°10'318426.6
2014-Sep-17 05:33N 36°54' E 122°26'956181188.2
2014-Sep-17 05:32N 22°58' E 113°30'65663833.7
2014-Sep-17 05:32N 30°25' E 122°27'205432862.7
2014-Sep-17 05:28N 01°19' E 103°43'14181544.6
2014-Sep-17 04:33N 22°56' E 113°30'6577682.9
2014-Sep-17 04:28N 30°25' E 122°27'205425585.0
2014-Sep-17 04:23N 01°19' E 103°43'207417280.1
2014-Sep-17 04:16N 31°58' E 120°22'656920.2
2014-Sep-17 03:33N 22°54' E 113°30'65617760.8
2014-Sep-17 03:31N 31°58' E 120°22'1425101.7
2014-Sep-17 03:29N 30°25' E 122°27'205424006.7
2014-Sep-17 03:24N 01°19' E 103°43'142116553.8
2014-Sep-17 03:19N 23°02' E 113°22'837.8
2014-Sep-17 03:06N 23°04' E 113°30'1019.1
2014-Sep-17 02:33N 23°03' E 113°19'6618.2
2014-Sep-17 02:33N 23°04' E 113°26'106232.7
2014-Sep-17 02:33N 22°54' E 113°28'65660592.4
2014-Sep-17 02:32N 31°58' E 120°22'658473870.6
2014-Sep-17 02:32N 22°54' E 113°24'66213697.2
2014-Sep-17 02:29N 30°25' E 122°27'6522282.1
2014-Sep-17 02:12N 23°04' E 113°30'142510735.8
2014-Sep-17 02:04N 01°19' E 103°43'20543990.3
2014-Sep-17 01:33N 30°25' E 122°27'1428502.9
2014-Sep-17 01:32N 31°58' E 120°22'2074933125.0
2014-Sep-17 01:32N 01°19' E 103°43'20667437754.2
2014-Sep-17 01:32N 32°02' E 119°57'53462.8
2014-Sep-17 01:25N 31°48' E 120°57'6578218.3
2014-Sep-17 01:20N 23°04' E 113°29'6493108.4
2014-Sep-17 01:08N 31°60' E 120°23'3 5.6
2014-Sep-17 00:33N 32°02' E 120°26'65243489.3
2014-Sep-17 00:32N 23°04' E 113°29'652195634.0
2014-Sep-17 00:32N 30°25' E 122°27'157112925.6
2014-Sep-17 00:32N 31°59' E 120°00'18862.8
2014-Sep-17 00:31N 31°58' E 120°22'355266.0
2014-Sep-17 00:30N 31°47' E 121°01'208191366.9
2014-Sep-17 00:29N 01°19' E 103°43'142517105.6
2014-Sep-17 00:24N 23°04' E 113°30'229731.0
2014-Sep-17 00:05N 23°40' E 117°37'520976.3
2014-Sep-16 23:33N 31°58' E 120°22'101134.0
2014-Sep-16 23:33N 32°02' E 120°33'657197063.2
2014-Sep-16 23:33N 23°02' E 113°31'661793178.4
2014-Sep-16 23:33N 31°45' E 121°06'660475234.6
2014-Sep-16 23:32N 23°04' E 113°29'142625281.6
2014-Sep-16 23:29N 01°19' E 103°43'20657435259.6
2014-Sep-16 23:29N 31°58' E 120°04'64185420.0
2014-Sep-16 23:29N 23°04' E 113°25'662716.1
2014-Sep-16 22:33N 31°42' E 121°10'4137038.3
2014-Sep-16 22:33N 31°58' E 120°26'151103.2
2014-Sep-16 22:32N 31°57' E 120°08'15089957.7
2014-Sep-16 22:32N 30°25' E 122°27'2054110359.4
2014-Sep-16 22:31N 01°19' E 103°43'239845428.4
2014-Sep-16 22:28N 37°42' E 121°14'96554292.2
2014-Sep-16 22:27N 23°04' E 113°29'641719.2
2014-Sep-16 21:33N 31°56' E 120°12'122392.7
2014-Sep-16 21:33N 31°58' E 120°26'349104581.6
2014-Sep-16 21:33N 37°43' E 121°26'4419865.3
2014-Sep-16 21:30N 30°25' E 122°27'9610113.3
2014-Sep-16 21:30N 31°38' E 121°15'66014142.3
2014-Sep-16 21:27N 23°04' E 113°29'643722.1
2014-Sep-16 20:33N 31°57' E 120°15'91626.1
2014-Sep-16 20:33N 31°58' E 120°26'2075122479.5
2014-Sep-16 20:32N 01°19' E 103°43'2079415813.7
2014-Sep-16 20:32N 31°35' E 121°19'6591524.4
2014-Sep-16 20:06N 23°04' E 113°29'6591224.9
2014-Sep-16 19:33N 31°32' E 121°23'6136548.0
2014-Sep-16 19:33N 31°58' E 120°18'6741.1
2014-Sep-16 19:33N 31°58' E 120°26'6506495.5
2014-Sep-16 19:27N 23°04' E 113°29'649723.2
2014-Sep-16 18:33N 31°60' E 120°22'41235.1
2014-Sep-16 18:33N 31°58' E 120°26'6015465.1
2014-Sep-16 18:33N 31°29' E 121°27'20785071.4
2014-Sep-16 18:08N 01°19' E 103°43'20783595.6
2014-Sep-16 17:33N 32°02' E 120°25'6626437.9
2014-Sep-16 17:33N 31°26' E 121°30'641141.3
2014-Sep-16 17:30N 31°58' E 120°26'65012572.0
2014-Sep-16 17:27N 23°04' E 113°29'142611084.6
2014-Sep-16 17:19N 01°19' E 103°43'205414384.9
2014-Sep-16 17:11N 30°25' E 122°27'142228.9
2014-Sep-16 16:33N 32°04' E 120°29'61050.1
2014-Sep-16 16:33N 31°58' E 120°26'652505.3
2014-Sep-16 16:31N 31°22' E 121°30'65723634.5
2014-Sep-16 16:30N 23°04' E 113°29'1426116637.7
2014-Sep-16 16:29N 01°19' E 103°43'20832245.7
2014-Sep-16 15:33N 32°03' E 120°33'8929.1
2014-Sep-16 15:33N 31°58' E 120°26'2075155648.5
2014-Sep-16 15:32N 01°19' E 103°43'142616138.9
2014-Sep-16 15:27N 23°04' E 113°29'6522945.3
2014-Sep-16 15:14N 30°25' E 122°27'39144005.9
2014-Sep-16 15:13N 24°47' E 118°46'441659.7
2014-Sep-16 14:33N 31°58' E 120°26'2075146493.0
2014-Sep-16 14:32N 01°19' E 103°43'140324407.7
2014-Sep-16 14:29N 22°47' E 113°13'23127.2
2014-Sep-16 14:18N 23°04' E 113°29'6383771.3
2014-Sep-16 14:08N 31°58' E 120°03'2033.7
2014-Sep-16 13:33N 31°58' E 120°26'13830.0
2014-Sep-16 13:32N 32°00' E 120°41'65911743.4
2014-Sep-16 13:29N 23°04' E 113°30'11646.7
2014-Sep-16 13:28N 22°53' E 113°31'141633988.3
2014-Sep-16 13:25N 01°19' E 103°43'20752387.7
2014-Sep-16 12:33N 31°58' E 120°26'2075146492.2
2014-Sep-16 12:32N 01°19' E 103°43'20873756533.8
2014-Sep-16 12:32N 32°01' E 120°47'28485.7
2014-Sep-16 12:29N 31°57' E 120°14'1010.9
2014-Sep-16 11:33N 31°58' E 120°26'5715.1
2014-Sep-16 11:32N 31°59' E 120°20'274229.7
2014-Sep-16 11:32N 31°58' E 120°52'208631036.4
2014-Sep-16 11:28N 01°19' E 103°43'207925283.7
2014-Sep-16 11:23N 31°47' E 120°56'113483.9
2014-Sep-16 11:09N 30°25' E 122°27'142238.2
2014-Sep-16 10:34N 32°02' E 120°26'2078311739.0
2014-Sep-16 10:33N 01°19' E 103°43'207534911.2
2014-Sep-16 10:30N 31°58' E 120°26'6498289.7
2014-Sep-16 10:25N 23°04' E 113°30'65238469.9
2014-Sep-16 10:24N 30°25' E 122°27'68225068.4
2014-Sep-16 10:22N 22°17' E 113°35'682829.7
2014-Sep-16 09:33N 30°25' E 122°27'14026436.3
2014-Sep-16 09:33N 31°58' E 120°26'71626.7
2014-Sep-16 09:32N 32°02' E 120°33'243277.6
2014-Sep-16 09:32N 31°47' E 120°55'2079162675.5
2014-Sep-16 09:31N 01°19' E 103°43'1382191311.8
2014-Sep-16 09:31N 22°12' E 113°37'521739.4
2014-Sep-16 09:29N 23°04' E 113°30'103313145.1
2014-Sep-16 09:24N 38°49' E 121°38'505590.9
2014-Sep-16 08:33N 30°25' E 122°27'13927895.7
2014-Sep-16 08:33N 31°58' E 120°26'207585874.2
2014-Sep-16 08:31N 01°19' E 103°43'208381523.2
2014-Sep-16 08:30N 32°00' E 120°40'18108.2
2014-Sep-16 08:20N 31°47' E 120°54'655261987.0
2014-Sep-16 08:20N 23°04' E 113°30'7695064.4
2014-Sep-16 08:10N 34°49' E 119°22'306496.9
2014-Sep-16 07:33N 30°25' E 122°27'2054295761.4
2014-Sep-16 07:33N 01°19' E 103°43'2075226391.9
2014-Sep-16 07:33N 31°58' E 120°26'65018268.1
2014-Sep-16 07:30N 23°04' E 113°29'6527500.9
2014-Sep-16 07:25N 30°37' E 122°15'5557648.5
2014-Sep-16 07:21N 39°05' E 117°44'4 5.4
2014-Sep-16 06:33N 39°04' E 117°49'48819518.7
2014-Sep-16 06:32N 31°29' E 121°25'65924965.2
2014-Sep-16 06:30N 23°04' E 113°29'9861774480.0
2014-Sep-16 06:30N 39°04' E 117°50'44431967.6
2014-Sep-16 06:30N 31°58' E 120°26'5256.7
2014-Sep-16 06:28N 31°60' E 120°20'1235615.4
2014-Sep-16 06:27N 30°46' E 122°16'2065118016.0
2014-Sep-16 06:26N 01°19' E 103°43'0 0.0
2014-Sep-16 05:33N 01°19' E 103°43'141658603.0
2014-Sep-16 05:32N 22°53' E 113°31'667343040.9
2014-Sep-16 05:31N 31°26' E 121°30'6511699.1
2014-Sep-16 05:31N 32°01' E 120°25'336.2
2014-Sep-16 05:27N 31°58' E 120°26'4436068.9
2014-Sep-16 05:22N 39°04' E 117°53'49314079.2
2014-Sep-16 05:20N 31°24' E 121°30'65823942.1
2014-Sep-16 05:18N 23°04' E 113°29'1361.9
2014-Sep-16 05:06N 22°51' E 113°34'6651231.4
2014-Sep-16 04:33N 31°23' E 121°30'6477255.7
2014-Sep-16 04:33N 32°02' E 120°30'44129413.7
2014-Sep-16 04:32N 39°04' E 117°50'010.2
2014-Sep-16 04:31N 39°04' E 117°51'44493995.3
2014-Sep-16 04:31N 31°58' E 120°26'655157244.7
2014-Sep-16 04:31N 22°57' E 113°30'7915.2
2014-Sep-16 04:30N 23°04' E 113°29'6553145.2
2014-Sep-16 04:18N 31°47' E 120°54'207810448.8
2014-Sep-16 04:06N 01°19' E 103°43'20823825.6
2014-Sep-16 03:33N 32°01' E 120°35'666073.1
2014-Sep-16 03:33N 31°18' E 121°34'2072181909.4
2014-Sep-16 03:32N 01°19' E 103°43'2075143671.2
2014-Sep-16 03:31N 31°58' E 120°26'64911925.9
2014-Sep-16 03:28N 23°04' E 113°30'13103.2
2014-Sep-16 03:20N 23°07' E 113°16'13400.2
2014-Sep-16 03:18N 23°04' E 113°29'6564489.9
2014-Sep-16 03:10N 31°22' E 121°29'558250.9
2014-Sep-16 03:09N 32°02' E 120°44'6661113.1
2014-Sep-16 02:33N 23°06' E 113°18'65317688.1
2014-Sep-16 02:31N 31°58' E 120°26'726777.9
2014-Sep-16 02:31N 31°13' E 121°30'65014799.3
2014-Sep-16 02:28N 23°04' E 113°30'65671539.5
2014-Sep-16 02:27N 31°22' E 121°29'20736118.1
2014-Sep-16 02:07N 01°19' E 103°43'20753669.6
2014-Sep-16 01:33N 31°58' E 120°26'207541051.0
2014-Sep-16 01:30N 01°19' E 103°43'142531676.5
2014-Sep-16 01:27N 23°04' E 113°29'0 8.2
2014-Sep-16 01:25N 23°04' E 113°30'6562436.3
2014-Sep-16 01:09N 31°22' E 121°29'39769.5
2014-Sep-16 01:06N 31°47' E 120°54'2748.9
2014-Sep-16 00:33N 31°58' E 120°26'65319579.8
2014-Sep-16 00:31N 22°59' E 113°31'14221279804.5
2014-Sep-16 00:31N 01°19' E 103°43'142613946.4
2014-Sep-16 00:25N 23°04' E 113°30'1292.4
2014-Sep-16 00:17N 22°54' E 113°22'66814307.4
2014-Sep-16 00:14N 31°22' E 121°29'665970.5
2014-Sep-15 23:33N 22°55' E 113°27'67312417.0
2014-Sep-15 23:30N 32°04' E 120°45'66418662.0
2014-Sep-15 23:28N 23°04' E 113°30'142650814.8
2014-Sep-15 23:26N 01°19' E 103°43'1416137795.4
2014-Sep-15 23:26N 22°54' E 113°30'3 3.7
2014-Sep-15 22:33N 22°57' E 113°30'96931722.1
2014-Sep-15 22:31N 37°42' E 121°09'2395538892.0
2014-Sep-15 22:31N 01°19' E 103°43'205418167.1
2014-Sep-15 22:24N 30°25' E 122°27'1101671.5
2014-Sep-15 22:20N 31°47' E 121°02'7216.9
2014-Sep-15 22:19N 31°47' E 120°54'4216507.2
2014-Sep-15 22:15N 38°47' E 121°25'102810138.7
2014-Sep-15 22:09N 23°04' E 113°29'12148.0
2014-Sep-15 22:04N 22°54' E 113°22'6721322.5
2014-Sep-15 21:33N 31°44' E 121°07'660263982.5
2014-Sep-15 21:33N 23°04' E 113°29'142576591.4
2014-Sep-15 21:32N 01°19' E 103°43'2078220034.6
2014-Sep-15 21:32N 31°47' E 120°54'4216342.8
2014-Sep-15 21:28N 38°47' E 121°28'10407256.3
2014-Sep-15 21:19N 22°54' E 113°22'1215.2
2014-Sep-15 20:34N 23°04' E 113°29'142565791.2
2014-Sep-15 20:32N 01°19' E 103°43'208171336.8
2014-Sep-15 20:30N 31°39' E 121°14'66022629.0
2014-Sep-15 20:29N 23°04' E 113°29'65536849.0
2014-Sep-15 20:28N 31°47' E 120°54'6674598.1
2014-Sep-15 20:19N 22°54' E 113°22'14141855.7
2014-Sep-15 19:33N 01°19' E 103°43'14251026343.1
2014-Sep-15 19:33N 23°04' E 113°29'12315.3
2014-Sep-15 19:31N 22°54' E 113°22'66169988.9
2014-Sep-15 19:30N 31°58' E 120°26'70324.0
2014-Sep-15 19:17N 31°14' E 121°29'650888.0
2014-Sep-15 18:34N 23°04' E 113°29'649194827.4
2014-Sep-15 18:33N 31°58' E 120°26'2075113189.0
2014-Sep-15 18:32N 01°19' E 103°43'2462805756.2
2014-Sep-15 18:32N 38°48' E 121°28'104157666.2
2014-Sep-15 18:31N 22°54' E 113°22'12137.2
2014-Sep-15 18:26N 23°04' E 113°29'652391274.1
2014-Sep-15 18:26N 30°25' E 122°27'652745.0
2014-Sep-15 17:33N 23°04' E 113°29'103027675.3
2014-Sep-15 17:31N 38°47' E 121°32'41336236.6
2014-Sep-15 17:30N 31°58' E 120°26'64924099.6
2014-Sep-15 17:29N 23°04' E 113°29'65224202.7
2014-Sep-15 17:27N 30°25' E 122°27'2054142192.7
2014-Sep-15 17:26N 01°19' E 103°43'207363258.4
2014-Sep-15 17:24N 31°20' E 121°33'657774.1
2014-Sep-15 16:33N 23°04' E 113°29'6491168964.2
2014-Sep-15 16:33N 31°58' E 120°26'2075113189.0
2014-Sep-15 16:32N 01°19' E 103°43'207341465.8
2014-Sep-15 16:29N 31°21' E 121°30'66831215.9
2014-Sep-15 16:28N 22°54' E 113°22'6198225364.0
2014-Sep-15 16:26N 49°18' W 123°02'6184636042.6
2014-Sep-15 16:26N 23°04' E 113°29'97694962.3
2014-Sep-15 16:25N 37°34' E 122°01'9761132.1
2014-Sep-15 15:33N 23°04' E 113°29'64918265.3
2014-Sep-15 15:31N 31°58' E 120°26'661300.9
2014-Sep-15 15:28N 31°21' E 121°30'207331493.1
2014-Sep-15 15:24N 01°19' E 103°43'142611379.6
2014-Sep-15 15:17N 23°04' E 113°29'97610614.5
2014-Sep-15 15:11N 37°34' E 122°01'374577.6
2014-Sep-15 14:32N 31°21' E 121°30'656131230.6
2014-Sep-15 14:32N 23°04' E 113°29'64946759.6
2014-Sep-15 14:31N 31°58' E 120°26'2075124508.4
2014-Sep-15 14:30N 01°19' E 103°43'142660378.9
2014-Sep-15 14:29N 23°04' E 113°29'6551665.6
2014-Sep-15 14:05N 31°47' E 120°54'6551235.6
2014-Sep-15 13:33N 23°04' E 113°29'68384803.5
2014-Sep-15 13:33N 31°21' E 122°16'1011297.4
2014-Sep-15 13:28N 31°58' E 120°26'64973051.2
2014-Sep-15 13:28N 23°04' E 113°29'142657024.6
2014-Sep-15 13:26N 01°19' E 103°43'14251608.2
2014-Sep-15 12:33N 23°04' E 113°29'655102554.3
2014-Sep-15 12:33N 31°47' E 120°54'66027622.1
2014-Sep-15 12:31N 23°02' E 113°24'64313938.9
2014-Sep-15 12:28N 31°58' E 120°03'194882.1
2014-Sep-15 12:28N 31°58' E 120°26'65503.7
2014-Sep-15 12:20N 31°24' E 121°31'207510376.5
2014-Sep-15 12:08N 01°19' E 103°43'14262439.2
2014-Sep-15 11:33N 23°04' E 113°30'142630731.6
2014-Sep-15 11:31N 01°19' E 103°43'2384245238.6
2014-Sep-15 11:30N 36°54' E 122°26'31210397.2
2014-Sep-15 11:28N 31°58' E 120°26'261002.7
2014-Sep-15 11:27N 31°47' E 120°54'36325.9
2014-Sep-15 11:20N 31°26' E 121°29'731485.9
2014-Sep-15 11:17N 31°57' E 120°11'20672847.0
2014-Sep-15 10:33N 01°19' E 103°43'2069286474.3
2014-Sep-15 10:33N 31°57' E 120°15'3101116291.3
2014-Sep-15 10:33N 36°46' E 122°29'94628612.5
2014-Sep-15 10:31N 23°04' E 113°30'64913829.0
2014-Sep-15 10:28N 31°58' E 120°26'26107.6
2014-Sep-15 10:14N 31°47' E 120°54'3146.4
2014-Sep-15 09:34N 31°60' E 120°20'207494507.7
2014-Sep-15 09:32N 01°19' E 103°43'207834960.1
2014-Sep-15 09:29N 31°47' E 120°54'263616.7
2014-Sep-15 09:28N 31°58' E 120°26'6497303.4
2014-Sep-15 09:23N 23°04' E 113°30'649789.3
2014-Sep-15 08:34N 31°58' E 120°26'2075415028.5
2014-Sep-15 08:33N 01°19' E 103°43'207880446.3
2014-Sep-15 08:32N 31°47' E 120°54'6712381.6
2014-Sep-15 08:15N 22°45' E 113°30'205016.3
2014-Sep-15 08:15N 23°04' E 113°30'649947.7
2014-Sep-15 07:33N 31°58' E 120°26'649166933.9
2014-Sep-15 07:33N 23°04' E 113°30'142686990.3
2014-Sep-15 07:32N 01°19' E 103°43'2067572278.6
2014-Sep-15 07:32N 31°14' E 121°30'45395.7
2014-Sep-15 07:25N 31°47' E 120°54'39218.7
2014-Sep-15 07:15N 31°21' E 121°27'67058845.7
2014-Sep-15 07:14N 22°18' E 114°07'670994.5
2014-Sep-15 06:33N 31°58' E 120°26'649194757.7
2014-Sep-15 06:33N 23°04' E 113°30'537699.7
2014-Sep-15 06:33N 22°11' E 113°32'333518.5
2014-Sep-15 06:32N 22°18' E 114°07'682188889.7
2014-Sep-15 06:32N 32°02' E 120°45'561614.5
2014-Sep-15 06:30N 31°21' E 121°30'401832.0
2014-Sep-15 06:29N 31°47' E 120°54'461675.3
2014-Sep-15 06:27N 31°17' E 121°34'20378.2
2014-Sep-15 06:24N 31°31' E 121°19'207616143.6
2014-Sep-15 06:16N 01°19' E 103°43'20752911.3
2014-Sep-15 05:33N 31°58' E 120°26'689382.5
2014-Sep-15 05:33N 31°21' E 121°32'691146358.2
2014-Sep-15 05:33N 22°15' E 113°36'493603.7
2014-Sep-15 05:32N 23°04' E 113°30'142631681.5
2014-Sep-15 05:29N 01°19' E 103°43'208210814.7
2014-Sep-15 05:18N 31°60' E 120°38'6983926.4
2014-Sep-15 05:07N 22°22' E 113°17'6961242.8
2014-Sep-15 04:33N 32°01' E 120°33'2080832169.5
2014-Sep-15 04:33N 01°19' E 103°43'2075100924.7
2014-Sep-15 04:32N 31°23' E 121°30'69944168.1
2014-Sep-15 04:31N 22°18' E 113°19'69311943.7
2014-Sep-15 04:28N 31°58' E 120°26'66839.3
2014-Sep-15 04:23N 31°22' E 121°30'6882.7
2014-Sep-15 03:34N 32°01' E 120°25'32729.7
2014-Sep-15 03:33N 31°58' E 120°26'649167014.2
2014-Sep-15 03:33N 23°04' E 113°29'65930798.0
2014-Sep-15 03:32N 31°26' E 121°29'2076173845.3
2014-Sep-15 03:31N 01°19' E 103°43'1421213168.2
2014-Sep-15 03:31N 23°02' E 113°23'531266.5
2014-Sep-15 03:28N 22°10' E 113°31'6999833.7
2014-Sep-15 03:24N 31°47' E 120°54'40307.3
2014-Sep-15 03:16N 31°22' E 121°30'656897.1
2014-Sep-15 02:32N 23°05' E 113°28'1887.7
2014-Sep-15 02:32N 23°04' E 113°29'64635756.3
2014-Sep-15 02:31N 31°58' E 120°19'6199.0
2014-Sep-15 02:29N 31°58' E 120°26'207559291.1
2014-Sep-15 02:27N 01°19' E 103°43'1379275873.2
2014-Sep-15 02:27N 22°10' E 113°35'965.7
2014-Sep-15 02:19N 22°11' E 113°26'10337334.4
2014-Sep-15 02:11N 37°38' E 122°10'9831561.0
2014-Sep-15 01:33N 23°04' E 113°29'4712096.1
2014-Sep-15 01:33N 22°17' E 113°35'138558669.6
2014-Sep-15 01:31N 01°19' E 103°43'1382177672.6
2014-Sep-15 01:31N 22°13' E 113°35'5110220.6
2014-Sep-15 01:30N 23°04' E 113°29'12185.8
2014-Sep-15 01:26N 23°03' E 113°16'6572365113.8
2014-Sep-15 01:26N 31°58' E 120°26'64314.9
2014-Sep-15 01:14N 31°22' E 121°29'656951.6
2014-Sep-15 00:33N 23°04' E 113°29'65625657.7
2014-Sep-15 00:31N 31°47' E 120°55'70235578.5
2014-Sep-15 00:30N 22°10' E 113°27'69758329.8
2014-Sep-15 00:29N 31°58' E 120°26'69092046.6
2014-Sep-15 00:29N 22°13' E 113°35'1381124329.2
2014-Sep-15 00:28N 01°19' E 103°43'20813745371.9
2014-Sep-15 00:28N 32°00' E 120°35'6551808.2
2014-Sep-15 00:06N 23°04' E 113°29'1 2.4
2014-Sep-14 23:32N 23°03' E 113°30'650780074.4
2014-Sep-14 23:32N 31°58' E 120°26'4137.5
2014-Sep-14 23:30N 32°02' E 120°29'6542354340.3
2014-Sep-14 23:30N 23°04' E 113°29'656196675.5
2014-Sep-14 23:30N 31°47' E 120°55'39788.8
2014-Sep-14 23:27N 31°57' E 120°11'68615149.1
2014-Sep-14 23:25N 22°10' E 113°32'137813515.3
2014-Sep-14 23:19N 01°19' E 103°43'20712750.6
2014-Sep-14 22:33N 31°57' E 120°17'2071162048.2
2014-Sep-14 22:33N 01°19' E 103°43'1418729310.6
2014-Sep-14 22:32N 22°55' E 113°30'6562362475.7
2014-Sep-14 22:32N 31°58' E 120°26'65019649.9
2014-Sep-14 22:30N 23°04' E 113°29'656262221.0
2014-Sep-14 22:30N 31°47' E 120°55'3031.1
2014-Sep-14 21:33N 31°58' E 120°23'3150.5
2014-Sep-14 21:32N 31°58' E 120°26'2716276.4
2014-Sep-14 21:32N 31°47' E 120°55'20787482357.6
2014-Sep-14 21:32N 01°19' E 103°43'137851668.0
2014-Sep-14 21:31N 22°10' E 113°32'5419318.8
2014-Sep-14 21:30N 23°04' E 113°29'650685.1
2014-Sep-14 20:33N 31°59' E 120°27'144.8
2014-Sep-14 20:32N 31°58' E 120°26'6508007.9
2014-Sep-14 20:27N 23°04' E 113°29'142528042.1
2014-Sep-14 20:24N 01°19' E 103°43'1378165337.6
2014-Sep-14 20:24N 22°10' E 113°32'6996337.5
2014-Sep-14 20:17N 31°47' E 120°55'355486.1
2014-Sep-14 19:33N 37°42' E 121°09'344112735.7
2014-Sep-14 19:33N 31°59' E 120°27'65910879.7
2014-Sep-14 19:30N 22°51' E 113°34'412213.4
2014-Sep-14 19:29N 22°10' E 113°32'421758.8
2014-Sep-14 19:27N 22°52' E 113°33'65847366.2
2014-Sep-14 19:26N 31°58' E 120°26'20751867725.9
2014-Sep-14 19:26N 01°19' E 103°43'14257943.9
2014-Sep-14 19:15N 23°04' E 113°29'650926.9
2014-Sep-14 18:33N 31°59' E 120°27'69475735.5
2014-Sep-14 18:33N 22°11' E 113°32'417045.9
2014-Sep-14 18:32N 22°52' E 113°33'658236831.1
2014-Sep-14 18:32N 31°58' E 120°26'27796.7
2014-Sep-14 18:30N 31°47' E 120°55'35512792.7
2014-Sep-14 18:29N 37°42' E 121°11'239626956.5
2014-Sep-14 18:23N 01°19' E 103°43'142517880.6
2014-Sep-14 18:18N 23°04' E 113°29'650864.3
2014-Sep-14 17:33N 31°59' E 120°27'34812171.6
2014-Sep-14 17:32N 37°45' E 121°18'3493951.0
2014-Sep-14 17:26N 31°58' E 120°26'697100303.9
2014-Sep-14 17:26N 22°06' E 113°34'70111634.2
2014-Sep-14 17:22N 31°47' E 120°55'2733.3
2014-Sep-14 16:34N 31°59' E 120°27'141.9
2014-Sep-14 16:32N 31°58' E 120°26'65021256.8
2014-Sep-14 16:30N 23°04' E 113°29'201182.6
2014-Sep-14 16:29N 22°44' E 113°29'98664521.1
2014-Sep-14 16:29N 37°44' E 121°15'2400454699.8
2014-Sep-14 16:28N 01°19' E 103°43'13751491.0
2014-Sep-14 15:33N 22°07' E 113°33'69780957.8
2014-Sep-14 15:32N 31°59' E 120°27'1780.4
2014-Sep-14 15:32N 31°58' E 120°26'65021256.6
2014-Sep-14 15:30N 23°04' E 113°29'142538296.7
2014-Sep-14 15:28N 01°19' E 103°43'20762273.1
2014-Sep-14 14:33N 31°59' E 120°27'146.4
2014-Sep-14 14:32N 31°58' E 120°26'6508063.2
2014-Sep-14 14:27N 23°04' E 113°29'142516500.4
2014-Sep-14 14:22N 01°19' E 103°43'2079122665.6
2014-Sep-14 14:21N 31°47' E 120°55'21143.2
2014-Sep-14 14:12N 31°60' E 120°35'811.7
2014-Sep-14 13:33N 31°59' E 120°27'4108.1
2014-Sep-14 13:31N 32°02' E 120°30'5181.8
2014-Sep-14 13:29N 31°58' E 120°26'2075114937.1
2014-Sep-14 13:28N 01°19' E 103°43'208560536.2
2014-Sep-14 13:26N 32°00' E 120°44'7077148.4
2014-Sep-14 13:20N 22°06' E 113°34'7036266.2
2014-Sep-14 13:13N 31°60' E 120°38'20962.0
2014-Sep-14 13:12N 31°47' E 120°55'694624296.1
2014-Sep-14 13:12N 22°14' E 113°36'50523.8
2014-Sep-14 13:06N 23°04' E 113°29'6501182.5
2014-Sep-14 12:33N 31°60' E 120°23'930827.4
2014-Sep-14 12:33N 32°00' E 120°34'67341.4
2014-Sep-14 12:33N 31°59' E 120°27'10742.0
2014-Sep-14 12:33N 31°60' E 120°38'101884.5
2014-Sep-14 12:32N 31°58' E 120°26'27803.2
2014-Sep-14 12:30N 31°47' E 120°55'207860833.8
2014-Sep-14 12:28N 01°19' E 103°43'1425114036.3
2014-Sep-14 12:27N 23°04' E 113°29'47298.1
2014-Sep-14 12:18N 22°17' E 113°35'11177.1
2014-Sep-14 12:14N 22°06' E 113°34'7021024.4
2014-Sep-14 11:33N 32°01' E 120°33'6487.5
2014-Sep-14 11:32N 31°59' E 120°27'1736.4
2014-Sep-14 11:32N 31°58' E 120°26'72428.5
2014-Sep-14 11:32N 31°57' E 120°17'122234.7
2014-Sep-14 11:32N 32°01' E 120°30'208034827.3
2014-Sep-14 11:28N 01°19' E 103°43'142623651.5
2014-Sep-14 11:25N 23°04' E 113°30'58212.5
2014-Sep-14 11:08N 22°06' E 113°34'6971201.8
2014-Sep-14 10:33N 31°59' E 120°27'4870.2
2014-Sep-14 10:33N 32°02' E 120°30'572.0
2014-Sep-14 10:29N 31°58' E 120°26'2075126625.3
2014-Sep-14 10:28N 01°19' E 103°43'208022968.9
2014-Sep-14 10:23N 32°01' E 120°30'65460378.9
2014-Sep-14 10:22N 23°04' E 113°30'65510082.6
2014-Sep-14 10:18N 31°47' E 120°55'3552540.7
2014-Sep-14 10:10N 37°42' E 121°09'344568.1
2014-Sep-14 09:33N 31°59' E 120°27'3405.8
2014-Sep-14 09:33N 32°01' E 120°26'2078498707.2
2014-Sep-14 09:33N 01°19' E 103°43'2079287867.5
2014-Sep-14 09:32N 32°02' E 120°27'700168076.6
2014-Sep-14 09:32N 22°06' E 113°34'583431.4
2014-Sep-14 09:31N 23°04' E 113°30'649389599.3
2014-Sep-14 09:31N 31°58' E 120°26'555.6
2014-Sep-14 09:26N 32°01' E 120°30'4 4.6
2014-Sep-14 08:33N 31°59' E 120°27'4304.1
2014-Sep-14 08:33N 31°59' E 120°22'64825643.5
2014-Sep-14 08:31N 23°04' E 113°30'649389599.3
2014-Sep-14 08:31N 31°58' E 120°26'272122.0
2014-Sep-14 08:30N 31°47' E 120°55'3054121.3
2014-Sep-14 08:30N 31°60' E 120°23'444133243.3
2014-Sep-14 08:30N 39°05' E 117°45'44421323.5
2014-Sep-14 08:29N 32°01' E 120°30'208015763.9
2014-Sep-14 08:21N 01°19' E 103°43'20762628.0
2014-Sep-14 07:33N 31°59' E 120°27'101650.0
2014-Sep-14 07:33N 31°56' E 120°15'11027.5
2014-Sep-14 07:33N 31°57' E 120°16'4451603076.8
2014-Sep-14 07:33N 39°05' E 117°47'44424209.6
2014-Sep-14 07:32N 32°01' E 120°30'65450104.7
2014-Sep-14 07:31N 23°04' E 113°30'649389599.3
2014-Sep-14 07:31N 31°58' E 120°26'272121.8
2014-Sep-14 07:30N 31°47' E 120°55'3553559.7
2014-Sep-14 07:24N 37°42' E 121°09'2395507193.3
2014-Sep-14 07:24N 01°19' E 103°43'208164595.7
2014-Sep-14 07:22N 31°59' E 120°38'70313182.5
2014-Sep-14 07:19N 22°06' E 113°34'700920.5
2014-Sep-14 06:33N 32°02' E 120°27'3305.3
2014-Sep-14 06:33N 31°59' E 120°27'44417023.2
2014-Sep-14 06:31N 39°04' E 117°48'445534032.4
2014-Sep-14 06:31N 31°58' E 120°26'6498408.5
2014-Sep-14 06:26N 23°04' E 113°30'6557635.3
2014-Sep-14 06:21N 31°47' E 120°55'2078110036.0
2014-Sep-14 06:20N 01°19' E 103°43'24001439920.9
2014-Sep-14 06:20N 39°05' E 117°45'486249858.0
2014-Sep-14 06:20N 31°31' E 121°19'67525868.4
2014-Sep-14 06:18N 22°48' E 113°19'443223.5
2014-Sep-14 06:18N 22°06' E 113°34'697948.2
2014-Sep-14 05:33N 31°59' E 120°27'51832.2
2014-Sep-14 05:33N 31°59' E 120°21'64851801.9
2014-Sep-14 05:32N 23°04' E 113°30'64926868.9
2014-Sep-14 05:31N 31°58' E 120°26'44439008.8
2014-Sep-14 05:30N 39°04' E 117°50'123.4
2014-Sep-14 05:28N 39°04' E 117°51'43713567.8
2014-Sep-14 05:26N 31°59' E 119°59'6429796.3
2014-Sep-14 05:22N 23°02' E 113°22'6466122.5
2014-Sep-14 05:16N 31°56' E 120°13'206860516.1
2014-Sep-14 05:14N 01°19' E 103°43'2081144097.8
2014-Sep-14 05:13N 31°59' E 120°38'191628.1
2014-Sep-14 05:12N 31°47' E 120°55'2741.7
2014-Sep-14 04:33N 31°59' E 120°27'1323759.7
2014-Sep-14 04:33N 31°56' E 120°11'33116.4
2014-Sep-14 04:33N 31°56' E 120°15'64222652.1
2014-Sep-14 04:32N 23°04' E 113°29'64977939.9
2014-Sep-14 04:31N 31°58' E 120°26'44627210.0
2014-Sep-14 04:30N 39°05' E 117°46'2400169410.3
2014-Sep-14 04:29N 01°19' E 103°43'208199907.5
2014-Sep-14 04:28N 31°59' E 120°38'4482900.2
2014-Sep-14 04:19N 39°05' E 117°46'46466829.4
2014-Sep-14 04:18N 31°47' E 120°55'7018250.3
2014-Sep-14 04:13N 22°06' E 113°34'6971051.0
2014-Sep-14 03:33N 31°59' E 120°27'44513226.4
2014-Sep-14 03:31N 39°04' E 117°47'44767075.1
2014-Sep-14 03:31N 31°59' E 120°38'2081111836.7
2014-Sep-14 03:30N 01°19' E 103°43'1416849742.7
2014-Sep-14 03:30N 22°54' E 113°28'64780348.4
2014-Sep-14 03:29N 31°56' E 120°07'2466.8
2014-Sep-14 03:29N 31°57' E 120°04'44217489.2
2014-Sep-14 03:27N 39°05' E 117°46'44650190.1
2014-Sep-14 03:27N 31°58' E 120°26'671301781.6
2014-Sep-14 03:27N 22°18' E 114°07'601607.6
2014-Sep-14 03:25N 23°04' E 113°26'6573854.5
2014-Sep-14 03:14N 31°47' E 120°55'7015912.3
2014-Sep-14 03:07N 22°06' E 113°34'6971238.6
2014-Sep-14 02:33N 31°59' E 120°27'656138883.4
2014-Sep-14 02:33N 23°02' E 113°22'1421284159.8
2014-Sep-14 02:33N 01°19' E 103°43'141846416.4
2014-Sep-14 02:31N 22°56' E 113°30'103837008.8
2014-Sep-14 02:29N 38°47' E 121°34'17478189.1
2014-Sep-14 02:29N 39°05' E 117°52'44511040.0
2014-Sep-14 02:27N 31°58' E 120°26'444798950.7
2014-Sep-14 02:27N 39°04' E 117°51'104140310.0
2014-Sep-14 02:25N 22°06' E 113°34'11194.1
2014-Sep-14 02:22N 22°17' E 113°35'10307615.4
2014-Sep-14 02:14N 39°04' E 117°51'10331549.0
2014-Sep-14 01:34N 22°15' E 113°36'689275622.2
2014-Sep-14 01:33N 31°59' E 120°27'44445618.8
2014-Sep-14 01:33N 39°04' E 117°51'444532863.0
2014-Sep-14 01:33N 31°58' E 120°26'65049764.6
2014-Sep-14 01:32N 23°04' E 113°30'986197159.2
2014-Sep-14 01:32N 39°05' E 117°45'51680.5
2014-Sep-14 01:32N 39°04' E 117°51'1042178586.2
2014-Sep-14 01:31N 22°06' E 113°34'70312227.0
2014-Sep-14 01:28N 31°59' E 120°38'208132021.6
2014-Sep-14 01:24N 01°19' E 103°43'20787119.5
2014-Sep-14 01:06N 31°47' E 120°55'27 7.5
2014-Sep-13 21:34N 31°59' E 120°27'2781.8
2014-Sep-13 21:33N 31°58' E 120°25'3393.8
2014-Sep-13 21:33N 31°58' E 120°22'3477756.4
2014-Sep-13 21:30N 37°40' E 121°32'2403665442.6
2014-Sep-13 21:30N 01°19' E 103°43'207845074.3
2014-Sep-13 21:27N 31°47' E 120°55'656131113.3
2014-Sep-13 21:27N 23°04' E 113°29'58440.9
2014-Sep-13 21:19N 22°06' E 113°34'58864.1
2014-Sep-13 21:15N 23°04' E 113°30'65598250.2
2014-Sep-13 21:15N 31°47' E 120°54'355514.8
2014-Sep-13 20:33N 37°40' E 121°32'346177853.1
2014-Sep-13 20:33N 31°59' E 120°27'51276.0
2014-Sep-13 20:33N 31°58' E 120°22'2073829374.6
2014-Sep-13 20:33N 01°19' E 103°43'207879600.0
2014-Sep-13 20:31N 31°47' E 120°55'6551516.2
2014-Sep-13 20:05N 23°04' E 113°30'6501219.4
2014-Sep-13 19:33N 31°59' E 120°27'3459923.3
2014-Sep-13 19:31N 37°39' E 121°32'2402104185.2
2014-Sep-13 19:30N 01°19' E 103°43'207323109.6
2014-Sep-13 19:24N 31°58' E 120°22'31351.9
2014-Sep-13 19:19N 31°47' E 120°55'65520338.2
2014-Sep-13 19:17N 23°04' E 113°30'650889.2
2014-Sep-13 18:33N 31°59' E 120°27'51507.5
2014-Sep-13 18:33N 31°58' E 120°22'31917.9
2014-Sep-13 18:31N 31°47' E 120°55'3561279825.1
2014-Sep-13 18:31N 37°41' E 121°29'2403345976.6
2014-Sep-13 18:31N 01°19' E 103°43'142657026.8
2014-Sep-13 18:29N 23°04' E 113°30'0 0.8
2014-Sep-13 18:27N 23°04' E 113°30'43241.5
2014-Sep-13 18:17N 22°27' E 113°53'6744126.8
2014-Sep-13 18:07N 31°31' E 121°19'5699.4
2014-Sep-13 17:33N 31°58' E 120°22'51842.5
2014-Sep-13 17:33N 31°59' E 120°27'68825262.6
2014-Sep-13 17:31N 22°17' E 113°35'471952.7
2014-Sep-13 17:30N 23°04' E 113°30'0 1.8
2014-Sep-13 17:26N 23°04' E 113°30'1426366602.2
2014-Sep-13 17:26N 01°19' E 103°43'240421266.7
2014-Sep-13 17:19N 37°41' E 121°33'3561774.3
2014-Sep-13 17:07N 31°47' E 120°55'4987.1
2014-Sep-13 16:33N 31°59' E 119°59'194875.5
2014-Sep-13 16:33N 31°58' E 120°22'5247.5
2014-Sep-13 16:32N 31°59' E 120°27'69835874.7
2014-Sep-13 16:31N 22°06' E 113°34'11263.4
2014-Sep-13 16:28N 22°17' E 113°35'471311.0
2014-Sep-13 16:26N 23°04' E 113°30'142656400.3
2014-Sep-13 16:25N 01°19' E 103°43'14265280.1
2014-Sep-13 16:09N 23°04' E 113°29'97143692.4
2014-Sep-13 16:07N 37°41' E 121°33'0 0.2
2014-Sep-13 15:33N 37°41' E 121°33'346623132.3
2014-Sep-13 15:33N 31°59' E 120°27'65149826.5
2014-Sep-13 15:33N 23°04' E 113°29'115.0
2014-Sep-13 15:29N 23°04' E 113°30'647166430.0
2014-Sep-13 15:29N 31°58' E 120°22'69510124.2
2014-Sep-13 15:25N 22°06' E 113°34'137520040.9
2014-Sep-13 15:21N 01°19' E 103°43'20797527.8
2014-Sep-13 15:04N 31°47' E 120°55'2751.8
2014-Sep-13 14:33N 31°59' E 120°27'687164950.0
2014-Sep-13 14:33N 22°17' E 113°35'478513.4
2014-Sep-13 14:33N 23°04' E 113°29'971249660.4
2014-Sep-13 14:32N 37°40' E 121°35'34756775.6
2014-Sep-13 14:32N 31°58' E 120°22'647776697.1
2014-Sep-13 14:32N 23°04' E 113°30'1426466578.9
2014-Sep-13 14:32N 01°19' E 103°43'207913058.7
2014-Sep-13 14:22N 31°47' E 120°55'70112686.5
2014-Sep-13 14:19N 22°06' E 113°34'10251350.8
2014-Sep-13 13:33N 37°41' E 121°39'2406234104.2
2014-Sep-13 13:33N 01°19' E 103°43'14261283045.1
2014-Sep-13 13:33N 23°04' E 113°29'651111515.6
2014-Sep-13 13:32N 31°59' E 120°27'68816622.3
2014-Sep-13 13:30N 22°12' E 113°44'68544041.1
2014-Sep-13 13:29N 31°58' E 120°22'1284464.5
2014-Sep-13 13:27N 30°44' E 122°23'66210594.4
2014-Sep-13 13:24N 23°04' E 113°29'3773742.8
2014-Sep-13 13:17N 22°36' E 120°17'9081236.2
2014-Sep-13 12:33N 37°41' E 121°34'1016914526.6
2014-Sep-13 12:33N 22°08' E 113°49'689137725.0
2014-Sep-13 12:33N 31°59' E 120°27'65190070.3
2014-Sep-13 12:33N 23°04' E 113°29'1426111569.2
2014-Sep-13 12:32N 01°19' E 103°43'207338279.2
2014-Sep-13 12:29N 31°58' E 120°22'6477567.5
2014-Sep-13 12:23N 23°04' E 113°29'9701163.2
2014-Sep-13 11:33N 37°41' E 121°30'346249442.6
2014-Sep-13 11:33N 31°59' E 120°27'6892479049.7
2014-Sep-13 11:33N 22°08' E 113°49'595050.1
2014-Sep-13 11:33N 23°04' E 113°29'1426116641.1
2014-Sep-13 11:32N 01°19' E 103°43'2073439068.1
2014-Sep-13 11:32N 31°58' E 120°22'660792252.7
2014-Sep-13 11:32N 22°42' E 113°41'24181.4
2014-Sep-13 11:24N 23°04' E 113°29'656147510.5
2014-Sep-13 11:23N 31°47' E 120°55'463185266.7
2014-Sep-13 11:23N 39°04' E 117°48'463557.8
2014-Sep-13 10:33N 31°47' E 120°55'276003.2
2014-Sep-13 10:33N 31°59' E 120°27'446535075.6
2014-Sep-13 10:33N 39°05' E 117°45'985221678.5
2014-Sep-13 10:33N 23°04' E 113°29'967217624.1
2014-Sep-13 10:32N 37°41' E 121°23'190171079.2
2014-Sep-13 10:32N 39°05' E 117°45'998115921.0
2014-Sep-13 10:32N 22°50' E 113°36'65612054.6
2014-Sep-13 10:29N 31°58' E 120°21'6867012.7
2014-Sep-13 10:23N 22°08' E 113°49'1383108257.0
2014-Sep-13 10:22N 01°19' E 103°43'142688482.5
2014-Sep-13 10:21N 23°04' E 113°29'651818.6
2014-Sep-13 09:33N 31°59' E 120°27'6552356832.6
2014-Sep-13 09:33N 23°07' E 113°17'642144378.9
2014-Sep-13 09:33N 32°00' E 119°59'4361569919.3
2014-Sep-13 09:33N 39°04' E 117°53'992510255.5
2014-Sep-13 09:33N 22°57' E 113°32'726506.6
2014-Sep-13 09:33N 23°04' E 113°29'59838.1
2014-Sep-13 09:29N 22°08' E 113°49'686493695.7
2014-Sep-13 09:29N 31°58' E 120°21'2073165868.1
2014-Sep-13 09:28N 01°19' E 103°43'206599124.4
2014-Sep-13 09:27N 31°59' E 120°01'6386396.4
2014-Sep-13 09:21N 23°04' E 113°29'6495299.1
2014-Sep-13 09:13N 31°58' E 120°25'28884.5
2014-Sep-13 09:11N 31°47' E 120°55'4623809.4
2014-Sep-13 09:04N 39°04' E 117°52'440861.5
2014-Sep-13 08:33N 31°58' E 120°04'2017839.4
2014-Sep-13 08:33N 31°59' E 120°27'163892.0
2014-Sep-13 08:33N 31°57' E 120°08'146505.0
2014-Sep-13 08:33N 31°58' E 120°25'649106254.9
2014-Sep-13 08:33N 23°04' E 113°29'37030309.1
2014-Sep-13 08:32N 25°59' E 119°28'17421253995.2
2014-Sep-13 08:32N 01°19' E 103°43'142643862.8
2014-Sep-13 08:30N 23°04' E 113°29'65671518.2
2014-Sep-13 08:29N 31°47' E 120°55'65798609.8
2014-Sep-13 08:29N 23°07' E 113°22'649122948.6
2014-Sep-13 08:29N 31°58' E 120°22'68639830.2
2014-Sep-13 08:28N 22°06' E 113°53'103919375.8
2014-Sep-13 08:24N 39°04' E 117°52'50511886.4
2014-Sep-13 08:22N 31°18' E 121°50'5065515.0
2014-Sep-13 08:16N 39°04' E 117°50'9867679.7
2014-Sep-13 08:09N 23°04' E 113°29'6511098.9
2014-Sep-13 07:33N 31°59' E 120°27'655471748.6
2014-Sep-13 07:33N 23°02' E 113°24'644330946.9
2014-Sep-13 07:33N 31°57' E 120°06'153094.6
2014-Sep-13 07:33N 31°58' E 120°24'2100.8
2014-Sep-13 07:32N 31°58' E 120°22'64927813.6
2014-Sep-13 07:30N 23°07' E 113°22'1425223042.0
2014-Sep-13 07:30N 01°19' E 103°43'1426466567.7
2014-Sep-13 07:30N 23°04' E 113°29'656147498.2
2014-Sep-13 07:29N 31°47' E 120°55'6564636.7
2014-Sep-13 07:21N 23°04' E 113°29'98640787.0
2014-Sep-13 07:19N 39°04' E 117°50'4436940.5
2014-Sep-13 07:16N 31°57' E 120°16'1013.9
2014-Sep-13 06:33N 31°59' E 120°27'657102847.4
2014-Sep-13 06:33N 23°03' E 113°18'652260603.4
2014-Sep-13 06:33N 31°57' E 120°19'64534145.8
2014-Sep-13 06:31N 23°04' E 113°29'656337133.8
2014-Sep-13 06:31N 31°47' E 120°55'113204255.5
2014-Sep-13 06:31N 30°25' E 122°27'1423279.0
2014-Sep-13 06:29N 31°58' E 120°22'11361.5
2014-Sep-13 06:27N 31°56' E 120°09'65517346.7
2014-Sep-13 06:25N 22°45' E 113°31'100436882.2
2014-Sep-13 06:23N 39°05' E 117°45'98529313.6
2014-Sep-13 06:21N 23°04' E 113°29'657139093.0
2014-Sep-13 06:21N 31°31' E 121°19'70111525.4
2014-Sep-13 06:17N 22°06' E 113°34'104111716.8
2014-Sep-13 06:12N 39°05' E 117°44'446701.9
2014-Sep-13 05:34N 31°59' E 120°27'444177644.6
2014-Sep-13 05:33N 39°04' E 117°50'444228121.9
2014-Sep-13 05:33N 31°56' E 120°12'64968735.0
2014-Sep-13 05:33N 23°03' E 113°15'65636323.2
2014-Sep-13 05:32N 31°58' E 120°22'64722410.1
2014-Sep-13 05:30N 23°04' E 113°29'985118241.1
2014-Sep-13 05:29N 39°04' E 117°49'141.9
2014-Sep-13 05:28N 39°04' E 117°50'48422042.1
2014-Sep-13 05:27N 31°31' E 121°19'6575525.1
2014-Sep-13 05:20N 23°04' E 113°29'521287.4
2014-Sep-13 05:17N 22°13' E 113°35'770.3
2014-Sep-13 05:11N 22°06' E 113°35'6971097.8
2014-Sep-13 04:33N 31°59' E 120°27'659593093.6
2014-Sep-13 04:33N 23°03' E 113°15'651106567.6
2014-Sep-13 04:33N 31°57' E 120°15'652106721.4
2014-Sep-13 04:33N 22°50' E 113°34'4173176.3
2014-Sep-13 04:33N 22°10' E 113°36'69042852.1
2014-Sep-13 04:32N 31°58' E 120°22'647194217.2
2014-Sep-13 04:31N 23°04' E 113°29'010.6
2014-Sep-13 04:30N 23°04' E 113°29'98618292.2
2014-Sep-13 04:27N 39°04' E 117°50'1033123967.2
2014-Sep-13 04:26N 22°14' E 113°38'6921903.0
2014-Sep-13 04:04N 31°47' E 120°55'2751.7
2014-Sep-13 03:33N 31°59' E 120°27'65186735.6
2014-Sep-13 03:33N 23°04' E 113°29'91154.0
2014-Sep-13 03:32N 22°56' E 113°33'465696.7
2014-Sep-13 03:32N 22°10' E 113°31'693131212.8
2014-Sep-13 03:32N 31°58' E 120°22'3361.9
2014-Sep-13 03:31N 31°58' E 120°18'6548882.7
2014-Sep-13 03:27N 23°03' E 113°15'99028731.9
2014-Sep-13 03:25N 39°04' E 117°49'98888948.7
2014-Sep-13 03:24N 23°03' E 113°19'66223353.5
2014-Sep-13 03:22N 31°47' E 120°55'6567841.3
2014-Sep-13 03:17N 23°04' E 113°29'98665704.8
2014-Sep-13 03:16N 39°05' E 117°46'1 4.1
2014-Sep-13 03:05N 39°05' E 117°45'446858.9
2014-Sep-13 02:33N 31°59' E 120°27'62862.7
2014-Sep-13 02:33N 31°60' E 120°21'684164230.3
2014-Sep-13 02:33N 22°10' E 113°50'56100259.6
2014-Sep-13 02:33N 23°03' E 113°30'5017858.7
2014-Sep-13 02:33N 22°14' E 113°37'68731708.5
2014-Sep-13 02:32N 31°58' E 120°22'64716529.5
2014-Sep-13 02:29N 23°04' E 113°29'8499.5
2014-Sep-13 02:28N 23°02' E 113°21'6621191602.1
2014-Sep-13 02:28N 31°47' E 120°55'66099014.0
2014-Sep-13 02:28N 23°02' E 113°24'65717262.9
2014-Sep-13 02:26N 30°25' E 122°27'3008071.1
2014-Sep-13 02:23N 26°07' E 119°33'3789130.0
2014-Sep-13 02:21N 23°04' E 113°29'9864969.5
2014-Sep-13 02:09N 39°05' E 117°46'9851660.8
2014-Sep-13 01:33N 23°05' E 113°27'6511171574.0
2014-Sep-13 01:33N 31°59' E 120°27'519071.5
2014-Sep-13 01:33N 32°00' E 120°21'685176066.1
2014-Sep-13 01:33N 22°14' E 113°44'532561.8
2014-Sep-13 01:32N 23°05' E 113°26'65769533.9
2014-Sep-13 01:31N 31°47' E 120°55'316140.2
2014-Sep-13 01:31N 31°58' E 120°22'6564261.8
2014-Sep-13 01:22N 23°03' E 113°15'9906824.2
2014-Sep-13 01:13N 39°05' E 117°45'98510813.2
2014-Sep-13 01:08N 23°04' E 113°29'6481141.1
2014-Sep-13 00:33N 32°00' E 120°21'51589.3
2014-Sep-13 00:33N 31°59' E 120°27'651156138.6
2014-Sep-13 00:33N 23°04' E 113°29'64724797.2
2014-Sep-13 00:31N 31°58' E 120°22'3112280.5
2014-Sep-13 00:31N 31°47' E 120°55'691226097.1
2014-Sep-13 00:31N 22°17' E 113°37'486980.2
2014-Sep-13 00:31N 23°01' E 113°15'133836.0
2014-Sep-13 00:30N 23°04' E 113°29'985443438.2
2014-Sep-13 00:30N 39°04' E 117°51'9854473.6
2014-Sep-13 00:17N 23°04' E 113°29'648891.0
2014-Sep-12 23:33N 32°00' E 120°21'53813.3
2014-Sep-12 23:33N 31°59' E 120°27'6511171039.8
2014-Sep-12 23:33N 23°04' E 113°29'509076.4
2014-Sep-12 23:33N 22°14' E 113°35'1034177221.4
2014-Sep-12 23:33N 39°04' E 117°51'44326150.6
2014-Sep-12 23:32N 31°58' E 120°22'64733293.2
2014-Sep-12 23:30N 23°04' E 113°29'0 2.7
2014-Sep-12 23:29N 23°04' E 113°29'61510908.5
2014-Sep-12 23:26N 29°30' E 122°23'15618101.8
2014-Sep-12 23:25N 31°47' E 120°55'3551528.8
2014-Sep-12 23:11N 37°42' E 121°09'9767508.0
2014-Sep-12 23:04N 22°55' E 113°17'1529.2
2014-Sep-12 22:33N 23°04' E 113°29'638766151.4
2014-Sep-12 22:33N 31°58' E 120°04'1517525.0
2014-Sep-12 22:33N 32°00' E 120°21'52724.5
2014-Sep-12 22:33N 31°59' E 120°27'66782801.7
2014-Sep-12 22:33N 22°54' E 113°14'66439827.8
2014-Sep-12 22:32N 31°58' E 120°21'64751772.6
2014-Sep-12 22:31N 23°04' E 113°30'652111735.9
2014-Sep-12 22:31N 30°25' E 122°27'652586904.7
2014-Sep-12 22:30N 23°04' E 113°29'6204779.6
2014-Sep-12 22:23N 29°38' E 122°23'1492607.5
2014-Sep-12 22:19N 31°47' E 120°55'2734.8
2014-Sep-12 21:33N 31°59' E 120°27'519071.5
2014-Sep-12 21:33N 32°00' E 120°21'81817.9
2014-Sep-12 21:33N 31°57' E 120°13'6422310439.6
2014-Sep-12 21:33N 23°04' E 113°29'65622693.7
2014-Sep-12 21:31N 31°47' E 120°55'31707.9
2014-Sep-12 21:29N 31°58' E 120°21'24518.7
2014-Sep-12 21:26N 32°07' E 119°55'6311.8
2014-Sep-12 21:25N 32°01' E 119°58'6386294.0
2014-Sep-12 21:19N 23°04' E 113°29'96510306.9
2014-Sep-12 21:13N 36°47' E 123°11'96518473.6
2014-Sep-12 21:10N 23°04' E 113°30'53645.5
2014-Sep-12 21:05N 22°11' E 113°25'445477.0
2014-Sep-12 21:04N 22°54' E 113°13'6551249.5
2014-Sep-12 20:33N 31°58' E 120°03'655471323.1
2014-Sep-12 20:33N 22°54' E 113°13'665239329.5
2014-Sep-12 20:33N 31°60' E 120°21'648137262.6
2014-Sep-12 20:32N 23°04' E 113°29'649583709.1
2014-Sep-12 20:32N 32°00' E 120°21'14416161.9
2014-Sep-12 20:32N 30°25' E 122°27'14236549.7
2014-Sep-12 20:32N 31°58' E 120°21'58481.9
2014-Sep-12 20:32N 31°59' E 120°27'688225294.0
2014-Sep-12 20:31N 22°15' E 113°37'495065.2
2014-Sep-12 20:31N 23°04' E 113°30'1126.2
2014-Sep-12 20:30N 23°04' E 113°29'9657827.5
2014-Sep-12 20:23N 36°49' E 123°09'10149919.0
2014-Sep-12 20:17N 22°11' E 113°25'70111324.1
2014-Sep-12 20:13N 31°47' E 120°55'656989.6
2014-Sep-12 19:33N 23°04' E 113°29'65432275.0
2014-Sep-12 19:32N 32°02' E 120°29'47110.9
2014-Sep-12 19:32N 31°59' E 120°27'51271.4
2014-Sep-12 19:32N 32°00' E 120°21'118254.4
2014-Sep-12 19:32N 31°57' E 120°08'3298271.0
2014-Sep-12 19:30N 36°51' E 123°06'33226541.1
2014-Sep-12 19:29N 31°31' E 121°19'881016.8
2014-Sep-12 19:24N 30°25' E 122°27'1429472.5
2014-Sep-12 19:23N 31°58' E 120°22'6479322.4
2014-Sep-12 19:18N 23°04' E 113°29'1 5.8
2014-Sep-12 19:10N 23°04' E 113°30'1 1.2
2014-Sep-12 18:33N 23°04' E 113°29'65642969.1
2014-Sep-12 18:32N 32°01' E 120°35'123415.3
2014-Sep-12 18:32N 32°00' E 120°21'5713653.3
2014-Sep-12 18:32N 31°31' E 121°19'52186554.6
2014-Sep-12 18:32N 31°59' E 120°27'53315.7
2014-Sep-12 18:32N 31°58' E 120°22'14285257.2
2014-Sep-12 18:32N 30°25' E 122°27'11324030.1
2014-Sep-12 18:31N 31°47' E 120°55'65598302.1
2014-Sep-12 18:31N 23°04' E 113°30'97074327.5
2014-Sep-12 18:30N 36°56' E 123°07'97022395.7
2014-Sep-12 18:27N 23°04' E 113°29'4054627.6
2014-Sep-12 18:22N 26°45' E 119°43'635776.0
2014-Sep-12 17:33N 36°56' E 123°06'971205546.8
2014-Sep-12 17:33N 23°04' E 113°29'64938280.2
2014-Sep-12 17:32N 32°00' E 120°21'51648.9
2014-Sep-12 17:32N 31°57' E 120°16'911195.4
2014-Sep-12 17:32N 31°59' E 120°27'104030.6
2014-Sep-12 17:31N 32°00' E 120°39'197700.7
2014-Sep-12 17:31N 31°47' E 120°55'65650210.3
2014-Sep-12 17:30N 23°04' E 113°29'0 5.1
2014-Sep-12 17:30N 23°04' E 113°29'65212355.6
2014-Sep-12 17:27N 30°25' E 122°27'1422167.6
2014-Sep-12 17:23N 31°58' E 120°22'647779.3
2014-Sep-12 16:33N 23°04' E 113°30'183658.1
2014-Sep-12 16:33N 22°54' E 113°13'119999.8
2014-Sep-12 16:32N 23°02' E 113°21'65641443.4
2014-Sep-12 16:32N 31°59' E 120°27'619920.1
2014-Sep-12 16:31N 31°60' E 120°21'0127.2
2014-Sep-12 16:31N 32°00' E 120°21'32114879.3
2014-Sep-12 16:31N 31°47' E 120°55'65625934.1
2014-Sep-12 16:30N 23°04' E 113°29'64735312.0
2014-Sep-12 16:29N 31°58' E 120°22'15660.6
2014-Sep-12 16:27N 32°00' E 120°39'6583329.9
2014-Sep-12 16:15N 23°04' E 113°29'6526260.4
2014-Sep-12 16:09N 30°25' E 122°27'38910953.8
2014-Sep-12 16:07N 36°53' E 123°04'3345002.8
2014-Sep-12 16:03N 31°31' E 121°19'6741367.1
2014-Sep-12 15:34N 22°54' E 113°13'183130.5
2014-Sep-12 15:33N 23°04' E 113°30'9653475658.6
2014-Sep-12 15:33N 36°52' E 123°02'9673481357.7
2014-Sep-12 15:33N 23°04' E 113°26'65018284.9
2014-Sep-12 15:31N 32°00' E 120°21'59525.4
2014-Sep-12 15:31N 31°59' E 120°27'31628.2
2014-Sep-12 15:31N 32°01' E 120°24'13213.7
2014-Sep-12 15:27N 32°00' E 120°39'1917414.8
2014-Sep-12 15:27N 31°47' E 120°55'11319435.5
2014-Sep-12 15:27N 30°25' E 122°27'88911.6
2014-Sep-12 15:21N 31°31' E 121°19'562326.8
2014-Sep-12 15:20N 31°58' E 120°22'64733294.9
2014-Sep-12 15:18N 23°04' E 113°29'651868.0
2014-Sep-12 14:34N 31°59' E 120°27'650780407.7
2014-Sep-12 14:33N 23°04' E 113°30'96393718.0
2014-Sep-12 14:33N 36°52' E 122°58'31933812.5
2014-Sep-12 14:32N 32°00' E 120°21'2175.3
2014-Sep-12 14:32N 31°58' E 120°22'685176075.9
2014-Sep-12 14:31N 22°17' E 113°35'473051.7
2014-Sep-12 14:30N 23°04' E 113°29'65813376.2
2014-Sep-12 14:28N 32°00' E 120°39'194096.7
2014-Sep-12 14:27N 31°47' E 120°55'67355025.0
2014-Sep-12 14:27N 22°54' E 113°13'6707133.6
2014-Sep-12 14:21N 30°25' E 122°27'65212486.8
2014-Sep-12 14:18N 23°04' E 113°29'1824.2
2014-Sep-12 13:33N 22°54' E 113°13'4943921.6
2014-Sep-12 13:33N 22°14' E 113°43'5213359.4
2014-Sep-12 13:33N 23°04' E 113°30'959215664.6
2014-Sep-12 13:33N 36°52' E 122°46'959132814.1
2014-Sep-12 13:32N 23°03' E 113°30'251.0
2014-Sep-12 13:30N 23°04' E 113°29'0 4.6
2014-Sep-12 13:30N 23°04' E 113°29'65060045.0
2014-Sep-12 13:29N 31°59' E 120°27'5613.9
2014-Sep-12 13:29N 31°58' E 120°22'1425879.8
2014-Sep-12 13:27N 30°25' E 122°27'1339751.0
2014-Sep-12 13:26N 32°00' E 120°39'1554405.4
2014-Sep-12 13:26N 32°00' E 120°21'32919.0
2014-Sep-12 13:24N 31°47' E 120°55'2731.5
2014-Sep-12 12:33N 31°59' E 120°27'279618.5
2014-Sep-12 12:33N 31°47' E 120°55'673345873.3
2014-Sep-12 12:33N 22°54' E 113°13'969387698.2
2014-Sep-12 12:33N 36°53' E 122°34'953381245.3
2014-Sep-12 12:33N 23°04' E 113°30'64897251.3
2014-Sep-12 12:32N 32°00' E 120°21'649122964.1
2014-Sep-12 12:32N 23°03' E 113°30'64883298.9
2014-Sep-12 12:32N 31°58' E 120°22'152781.4
2014-Sep-12 12:31N 32°00' E 120°39'65824921.1
2014-Sep-12 12:30N 23°04' E 113°29'0 1.6
2014-Sep-12 12:27N 23°04' E 113°29'65215048.6
2014-Sep-12 12:25N 30°25' E 122°27'887231.4
2014-Sep-12 12:24N 31°31' E 121°19'7023162.0
2014-Sep-12 12:11N 22°11' E 113°25'6971120.5
2014-Sep-12 11:33N 31°59' E 120°27'53179.5
2014-Sep-12 11:33N 32°00' E 120°21'152365.4
2014-Sep-12 11:33N 32°00' E 120°39'30839653.3
2014-Sep-12 11:33N 36°55' E 122°27'969872023.7
2014-Sep-12 11:32N 22°54' E 113°13'66448788.1
2014-Sep-12 11:32N 31°58' E 120°22'653469914.3
2014-Sep-12 11:32N 23°02' E 113°22'658118468.1
2014-Sep-12 11:31N 30°25' E 122°27'1137288.6
2014-Sep-12 11:30N 31°47' E 120°55'65626239.2
2014-Sep-12 11:29N 23°03' E 113°30'212.2
2014-Sep-12 11:21N 23°04' E 113°29'53806.2
2014-Sep-12 11:17N 22°11' E 113°25'5373.5
2014-Sep-12 10:34N 23°04' E 113°30'650195121.6
2014-Sep-12 10:33N 31°59' E 120°27'651106506.7
2014-Sep-12 10:33N 23°05' E 113°27'649111234.3
2014-Sep-12 10:33N 32°00' E 120°21'665299339.2
2014-Sep-12 10:32N 22°54' E 113°13'67489930.2
2014-Sep-12 10:32N 32°00' E 120°39'658215382.8
2014-Sep-12 10:32N 23°03' E 113°30'648233197.8
2014-Sep-12 10:32N 31°58' E 120°21'14211123.5
2014-Sep-12 10:31N 30°25' E 122°27'65293904.1
2014-Sep-12 10:30N 23°04' E 113°29'6574170.6
2014-Sep-12 10:21N 31°31' E 121°19'657157643.8
2014-Sep-12 10:21N 23°04' E 113°29'65616053.6
2014-Sep-12 10:18N 31°47' E 120°55'69516037.2
2014-Sep-12 10:16N 22°13' E 113°35'67926302.4
2014-Sep-12 10:14N 31°59' E 120°00'1851675.4
2014-Sep-12 10:08N 29°42' E 122°25'170298.4
2014-Sep-12 09:33N 31°59' E 120°27'651213047.4
2014-Sep-12 09:33N 23°03' E 113°30'649292044.3
2014-Sep-12 09:33N 32°00' E 120°21'212838.1
2014-Sep-12 09:33N 32°01' E 120°46'211399.1
2014-Sep-12 09:32N 31°58' E 120°21'64732821.4
2014-Sep-12 09:30N 23°04' E 113°29'0 6.8
2014-Sep-12 09:29N 23°04' E 113°29'512842.3
2014-Sep-12 09:28N 22°13' E 113°36'511769.6
2014-Sep-12 09:26N 23°04' E 113°30'65522468.4
2014-Sep-12 09:24N 31°47' E 120°55'113617.0
2014-Sep-12 09:13N 30°25' E 122°27'6927785.1
2014-Sep-12 09:08N 22°17' E 113°20'481430.0
2014-Sep-12 09:06N 23°04' E 113°29'6481201.5
2014-Sep-12 08:33N 32°00' E 120°21'136046.6
2014-Sep-12 08:33N 32°00' E 120°37'82766.6
2014-Sep-12 08:33N 31°59' E 120°27'651106461.5
2014-Sep-12 08:33N 23°04' E 113°29'257.4
2014-Sep-12 08:31N 23°05' E 113°27'3129.0
2014-Sep-12 08:30N 23°04' E 113°30'64733769.7
2014-Sep-12 08:29N 31°58' E 120°22'64733290.4
2014-Sep-12 08:27N 23°04' E 113°29'656168572.2
2014-Sep-12 08:27N 31°47' E 120°55'69912404.7
2014-Sep-12 08:24N 22°17' E 113°20'164056.8
2014-Sep-12 08:24N 22°14' E 113°36'515905.4
2014-Sep-12 08:23N 23°04' E 113°30'64232993.2
2014-Sep-12 08:22N 31°57' E 120°13'1471742.9
2014-Sep-12 08:17N 30°25' E 122°27'889360.6
2014-Sep-12 08:16N 31°31' E 121°19'5779.7
2014-Sep-12 07:33N 32°00' E 120°21'5768319.2
2014-Sep-12 07:33N 31°31' E 121°19'6572365030.4
2014-Sep-12 07:33N 23°04' E 113°29'65124396.5
2014-Sep-12 07:32N 31°59' E 120°27'51658.5
2014-Sep-12 07:32N 31°58' E 120°22'3579.7
2014-Sep-12 07:31N 31°58' E 120°18'144103980.9
2014-Sep-12 07:31N 30°25' E 122°27'12922114.1
2014-Sep-12 07:31N 32°01' E 120°46'66295318.4
2014-Sep-12 07:30N 23°04' E 113°30'111.5
2014-Sep-12 07:26N 23°04' E 113°30'511245.4
2014-Sep-12 07:24N 22°14' E 113°36'6947828.9
2014-Sep-12 07:18N 31°47' E 120°55'3126.5
2014-Sep-12 07:17N 31°47' E 120°59'65831998.5
2014-Sep-12 07:15N 23°04' E 113°29'48274.9
2014-Sep-12 07:05N 22°17' E 113°20'6931322.7
2014-Sep-12 06:33N 32°00' E 120°21'6481167225.8
2014-Sep-12 06:33N 23°03' E 113°30'2321.2
2014-Sep-12 06:33N 23°04' E 113°29'651390334.5
2014-Sep-12 06:33N 31°59' E 120°27'372809.5
2014-Sep-12 06:32N 31°44' E 121°07'4124563.1
2014-Sep-12 06:32N 31°58' E 120°21'5613417.2
2014-Sep-12 06:32N 31°31' E 121°19'561020.2
2014-Sep-12 06:29N 31°58' E 120°22'64714562.8
2014-Sep-12 06:26N 23°04' E 113°30'65235552.1
2014-Sep-12 06:25N 30°25' E 122°27'69221294.5
2014-Sep-12 06:23N 22°17' E 113°20'48648.3
2014-Sep-12 06:18N 23°04' E 113°29'65619504.2
2014-Sep-12 06:16N 31°47' E 120°55'69424013.5
2014-Sep-12 06:15N 22°14' E 113°36'63811650.0
2014-Sep-12 06:11N 29°37' E 122°06'130204.2
2014-Sep-12 05:33N 31°39' E 121°15'5145681.3
2014-Sep-12 05:33N 32°00' E 120°21'51059.8
2014-Sep-12 05:33N 31°59' E 120°27'65175549.2
2014-Sep-12 05:33N 23°04' E 113°29'64745703.2
2014-Sep-12 05:32N 31°58' E 120°22'647211858.9
2014-Sep-12 05:31N 23°04' E 113°30'659139582.6
2014-Sep-12 05:31N 31°28' E 121°27'65959341.0
2014-Sep-12 05:31N 23°04' E 113°29'481809.5
2014-Sep-12 05:29N 22°17' E 113°20'48989.0
2014-Sep-12 05:26N 23°04' E 113°30'4815577.4
2014-Sep-12 05:26N 22°17' E 113°36'6913301.1
2014-Sep-12 05:13N 31°47' E 120°55'46713130.3
2014-Sep-12 05:11N 24°21' E 118°18'88516250.2
2014-Sep-12 05:08N 39°05' E 117°44'57013061.5
2014-Sep-12 05:05N 30°25' E 122°27'6521233.1
2014-Sep-12 04:34N 23°04' E 113°29'651468401.4
2014-Sep-12 04:33N 31°59' E 120°27'6546629.9
2014-Sep-12 04:33N 31°22' E 121°30'656196940.8
2014-Sep-12 04:33N 23°04' E 113°30'648291817.6
2014-Sep-12 04:33N 32°00' E 120°21'44132404.7
2014-Sep-12 04:32N 39°03' E 117°49'44361325.8
2014-Sep-12 04:32N 31°58' E 120°22'1429651.8
2014-Sep-12 04:31N 30°25' E 122°27'1132148.5
2014-Sep-12 04:28N 31°47' E 120°55'46837462.3
2014-Sep-12 04:27N 24°21' E 118°14'27117126.7
2014-Sep-12 04:26N 23°04' E 113°30'1 6.3
2014-Sep-12 04:19N 23°04' E 113°29'6602918.4
2014-Sep-12 04:05N 31°30' E 121°26'6601257.3
2014-Sep-12 03:33N 23°03' E 113°30'646465439.1
2014-Sep-12 03:33N 31°58' E 120°20'647179031.0
2014-Sep-12 03:33N 23°04' E 113°29'33988.3
2014-Sep-12 03:33N 23°04' E 113°25'653117471.2
2014-Sep-12 03:33N 31°59' E 120°27'473567634.4
2014-Sep-12 03:33N 24°22' E 118°08'46183008.5
2014-Sep-12 03:32N 31°28' E 121°29'48932034.0
2014-Sep-12 03:31N 39°03' E 117°50'4626519.9
2014-Sep-12 03:27N 31°47' E 120°55'65531459.5
2014-Sep-12 03:26N 23°04' E 113°30'6552357511.9
2014-Sep-12 03:26N 31°17' E 121°34'6986769.2
2014-Sep-12 03:20N 22°17' E 113°20'69213253.9
2014-Sep-12 03:17N 31°58' E 120°22'14285257.2
2014-Sep-12 03:17N 30°25' E 122°27'6613273.2
2014-Sep-12 03:04N 23°04' E 113°16'1222.7
2014-Sep-12 02:34N 23°04' E 113°29'15286.9
2014-Sep-12 02:33N 23°03' E 113°30'647581917.1
2014-Sep-12 02:33N 31°58' E 120°21'3112297.0
2014-Sep-12 02:33N 31°47' E 120°55'2719227.2
2014-Sep-12 02:33N 31°59' E 120°27'62674.9
2014-Sep-12 02:33N 31°58' E 120°20'14357186.6
2014-Sep-12 02:33N 30°25' E 122°27'43020623.7
2014-Sep-12 02:32N 24°25' E 118°03'2717918.1
2014-Sep-12 02:30N 23°02' E 113°22'11353.5
2014-Sep-12 02:28N 22°54' E 113°13'664113846.6
2014-Sep-12 02:27N 31°58' E 120°22'64729125.0
2014-Sep-12 02:26N 23°04' E 113°30'96329879.8
2014-Sep-12 02:24N 37°41' E 121°09'1755480.0
2014-Sep-12 02:22N 39°04' E 117°52'2402157202.6
2014-Sep-12 02:21N 01°19' E 103°43'14261792.5
2014-Sep-12 01:34N 23°04' E 113°29'6511171021.4
2014-Sep-12 01:33N 31°59' E 120°27'6512342017.3
2014-Sep-12 01:33N 23°03' E 113°30'647258605.5
2014-Sep-12 01:33N 31°58' E 120°20'66329471.9
2014-Sep-12 01:32N 22°54' E 113°13'66425985.3
2014-Sep-12 01:30N 31°58' E 120°22'69516347.2
2014-Sep-12 01:28N 22°10' E 113°27'1039162616.3
2014-Sep-12 01:27N 39°04' E 117°47'463139044.3
2014-Sep-12 01:27N 31°47' E 120°55'207858916.0
2014-Sep-12 01:25N 01°19' E 103°44'205423324.0
2014-Sep-12 01:20N 30°25' E 122°27'44736.2
2014-Sep-12 01:16N 29°42' E 122°23'62215985.4
2014-Sep-12 01:14N 23°04' E 113°30'14262095.6
2014-Sep-12 00:33N 01°19' E 103°44'141067678.0
2014-Sep-12 00:32N 22°54' E 113°13'182446.9
2014-Sep-12 00:31N 23°03' E 113°30'65612553.9
2014-Sep-12 00:28N 31°47' E 120°55'2716024.3
2014-Sep-12 00:28N 31°59' E 120°27'6513.8
2014-Sep-12 00:28N 31°58' E 120°20'12496.3
2014-Sep-12 00:28N 31°58' E 120°22'64725605.4
2014-Sep-12 00:26N 23°04' E 113°30'6523425.7
2014-Sep-12 00:15N 30°25' E 122°27'441178.8
2014-Sep-12 00:12N 29°41' E 122°25'645193397.3
2014-Sep-12 00:12N 22°09' E 113°55'25285.6
2014-Sep-12 00:07N 22°09' E 113°27'6941246.4
2014-Sep-11 23:33N 31°58' E 120°20'61554.5
2014-Sep-11 23:33N 31°59' E 120°27'269311.0
2014-Sep-11 23:33N 31°47' E 120°54'66125321.2
2014-Sep-11 23:32N 23°03' E 113°19'1421300864.3
2014-Sep-11 23:31N 01°19' E 103°44'137835175.0
2014-Sep-11 23:29N 22°10' E 113°32'70244329.3
2014-Sep-11 23:28N 29°52' E 123°20'19932494.1
2014-Sep-11 23:28N 31°58' E 120°22'664149398.7
2014-Sep-11 23:27N 22°54' E 113°13'67219682.8
2014-Sep-11 23:25N 31°47' E 120°55'65517476.9
2014-Sep-11 23:23N 23°04' E 113°30'492392.2
2014-Sep-11 23:22N 22°16' E 113°36'100424415.5
2014-Sep-11 23:19N 37°40' E 121°08'344451.0
2014-Sep-11 22:34N 31°58' E 120°21'6882476788.4
2014-Sep-11 22:34N 22°13' E 113°35'687309197.2
2014-Sep-11 22:33N 31°58' E 120°20'67257.8
2014-Sep-11 22:33N 31°59' E 120°27'3461245614.9
2014-Sep-11 22:33N 37°42' E 121°16'100844793.3
2014-Sep-11 22:32N 22°15' E 113°41'68022884.3
2014-Sep-11 22:30N 31°57' E 120°16'391083.6
2014-Sep-11 22:28N 31°46' E 121°00'67625355.4
2014-Sep-11 22:26N 22°27' E 113°53'453330.4
2014-Sep-11 22:26N 22°54' E 113°13'18417.3
2014-Sep-11 22:23N 23°04' E 113°30'1426106920.9
2014-Sep-11 22:22N 01°19' E 103°44'205446795.7
2014-Sep-11 22:20N 30°25' E 122°27'113731.7
2014-Sep-11 22:10N 31°47' E 120°55'331144.3
2014-Sep-11 22:09N 31°59' E 120°19'2 3.3
2014-Sep-11 21:34N 31°58' E 120°21'1388.5
2014-Sep-11 21:33N 31°58' E 120°20'24240.3
2014-Sep-11 21:33N 31°60' E 120°22'41454.7
2014-Sep-11 21:33N 31°57' E 120°19'73658.5
2014-Sep-11 21:33N 31°59' E 120°27'69565852.5
2014-Sep-11 21:32N 22°10' E 113°32'69526321.1
2014-Sep-11 21:31N 31°58' E 120°27'207677836.6
2014-Sep-11 21:29N 01°19' E 103°44'142626730.3
2014-Sep-11 21:26N 23°04' E 113°30'66258101.3
2014-Sep-11 21:25N 31°58' E 120°50'34744665.9
2014-Sep-11 21:25N 37°44' E 121°30'4412432.8
2014-Sep-11 21:14N 30°25' E 122°27'1139726.4
2014-Sep-11 21:13N 31°47' E 120°55'2740.2
2014-Sep-11 20:34N 31°59' E 120°27'34983747.4
2014-Sep-11 20:33N 37°44' E 121°31'24061237192.1
2014-Sep-11 20:33N 01°19' E 103°44'20692483158.6
2014-Sep-11 20:33N 31°56' E 120°16'660158330.5
2014-Sep-11 20:33N 22°54' E 113°13'475440.5
2014-Sep-11 20:32N 22°10' E 113°32'699100647.5
2014-Sep-11 20:32N 32°02' E 120°29'9712.0
2014-Sep-11 20:31N 31°58' E 120°20'1122.0
2014-Sep-11 20:31N 31°58' E 120°21'14213832.2
2014-Sep-11 20:30N 30°25' E 122°27'541177.9
2014-Sep-11 20:27N 29°57' E 123°21'193138942.8
2014-Sep-11 20:27N 32°02' E 120°30'65435165.6
2014-Sep-11 20:26N 23°04' E 113°30'6562081.3
2014-Sep-11 20:07N 32°04' E 120°30'610.8
2014-Sep-11 19:34N 31°59' E 120°27'6672400574.4
2014-Sep-11 19:34N 22°54' E 113°14'1410282048.3
2014-Sep-11 19:33N 01°19' E 103°44'20671860131.2
2014-Sep-11 19:33N 31°56' E 120°12'17620464.0
2014-Sep-11 19:33N 34°48' E 119°31'1777320.9
2014-Sep-11 19:31N 32°00' E 120°37'134033.3
2014-Sep-11 19:31N 31°58' E 120°22'117.9
2014-Sep-11 19:27N 31°58' E 120°20'64675049.8
2014-Sep-11 19:26N 23°04' E 113°30'65553619.7
2014-Sep-11 19:25N 31°47' E 120°55'7048622.7
2014-Sep-11 19:20N 22°04' E 113°32'69415235.5
2014-Sep-11 19:18N 30°25' E 122°27'4403165.0
2014-Sep-11 19:09N 37°43' E 121°38'34516111.1
2014-Sep-11 19:08N 32°02' E 120°35'12177.4
2014-Sep-11 19:04N 31°58' E 120°21'510.1
2014-Sep-11 18:33N 31°59' E 120°27'61019.0
2014-Sep-11 18:33N 31°58' E 120°20'17518511.2
2014-Sep-11 18:33N 34°48' E 119°32'822211247.2
2014-Sep-11 18:32N 22°10' E 113°32'77326743.9
2014-Sep-11 18:31N 32°30' E 122°10'771972.9
2014-Sep-11 18:28N 31°47' E 120°55'316487.1
2014-Sep-11 18:28N 31°58' E 120°22'64719579.1
2014-Sep-11 18:26N 23°04' E 113°30'142630368.1
2014-Sep-11 18:23N 01°19' E 103°44'14078515.4
2014-Sep-11 18:13N 22°48' E 113°21'6681007.9
2014-Sep-11 17:33N 31°59' E 120°27'6411.6
2014-Sep-11 17:33N 31°58' E 120°20'69169127.3
2014-Sep-11 17:32N 22°10' E 113°32'102585827.2
2014-Sep-11 17:31N 37°42' E 121°44'2410129468.7
2014-Sep-11 17:30N 01°19' E 103°44'2201233080.1
2014-Sep-11 17:30N 34°47' E 119°31'17418439.9
2014-Sep-11 17:29N 31°58' E 120°22'311934.5
2014-Sep-11 17:28N 31°47' E 120°55'65518576.9
2014-Sep-11 17:26N 23°04' E 113°30'2583850.6
2014-Sep-11 17:22N 24°24' E 117°57'4334104.9
2014-Sep-11 17:16N 30°25' E 122°27'139196.6
2014-Sep-11 16:33N 31°59' E 120°27'693415897.9
2014-Sep-11 16:33N 22°10' E 113°35'1024307346.9
2014-Sep-11 16:33N 37°44' E 121°42'353634548.9
2014-Sep-11 16:33N 31°58' E 120°20'1100.9
2014-Sep-11 16:32N 31°58' E 120°22'2073146354.1
2014-Sep-11 16:31N 01°19' E 103°44'161629838.2
2014-Sep-11 16:28N 24°24' E 117°57'53971901.2
2014-Sep-11 16:27N 32°33' E 122°17'8312968.8
2014-Sep-11 16:27N 31°47' E 120°55'6552437.6
2014-Sep-11 16:11N 23°04' E 113°30'6501037.4
2014-Sep-11 15:33N 31°59' E 120°27'2076679415.7
2014-Sep-11 15:33N 01°19' E 103°44'2073678533.7
2014-Sep-11 15:33N 31°58' E 120°21'694178422.1
2014-Sep-11 15:33N 22°07' E 113°33'1028127601.3
2014-Sep-11 15:32N 37°45' E 121°38'35328895.9
2014-Sep-11 15:32N 31°58' E 120°20'329565.5
2014-Sep-11 15:31N 31°47' E 120°55'1943007.6
2014-Sep-11 15:27N 34°47' E 119°30'77032625.1
2014-Sep-11 15:26N 23°04' E 113°30'6629723.0
2014-Sep-11 15:22N 31°58' E 120°50'479287390.7
2014-Sep-11 15:22N 24°24' E 117°57'5462860.3
2014-Sep-11 15:10N 32°37' E 122°23'1325285.1
2014-Sep-11 15:09N 30°25' E 122°27'139235.7
2014-Sep-11 14:34N 31°59' E 120°27'2076373678.5
2014-Sep-11 14:33N 01°19' E 103°44'2073466507.0
2014-Sep-11 14:33N 31°58' E 120°21'694312268.0
2014-Sep-11 14:33N 22°07' E 113°33'575106.6
2014-Sep-11 14:32N 23°04' E 113°30'48171840.7
2014-Sep-11 14:32N 22°17' E 113°37'783352568.6
2014-Sep-11 14:32N 32°42' E 122°28'1171113.1
2014-Sep-11 14:26N 31°58' E 120°20'35470899.3
2014-Sep-11 14:25N 37°47' E 121°34'353408.2
2014-Sep-11 13:33N 31°59' E 120°27'4460.4
2014-Sep-11 13:33N 31°58' E 120°21'64749572.5
2014-Sep-11 13:32N 23°04' E 113°30'142691646.4
2014-Sep-11 13:31N 01°19' E 103°44'138639594.6
2014-Sep-11 13:29N 22°13' E 113°46'101916153.1
2014-Sep-11 13:25N 37°49' E 121°29'2061995.6
2014-Sep-11 13:19N 34°47' E 119°31'17416887.8
2014-Sep-11 13:18N 31°58' E 120°20'241488.0
2014-Sep-11 13:18N 32°00' E 120°48'2432.0
2014-Sep-11 12:33N 31°58' E 120°20'61341.7
2014-Sep-11 12:33N 31°59' E 120°27'124600.3
2014-Sep-11 12:33N 31°60' E 120°40'352105717.6
2014-Sep-11 12:33N 37°50' E 121°25'4867052.7
2014-Sep-11 12:29N 29°54' E 123°19'35212656.6
2014-Sep-11 12:27N 34°48' E 119°30'7714657.3
2014-Sep-11 12:17N 23°04' E 113°30'654900.8
2014-Sep-11 11:34N 32°01' E 120°31'102311.6
2014-Sep-11 11:33N 31°58' E 120°20'67198.8
2014-Sep-11 11:33N 31°59' E 120°27'17840029.9
2014-Sep-11 11:33N 34°50' E 119°27'177318798.7
2014-Sep-11 11:33N 31°58' E 120°21'64754203.5
2014-Sep-11 11:32N 23°04' E 113°29'650664.3
2014-Sep-11 10:34N 31°60' E 120°23'36033.4
2014-Sep-11 10:33N 31°59' E 120°27'6399.7
2014-Sep-11 10:33N 31°58' E 120°20'646101176.0
2014-Sep-11 10:32N 23°04' E 113°29'64716887.7
2014-Sep-11 10:30N 31°58' E 120°21'132.1
2014-Sep-11 10:28N 31°58' E 120°21'6941858.3
2014-Sep-11 10:06N 22°06' E 113°34'6921279.2
2014-Sep-11 09:34N 31°57' E 120°18'81937.5
2014-Sep-11 09:33N 31°59' E 120°27'114043.9
2014-Sep-11 09:33N 31°56' E 120°14'64242011.9
2014-Sep-11 09:32N 23°04' E 113°29'1027739755.0
2014-Sep-11 09:32N 38°42' E 121°37'40930031.0
2014-Sep-11 09:31N 31°58' E 120°21'694138800.9
2014-Sep-11 09:31N 22°06' E 113°35'344352.7
2014-Sep-11 09:31N 22°40' E 113°40'99950639.0
2014-Sep-11 09:29N 37°60' E 121°10'9005393.9
2014-Sep-11 09:19N 23°20' E 117°30'5013735.7
2014-Sep-11 09:11N 30°25' E 122°27'66015846.0
2014-Sep-11 09:09N 23°03' E 113°18'6481102.0
2014-Sep-11 08:34N 31°56' E 120°14'6696.2
2014-Sep-11 08:33N 31°56' E 120°07'364109240.4
2014-Sep-11 08:33N 37°57' E 121°08'360215878.8
2014-Sep-11 08:33N 31°59' E 120°27'4792.8
2014-Sep-11 08:32N 32°03' E 120°25'40676981.0
2014-Sep-11 08:32N 38°45' E 121°31'10761937182.7
2014-Sep-11 08:32N 22°11' E 113°34'69111197.8
2014-Sep-11 08:28N 31°58' E 120°21'65111601.4
2014-Sep-11 08:25N 23°02' E 113°25'2614227.3
2014-Sep-11 08:21N 24°24' E 117°55'481599.5
2014-Sep-11 07:33N 32°04' E 120°31'67659.2
2014-Sep-11 07:33N 31°59' E 120°27'51750.8
2014-Sep-11 07:33N 31°58' E 120°21'655589732.3
2014-Sep-11 07:33N 22°52' E 113°34'647105867.7
2014-Sep-11 07:33N 31°56' E 120°08'64314639.7
2014-Sep-11 07:30N 23°02' E 113°25'6737813.5
2014-Sep-11 07:25N 29°55' E 123°19'70613817.3
2014-Sep-11 07:22N 22°10' E 113°27'698867.1
2014-Sep-11 06:33N 31°59' E 120°27'84311.2
2014-Sep-11 06:33N 32°01' E 120°37'66059411.0
2014-Sep-11 06:33N 22°59' E 113°31'65115112.3
2014-Sep-11 06:30N 31°58' E 120°21'19756.3
2014-Sep-11 06:29N 31°59' E 119°59'63814910.4
2014-Sep-11 06:26N 23°05' E 113°27'223.0
2014-Sep-11 06:20N 23°04' E 113°29'661846.2
2014-Sep-11 05:33N 32°01' E 120°44'661108171.1
2014-Sep-11 05:33N 23°04' E 113°29'65173203.5
2014-Sep-11 05:32N 31°59' E 120°27'53425.9
2014-Sep-11 05:32N 31°58' E 120°21'647776905.3
2014-Sep-11 05:32N 23°04' E 113°29'655102580.9
2014-Sep-11 05:32N 32°04' E 120°28'70093380.9
2014-Sep-11 05:31N 22°15' E 113°22'696718.9
2014-Sep-11 04:33N 31°59' E 120°27'650334490.7
2014-Sep-11 04:33N 23°06' E 113°27'657139134.3
2014-Sep-11 04:33N 32°02' E 120°35'121431.4
2014-Sep-11 04:33N 31°58' E 120°21'8745.9
2014-Sep-11 04:32N 32°04' E 120°28'65516973.7
2014-Sep-11 04:30N 23°04' E 113°29'66214023.0
2014-Sep-11 04:27N 32°02' E 120°45'1517.3
2014-Sep-11 03:34N 31°59' E 120°27'657182040.1
2014-Sep-11 03:33N 23°03' E 113°17'10861.6
2014-Sep-11 03:33N 23°06' E 113°27'65518571.0
2014-Sep-11 03:31N 32°04' E 120°28'884.6
2014-Sep-11 03:25N 31°58' E 120°21'64738847.3
2014-Sep-11 03:24N 23°04' E 113°29'6538301.2
2014-Sep-11 03:19N 32°02' E 120°25'6596305.1
2014-Sep-11 03:13N 23°03' E 113°19'11135.4
2014-Sep-11 03:08N 23°03' E 113°31'2 3.2
2014-Sep-11 02:34N 23°04' E 113°29'58740.9
2014-Sep-11 02:33N 23°02' E 113°24'1688.4
2014-Sep-11 02:33N 23°02' E 113°24'655471500.7
2014-Sep-11 02:33N 31°59' E 120°27'650106381.9
2014-Sep-11 02:33N 23°06' E 113°27'65533218.3
2014-Sep-11 02:32N 32°04' E 120°28'1166.6
2014-Sep-11 02:22N 31°57' E 120°18'311.4
2014-Sep-11 02:07N 31°58' E 120°21'4 7.7
2014-Sep-11 01:33N 31°59' E 120°27'650156076.8
2014-Sep-11 01:33N 23°04' E 113°29'651146436.7
2014-Sep-11 01:33N 32°01' E 120°25'6532349184.7
2014-Sep-11 01:33N 23°04' E 113°26'2602.3
2014-Sep-11 01:33N 23°06' E 113°27'65546245.4
2014-Sep-11 01:32N 32°04' E 120°28'14131836.1
2014-Sep-11 01:32N 30°25' E 122°27'1422274.8
2014-Sep-11 01:28N 31°58' E 120°21'647715.0
2014-Sep-11 00:33N 23°04' E 113°29'6501170585.1
2014-Sep-11 00:33N 31°59' E 120°27'65053188.9
2014-Sep-11 00:33N 23°06' E 113°27'65542116.0
2014-Sep-11 00:32N 32°04' E 120°28'8569.8
2014-Sep-11 00:31N 31°58' E 120°21'4142.0
2014-Sep-11 00:29N 31°57' E 120°17'1441589.6
2014-Sep-11 00:24N 30°25' E 122°27'139165.7
2014-Sep-10 23:33N 31°59' E 120°27'650390051.6
2014-Sep-10 23:33N 23°06' E 113°27'652234826.8
2014-Sep-10 23:33N 30°25' E 122°27'65293894.6
2014-Sep-10 23:33N 23°04' E 113°29'65535214.4
2014-Sep-10 23:32N 32°04' E 120°28'69140786.2
2014-Sep-10 23:31N 22°10' E 113°52'6836988.1
2014-Sep-10 23:25N 31°58' E 120°21'212.6
2014-Sep-10 23:17N 31°60' E 120°23'3441629.7
2014-Sep-10 23:04N 37°42' E 121°09'9631864.7
2014-Sep-10 22:33N 23°04' E 113°29'650585296.9
2014-Sep-10 22:33N 31°59' E 120°27'6501170163.6
2014-Sep-10 22:33N 23°06' E 113°27'554714.9
2014-Sep-10 22:33N 22°13' E 113°44'69241502.8
2014-Sep-10 22:32N 32°04' E 120°28'17919532.1
2014-Sep-10 22:31N 29°35' E 122°24'5012059.3
2014-Sep-10 22:31N 30°25' E 122°27'142127852.1
2014-Sep-10 22:31N 31°58' E 120°21'647676.3
2014-Sep-10 21:33N 23°06' E 113°27'2586.0
2014-Sep-10 21:33N 23°04' E 113°29'6502340956.0
2014-Sep-10 21:33N 31°59' E 120°26'1399103.2
2014-Sep-10 21:32N 30°25' E 122°27'14114534.7
2014-Sep-10 21:32N 32°04' E 120°28'69220934.8
2014-Sep-10 21:30N 22°17' E 113°36'6845229.0
2014-Sep-10 21:22N 31°58' E 120°21'647803.6
2014-Sep-10 20:33N 23°04' E 113°30'31962.0
2014-Sep-10 20:33N 23°06' E 113°27'65522246.9
2014-Sep-10 20:32N 32°04' E 120°28'8126.8
2014-Sep-10 20:28N 31°58' E 120°21'1421074.4
2014-Sep-10 20:20N 30°25' E 122°27'131632.6
2014-Sep-10 20:07N 32°01' E 120°42'1323.4
2014-Sep-10 19:33N 31°59' E 120°26'65058504.0
2014-Sep-10 19:33N 23°04' E 113°30'368.1
2014-Sep-10 19:30N 23°06' E 113°27'655147396.0
2014-Sep-10 19:30N 32°04' E 120°28'1415299.7
2014-Sep-10 19:29N 30°25' E 122°27'14211363.4
2014-Sep-10 19:28N 31°58' E 120°21'4115402.9
2014-Sep-10 19:23N 38°46' E 121°31'4125517.9
2014-Sep-10 19:19N 31°57' E 120°20'6 7.9
2014-Sep-10 18:33N 31°59' E 120°27'650180029.9
2014-Sep-10 18:33N 23°04' E 113°30'33274.1
2014-Sep-10 18:33N 23°06' E 113°27'65235585.9
2014-Sep-10 18:32N 30°25' E 122°27'14324435.4
2014-Sep-10 18:32N 31°57' E 120°20'104439.3
2014-Sep-10 18:31N 32°04' E 120°28'8709.9
2014-Sep-10 18:31N 31°58' E 120°21'6683086.2
2014-Sep-10 18:18N 22°27' E 113°53'4358.0
2014-Sep-10 17:33N 23°04' E 113°30'32452.5
2014-Sep-10 17:33N 23°06' E 113°27'650585104.8
2014-Sep-10 17:33N 31°59' E 120°27'13921761.0
2014-Sep-10 17:33N 30°25' E 122°27'1433018.5
2014-Sep-10 17:30N 31°57' E 120°20'105923.9
2014-Sep-10 17:30N 32°04' E 120°28'843.7
2014-Sep-10 17:19N 31°58' E 120°21'647854.4
2014-Sep-10 16:33N 23°04' E 113°30'6502340515.4
2014-Sep-10 16:33N 31°59' E 120°27'13955611.6
2014-Sep-10 16:33N 30°25' E 122°27'143171047.7
2014-Sep-10 16:33N 31°57' E 120°20'645258194.3
2014-Sep-10 16:33N 23°06' E 113°27'65522462.2
2014-Sep-10 16:31N 32°04' E 120°28'8192.7
2014-Sep-10 16:29N 31°58' E 120°21'4 4.7
2014-Sep-10 15:33N 31°59' E 120°27'65060013.2
2014-Sep-10 15:33N 23°04' E 113°30'34905.1
2014-Sep-10 15:33N 23°06' E 113°27'65960821.4
2014-Sep-10 15:32N 31°45' E 121°04'3910886.0
2014-Sep-10 15:32N 31°57' E 120°20'10960.6
2014-Sep-10 15:31N 32°04' E 120°28'8646.8
2014-Sep-10 15:31N 31°58' E 120°21'4401184.7
2014-Sep-10 15:08N 24°46' E 118°48'309529.2
2014-Sep-10 14:33N 23°04' E 113°29'650468190.3
2014-Sep-10 14:33N 31°59' E 120°27'65097516.7
2014-Sep-10 14:33N 23°06' E 113°27'65526205.7
2014-Sep-10 14:31N 32°04' E 120°28'107030.8
2014-Sep-10 14:31N 31°57' E 120°20'14234195.3
2014-Sep-10 14:31N 30°25' E 122°27'1424645.6
2014-Sep-10 14:29N 31°58' E 120°22'685102695.6
2014-Sep-10 14:29N 22°16' E 113°36'5054.5
2014-Sep-10 13:33N 23°06' E 113°26'651585494.2
2014-Sep-10 13:33N 31°59' E 120°27'68950623.6
2014-Sep-10 13:33N 22°11' E 113°43'489696.0
2014-Sep-10 13:32N 22°58' E 113°30'65117355.7
2014-Sep-10 13:30N 31°57' E 120°20'10325.4
2014-Sep-10 13:28N 32°04' E 120°28'8220.1
2014-Sep-10 13:26N 31°58' E 120°22'647739.0
2014-Sep-10 12:33N 23°06' E 113°27'65093646.8
2014-Sep-10 12:33N 31°59' E 120°27'6686.7
2014-Sep-10 12:33N 31°57' E 120°20'10418.3
2014-Sep-10 12:31N 32°04' E 120°28'1419974.9
2014-Sep-10 12:30N 30°25' E 122°27'1426816.7
2014-Sep-10 12:29N 31°58' E 120°21'6588868.9
2014-Sep-10 12:25N 22°55' E 113°25'1113.2
2014-Sep-10 11:33N 23°06' E 113°27'650180080.4
2014-Sep-10 11:33N 31°59' E 120°27'6363.8
2014-Sep-10 11:32N 31°57' E 120°20'142512985.5
2014-Sep-10 11:32N 30°25' E 122°27'1417065.7
2014-Sep-10 11:31N 32°04' E 120°28'8238.1
2014-Sep-10 11:29N 31°58' E 120°21'4 4.6
2014-Sep-10 10:33N 31°59' E 120°27'139100122.4
2014-Sep-10 10:33N 30°25' E 122°27'14211929.6
2014-Sep-10 10:33N 31°57' E 120°20'10388.4
2014-Sep-10 10:31N 32°04' E 120°28'1274764.5
2014-Sep-10 10:29N 30°45' E 122°25'1291469.4
2014-Sep-10 10:24N 31°58' E 120°21'4 5.0
2014-Sep-10 09:33N 31°59' E 120°26'44628140.9
2014-Sep-10 09:32N 39°05' E 117°46'44120360.8
2014-Sep-10 09:31N 32°04' E 120°28'14121202.0
2014-Sep-10 09:31N 30°25' E 122°27'1424824.3
2014-Sep-10 09:29N 31°58' E 120°21'183844.3
2014-Sep-10 09:16N 29°31' E 122°27'3922263.5
2014-Sep-10 09:06N 24°25' E 117°52'435810.8
2014-Sep-10 08:33N 30°25' E 122°27'13941723.1
2014-Sep-10 08:33N 31°59' E 120°26'4154.9
2014-Sep-10 08:31N 31°58' E 120°21'875.8
2014-Sep-10 08:25N 32°04' E 120°28'767.2
2014-Sep-10 08:18N 31°58' E 120°22'16218.6
2014-Sep-10 08:14N 31°58' E 120°03'434641.2
2014-Sep-10 07:33N 24°47' E 119°00'437393424.8
2014-Sep-10 07:33N 31°58' E 120°22'312520.0
2014-Sep-10 07:33N 31°59' E 120°26'13935763.7
2014-Sep-10 07:33N 30°25' E 122°27'1425499.2
2014-Sep-10 07:31N 31°58' E 120°21'10109.5
2014-Sep-10 07:26N 31°57' E 120°10'6339.0
2014-Sep-10 07:25N 31°58' E 120°03'44126444.5
2014-Sep-10 07:24N 39°05' E 117°46'61123928.1
2014-Sep-10 07:22N 29°42' E 122°37'18019602.5
2014-Sep-10 07:22N 32°04' E 120°28'8 9.3
2014-Sep-10 06:33N 31°58' E 120°22'4651.1
2014-Sep-10 06:33N 31°59' E 120°27'931382.3
2014-Sep-10 06:33N 31°57' E 120°17'436196419.8
2014-Sep-10 06:33N 24°47' E 118°49'437157224.8
2014-Sep-10 06:33N 31°57' E 120°16'5613.4
2014-Sep-10 06:32N 31°58' E 120°21'14263892.9
2014-Sep-10 06:32N 30°25' E 122°27'1417828.9
2014-Sep-10 06:31N 32°04' E 120°28'18542.2
2014-Sep-10 06:29N 31°57' E 120°09'5631334.3
2014-Sep-10 06:04N 22°34' E 120°05'5621119.9
2014-Sep-10 05:33N 31°56' E 120°14'61126.2
2014-Sep-10 05:33N 31°59' E 120°21'564338521.3
2014-Sep-10 05:33N 22°35' E 120°08'48779626.2
2014-Sep-10 05:33N 30°25' E 122°27'13929449.9
2014-Sep-10 05:32N 31°59' E 120°27'5208.5
2014-Sep-10 05:31N 32°04' E 120°28'8238.7
2014-Sep-10 05:29N 31°58' E 120°21'4451668.2
2014-Sep-10 05:13N 39°05' E 117°45'45225853.3
2014-Sep-10 05:12N 31°58' E 120°50'33664.9
2014-Sep-10 05:09N 31°55' E 120°12'1321.8
2014-Sep-10 04:33N 31°59' E 120°27'13923832.8
2014-Sep-10 04:33N 30°25' E 122°27'14242594.0
2014-Sep-10 04:33N 31°58' E 120°21'279.4
2014-Sep-10 04:31N 31°58' E 120°24'5628714.3
2014-Sep-10 04:27N 22°37' E 120°16'56713794.2
2014-Sep-10 04:25N 32°04' E 120°28'22963.2
2014-Sep-10 04:23N 31°57' E 120°04'541.7
2014-Sep-10 04:17N 31°59' E 119°59'1163.2
2014-Sep-10 04:06N 31°55' E 120°12'1323.6
2014-Sep-10 03:33N 31°59' E 120°27'4489.5
2014-Sep-10 03:33N 31°58' E 120°21'69239514.8
2014-Sep-10 03:32N 22°18' E 113°20'69945781.2
2014-Sep-10 03:31N 32°04' E 120°28'44045224.0
2014-Sep-10 03:30N 39°04' E 117°51'4445256.4
2014-Sep-10 03:25N 31°58' E 120°24'2 2.6
2014-Sep-10 02:33N 31°59' E 120°27'260.6
2014-Sep-10 02:31N 31°58' E 120°24'7993.3
2014-Sep-10 02:31N 32°04' E 120°28'8163.5
2014-Sep-10 02:28N 31°58' E 120°21'6953918.9
2014-Sep-10 02:17N 22°11' E 113°25'697953.8
2014-Sep-10 01:33N 31°59' E 120°27'1739726.0
2014-Sep-10 01:32N 29°37' E 122°22'1749781.1
2014-Sep-10 01:31N 31°58' E 120°24'2350.0
2014-Sep-10 01:31N 31°58' E 120°21'87272.5
2014-Sep-10 01:31N 32°04' E 120°28'223793.7
2014-Sep-10 01:30N 31°58' E 120°03'405137.4
2014-Sep-10 01:30N 31°58' E 120°50'70834463.1
2014-Sep-10 01:29N 22°10' E 113°27'6613042.3
2014-Sep-10 01:16N 29°39' E 122°26'174247.1
2014-Sep-10 00:34N 31°59' E 120°27'255.4
2014-Sep-10 00:31N 31°58' E 120°24'2366.7
2014-Sep-10 00:31N 31°58' E 120°21'84151.5
2014-Sep-10 00:31N 32°04' E 120°28'16275.6
2014-Sep-10 00:27N 31°55' E 120°12'3248.7
2014-Sep-10 00:26N 31°57' E 120°08'6882915.8
2014-Sep-10 00:12N 22°10' E 113°27'6981082.8
2014-Sep-09 23:34N 31°59' E 120°27'255.8
2014-Sep-09 23:31N 31°58' E 120°24'7816.6
2014-Sep-09 23:31N 32°04' E 120°28'8166.2
2014-Sep-09 23:28N 31°58' E 120°21'796.4
2014-Sep-09 23:24N 31°57' E 120°14'6875185.3
2014-Sep-09 23:16N 22°10' E 113°32'626.0
2014-Sep-09 23:03N 22°14' E 113°36'6891396.7
2014-Sep-09 22:33N 31°59' E 120°27'1533.3
2014-Sep-09 22:33N 31°58' E 120°25'689145805.3
2014-Sep-09 22:33N 22°14' E 113°36'69780983.3
2014-Sep-09 22:32N 31°46' E 121°04'419801.7
2014-Sep-09 22:32N 31°58' E 120°18'1748247.3
2014-Sep-09 22:31N 29°44' E 122°27'17347935.1
2014-Sep-09 22:31N 32°04' E 120°28'855.1
2014-Sep-09 22:22N 31°58' E 120°21'692191657.0
2014-Sep-09 22:22N 22°10' E 113°32'69116588.2
2014-Sep-09 22:19N 31°13' E 121°30'7192.9
2014-Sep-09 21:33N 31°59' E 120°26'31746.7
2014-Sep-09 21:33N 32°02' E 120°27'31442.9
2014-Sep-09 21:33N 32°00' E 120°23'689137820.9
2014-Sep-09 21:33N 22°14' E 113°36'69729176.9
2014-Sep-09 21:31N 31°43' E 121°08'424893.9
2014-Sep-09 21:31N 31°58' E 120°21'81795.0
2014-Sep-09 21:31N 32°04' E 120°28'69111404.5
2014-Sep-09 21:27N 22°08' E 113°55'22328.4
2014-Sep-09 21:23N 22°10' E 113°32'70621900.6
2014-Sep-09 21:21N 31°58' E 120°50'33124.7
2014-Sep-09 21:05N 31°55' E 120°12'1833.7
2014-Sep-09 20:33N 32°02' E 120°32'56486.7
2014-Sep-09 20:33N 31°59' E 120°26'686154408.9
2014-Sep-09 20:33N 22°11' E 113°48'69144410.8
2014-Sep-09 20:32N 32°02' E 120°30'9420.6
2014-Sep-09 20:31N 31°58' E 120°21'81610.4
2014-Sep-09 20:31N 32°04' E 120°28'4419921.9
2014-Sep-09 20:30N 31°40' E 121°12'70228729.5
2014-Sep-09 20:29N 22°10' E 113°32'6854798.8
2014-Sep-09 20:20N 31°55' E 120°12'1316.3
2014-Sep-09 19:33N 31°59' E 120°26'102118.6
2014-Sep-09 19:33N 32°00' E 120°38'6931247546.4
2014-Sep-09 19:33N 22°15' E 113°41'69335648.6
2014-Sep-09 19:32N 32°00' E 120°38'15856.0
2014-Sep-09 19:31N 31°58' E 120°21'969.0
2014-Sep-09 19:24N 31°55' E 120°12'161462.2
2014-Sep-09 19:23N 32°04' E 120°28'7007178.2
2014-Sep-09 19:17N 22°10' E 113°32'6665281.8
2014-Sep-09 19:09N 29°43' E 122°35'175282.0
2014-Sep-09 18:32N 31°59' E 120°26'181298.0
2014-Sep-09 18:31N 32°01' E 120°48'171168.8
2014-Sep-09 18:31N 32°04' E 120°28'16978.5
2014-Sep-09 18:30N 31°55' E 120°12'68570474.3
2014-Sep-09 18:29N 22°10' E 113°32'69251900.3
2014-Sep-09 18:28N 31°58' E 120°21'171961.8
2014-Sep-09 18:18N 29°46' E 122°27'1561607.5
2014-Sep-09 18:12N 31°58' E 120°50'2031.5
2014-Sep-09 17:33N 31°59' E 120°27'1625148.2
2014-Sep-09 17:31N 29°51' E 122°22'663397804.5
2014-Sep-09 17:31N 22°10' E 113°32'69277860.1
2014-Sep-09 17:31N 31°58' E 120°21'82078.9
2014-Sep-09 17:31N 32°04' E 120°28'12722916.1
2014-Sep-09 17:30N 30°42' E 122°23'13413360.4
2014-Sep-09 17:30N 31°55' E 120°12'1313.8
2014-Sep-09 16:33N 31°59' E 120°27'69369308.7
2014-Sep-09 16:33N 22°10' E 113°35'70026522.3
2014-Sep-09 16:31N 31°39' E 121°13'453684.5
2014-Sep-09 16:31N 32°04' E 120°28'47920776.7
2014-Sep-09 16:29N 24°25' E 117°52'47219308.9
2014-Sep-09 16:28N 31°58' E 120°21'9534.8
2014-Sep-09 16:27N 31°55' E 120°12'33563.1
2014-Sep-09 16:23N 31°58' E 120°50'1923.5
2014-Sep-09 15:34N 32°04' E 120°28'51592.9
2014-Sep-09 15:33N 31°59' E 120°27'131448.9
2014-Sep-09 15:33N 31°55' E 120°12'16728579.0
2014-Sep-09 15:32N 29°51' E 122°22'66474750.5
2014-Sep-09 15:32N 22°07' E 113°33'69480605.8
2014-Sep-09 15:31N 31°58' E 120°21'24855.8
2014-Sep-09 15:30N 31°58' E 120°50'27211.2
2014-Sep-09 15:22N 31°39' E 121°13'304273513.7
2014-Sep-09 15:22N 26°45' E 119°43'234835.9
2014-Sep-09 15:05N 29°53' E 122°22'163309.3
2014-Sep-09 14:34N 32°04' E 120°28'52123.8
2014-Sep-09 14:33N 31°59' E 120°27'441067.3
2014-Sep-09 14:31N 31°39' E 121°13'481150.2
2014-Sep-09 14:28N 31°58' E 120°21'668126540.9
2014-Sep-09 14:28N 22°27' E 113°53'79717932.1
2014-Sep-09 14:25N 34°47' E 119°31'1756622.4
2014-Sep-09 14:24N 31°55' E 120°12'1601941.9
2014-Sep-09 14:19N 29°57' E 122°16'157207.8
2014-Sep-09 13:34N 32°04' E 120°28'52130.0
2014-Sep-09 13:33N 31°59' E 120°27'10700.0
2014-Sep-09 13:33N 31°57' E 120°16'690108035.8
2014-Sep-09 13:32N 22°07' E 113°33'69454335.6
2014-Sep-09 13:31N 31°58' E 120°21'1572164.2
2014-Sep-09 13:27N 29°56' E 122°17'1601573.7
2014-Sep-09 13:21N 31°55' E 120°12'55601.1
2014-Sep-09 13:15N 31°39' E 121°13'4463.4
2014-Sep-09 12:34N 31°59' E 120°27'59584.9
2014-Sep-09 12:33N 32°04' E 120°28'10615.3
2014-Sep-09 12:33N 31°59' E 120°19'235.0
2014-Sep-09 12:28N 31°58' E 120°21'482789.5
2014-Sep-09 12:27N 31°39' E 121°13'55346.6
2014-Sep-09 12:18N 31°55' E 120°12'1622.0
2014-Sep-09 11:33N 32°04' E 120°28'725052.7
2014-Sep-09 11:33N 32°00' E 120°21'58172.5
2014-Sep-09 11:33N 31°59' E 120°27'  
Track history (hours):
 
Tides and Currents Weather Stations Pressure Air Temp Water Temp Dewpoint Dewpoint Depression Visibility Wind Speed Wind Dir Waves Ship Positions

Callsign 000000 (name unknown)

Last reported at 2014-Sep-19 11:33 UTC. Time now 2014-Sep-19 11:54 UTC.
Position N 23°04' E 113°29'.

Type: Fishing. MMSI: 200007452.

Date/timePositionNaut miles runAvg speedWind from/ knotsBaromVisibWave heightAir tempDewpointWater temp
2014-Sep-19 11:33N 23°04' E 113°29'979160205.8
2014-Sep-19 11:33N 37°46' E 121°41'98354419.6
2014-Sep-19 11:32N 22°59' E 113°31'65712851.0
2014-Sep-19 11:29N 31°21' E 121°27'6732780.3
2014-Sep-19 11:14N 22°47' E 113°19'19297.5
2014-Sep-19 11:10N 23°04' E 113°29'97825701.9
2014-Sep-19 11:08N 37°10' E 122°56'97816226.6
2014-Sep-19 11:04N 23°04' E 113°29'9771894.4
2014-Sep-19 10:33N 37°46' E 121°36'977319800.5
2014-Sep-19 10:33N 23°04' E 113°29'3104.9
2014-Sep-19 10:31N 23°04' E 113°25'592085.2
2014-Sep-19 10:30N 22°06' E 113°34'582879.0
2014-Sep-19 10:28N 23°04' E 113°29'0 0.4
2014-Sep-19 10:27N 23°04' E 113°29'65711265.0
2014-Sep-19 10:24N 31°48' E 120°56'381148.8
2014-Sep-19 10:22N 31°21' E 121°27'761419.0
2014-Sep-19 10:19N 30°25' E 122°27'139183.8
2014-Sep-19 09:34N 31°58' E 120°27'352422397.1
2014-Sep-19 09:33N 37°46' E 121°32'975113259.9
2014-Sep-19 09:33N 23°04' E 113°29'65213973.3
2014-Sep-19 09:30N 30°25' E 122°27'65214055.9
2014-Sep-19 09:27N 23°04' E 113°29'101053.7
2014-Sep-19 09:27N 23°03' E 113°19'128526.3
2014-Sep-19 09:27N 22°59' E 113°31'5617.9
2014-Sep-19 09:26N 23°04' E 113°29'65481215.6
2014-Sep-19 09:26N 31°21' E 121°27'353287.1
2014-Sep-19 09:25N 31°46' E 120°59'6735359.8
2014-Sep-19 09:18N 22°44' E 113°30'12118.8
2014-Sep-19 09:12N 22°55' E 113°36'6551032.1
2014-Sep-19 08:33N 31°58' E 120°27'348313354.3
2014-Sep-19 08:33N 37°43' E 121°21'969348735.9
2014-Sep-19 08:33N 23°04' E 113°29'585945.5
2014-Sep-19 08:33N 22°19' E 114°08'66172113.4
2014-Sep-19 08:32N 30°25' E 122°27'761983.0
2014-Sep-19 08:30N 31°21' E 121°27'313542.6
2014-Sep-19 08:29N 31°45' E 121°02'658473615.0
2014-Sep-19 08:29N 23°04' E 113°29'0 1.8
2014-Sep-19 08:27N 23°04' E 113°29'12111.0
2014-Sep-19 08:21N 23°04' E 113°16'20355.2
2014-Sep-19 08:18N 22°55' E 113°36'654888.1
2014-Sep-19 07:33N 31°57' E 120°28'6501169377.8
2014-Sep-19 07:33N 23°04' E 113°29'239291.2
2014-Sep-19 07:33N 22°43' E 113°40'265856.6
2014-Sep-19 07:33N 23°02' E 113°21'660792431.0
2014-Sep-19 07:33N 31°21' E 121°27'2913621.5
2014-Sep-19 07:28N 26°45' E 119°43'26310170.5
2014-Sep-19 07:26N 30°25' E 122°27'652156503.1
2014-Sep-19 07:26N 23°04' E 113°29'1175.6
2014-Sep-19 07:17N 22°55' E 113°36'1115.1
2014-Sep-19 06:33N 23°04' E 113°29'652293450.3
2014-Sep-19 06:33N 30°25' E 122°27'65465435.2
2014-Sep-19 06:33N 23°04' E 113°26'534364.7
2014-Sep-19 06:32N 22°11' E 113°25'69910480.0
2014-Sep-19 06:28N 31°21' E 121°27'6583832.0
2014-Sep-19 06:17N 22°55' E 113°36'112196.7
2014-Sep-19 06:17N 23°04' E 113°29'96246782.0
2014-Sep-19 06:16N 36°57' E 122°44'2681884.1
2014-Sep-19 06:07N 39°05' E 117°45'4 6.6
2014-Sep-19 05:33N 39°04' E 117°49'986236549.3
2014-Sep-19 05:33N 23°04' E 113°29'013.6
2014-Sep-19 05:33N 23°04' E 113°29'955687669.8
2014-Sep-19 05:33N 36°53' E 122°36'100457386.3
2014-Sep-19 05:32N 22°11' E 113°25'69318207.3
2014-Sep-19 05:30N 30°25' E 122°27'654589010.3
2014-Sep-19 05:29N 22°55' E 113°36'112470.2
2014-Sep-19 05:29N 23°04' E 113°29'6544673.2
2014-Sep-19 05:21N 31°21' E 121°27'658833.8
2014-Sep-19 04:33N 23°03' E 113°24'41796.5
2014-Sep-19 04:33N 23°04' E 113°29'050.8
2014-Sep-19 04:33N 23°04' E 113°29'986443509.1
2014-Sep-19 04:33N 39°04' E 117°51'25343439.3
2014-Sep-19 04:33N 36°51' E 122°24'3336770.7
2014-Sep-19 04:30N 31°21' E 121°27'6984926.2
2014-Sep-19 04:21N 22°12' E 113°24'6913690.7
2014-Sep-19 04:10N 31°58' E 120°17'6498469.7
2014-Sep-19 04:05N 22°55' E 113°36'1120.4
2014-Sep-19 03:33N 23°04' E 113°29'61827.0
2014-Sep-19 03:33N 22°59' E 113°31'91363.2
2014-Sep-19 03:32N 23°02' E 113°21'66715299.4
2014-Sep-19 03:30N 31°47' E 121°06'31932.1
2014-Sep-19 03:28N 31°21' E 121°27'311736.1
2014-Sep-19 03:27N 31°44' E 121°02'66242583.3
2014-Sep-19 03:26N 23°02' E 113°24'4 4.8
2014-Sep-19 02:34N 23°05' E 113°27'2150.9
2014-Sep-19 02:33N 23°04' E 113°29'986131400.8
2014-Sep-19 02:32N 39°04' E 117°49'49616692.0
2014-Sep-19 02:31N 31°21' E 121°27'6586087.8
2014-Sep-19 02:24N 22°55' E 113°36'9943544.5
2014-Sep-19 02:07N 39°05' E 117°51'9871735.0
2014-Sep-19 01:33N 23°04' E 113°29'595753.7
2014-Sep-19 01:33N 22°09' E 113°52'68714375.7
2014-Sep-19 01:30N 31°22' E 121°29'65667438.3
2014-Sep-19 01:29N 23°04' E 113°29'6391698.0
2014-Sep-19 01:07N 32°03' E 119°55'433783.1
2014-Sep-19 00:33N 39°04' E 117°52'503452903.6
2014-Sep-19 00:33N 31°14' E 121°30'650260054.5
2014-Sep-19 00:33N 23°04' E 113°29'98698602.5
2014-Sep-19 00:33N 39°04' E 117°51'10331240186.4
2014-Sep-19 00:33N 22°13' E 113°44'537622.7
2014-Sep-19 00:32N 23°04' E 113°29'473102.8
2014-Sep-19 00:31N 22°17' E 113°36'38158.7
2014-Sep-19 00:17N 22°55' E 113°36'6624080.0
2014-Sep-19 00:07N 31°24' E 121°30'6921199.9
2014-Sep-18 23:33N 22°17' E 113°37'686823595.3
2014-Sep-18 23:33N 31°16' E 121°33'65339183.9
2014-Sep-18 23:32N 23°04' E 113°29'51695.1
2014-Sep-18 23:27N 22°14' E 113°36'51435.1
2014-Sep-18 23:20N 23°04' E 113°29'11197.1
2014-Sep-18 23:17N 22°55' E 113°36'1115.4
2014-Sep-18 22:33N 23°04' E 113°29'011.5
2014-Sep-18 22:32N 23°04' E 113°29'65724656.2
2014-Sep-18 22:31N 31°45' E 121°00'398206.4
2014-Sep-18 22:30N 31°19' E 121°33'65926974.9
2014-Sep-18 22:29N 22°55' E 113°36'6643934.3
2014-Sep-18 22:19N 31°47' E 121°04'3552844.4
2014-Sep-18 22:11N 37°42' E 121°09'381600.0
2014-Sep-18 21:33N 31°21' E 121°31'656236180.4
2014-Sep-18 21:33N 23°04' E 113°29'018.3
2014-Sep-18 21:32N 23°04' E 113°29'1169.3
2014-Sep-18 21:23N 22°55' E 113°36'1113.4
2014-Sep-18 20:33N 23°04' E 113°29'65878927.8
2014-Sep-18 20:33N 31°44' E 121°02'3210435.4
2014-Sep-18 20:33N 31°24' E 121°31'65884660.7
2014-Sep-18 20:32N 23°04' E 113°29'111360.4
2014-Sep-18 20:32N 22°54' E 113°35'412.3
2014-Sep-18 20:12N 22°57' E 113°38'812.8
2014-Sep-18 19:33N 22°54' E 113°30'5642.5
2014-Sep-18 19:33N 22°54' E 113°35'1210501.8
2014-Sep-18 19:33N 23°04' E 113°29'020.2
2014-Sep-18 19:32N 23°04' E 113°29'97710016.7
2014-Sep-18 19:26N 37°52' E 121°20'3558818.6
2014-Sep-18 19:24N 31°58' E 120°51'662794638.8
2014-Sep-18 19:24N 23°04' E 113°29'65811721.9
2014-Sep-18 19:20N 31°44' E 121°02'658836.1
2014-Sep-18 18:33N 23°04' E 113°29'6612381336.8
2014-Sep-18 18:33N 32°00' E 120°46'66295259.0
2014-Sep-18 18:33N 23°04' E 113°29'014.6
2014-Sep-18 18:32N 23°04' E 113°29'12415.2
2014-Sep-18 18:30N 22°54' E 113°22'9908306.8
2014-Sep-18 18:23N 37°52' E 121°24'9781173.7
2014-Sep-18 17:33N 23°04' E 113°29'22303.1
2014-Sep-18 17:29N 22°42' E 113°30'22265.1
2014-Sep-18 17:24N 23°04' E 113°29'9798350.8
2014-Sep-18 17:17N 37°51' E 121°29'9796777.4
2014-Sep-18 17:08N 23°04' E 113°29'1932.1
2014-Sep-18 16:33N 22°48' E 113°19'356920.4
2014-Sep-18 16:33N 22°17' E 113°36'486377.2
2014-Sep-18 16:33N 23°04' E 113°29'974500693.1
2014-Sep-18 16:33N 37°45' E 121°29'974152403.9
2014-Sep-18 16:32N 23°04' E 113°29'0 1.3
2014-Sep-18 16:24N 23°04' E 113°29'65812528.3
2014-Sep-18 16:21N 31°44' E 121°02'363461.0
2014-Sep-18 15:33N 37°46' E 121°26'97468723.9
2014-Sep-18 15:33N 23°04' E 113°29'030.0
2014-Sep-18 15:32N 23°04' E 113°29'5424209.4
2014-Sep-18 15:32N 22°12' E 113°43'54289.7
2014-Sep-18 15:21N 23°04' E 113°29'6585106.0
2014-Sep-18 15:13N 31°29' E 121°24'658993.0
2014-Sep-18 14:33N 23°04' E 113°29'973166760.0
2014-Sep-18 14:33N 37°48' E 121°22'10191835068.3
2014-Sep-18 14:33N 22°06' E 113°49'614452.3
2014-Sep-18 14:32N 23°04' E 113°29'0 0.8
2014-Sep-18 14:24N 23°04' E 113°29'6584254.8
2014-Sep-18 14:15N 31°24' E 121°30'658943.0
2014-Sep-18 13:33N 23°04' E 113°29'0 0.7
2014-Sep-18 13:21N 23°04' E 113°29'0 9.5
2014-Sep-18 13:20N 23°04' E 113°29'65817036.2
2014-Sep-18 13:18N 31°44' E 121°02'658886.8
2014-Sep-18 12:33N 23°04' E 113°29'017.7
2014-Sep-18 12:33N 23°04' E 113°29'6581330.3
2014-Sep-18 12:03N 31°29' E 121°24'6581324.6
2014-Sep-18 11:33N 23°04' E 113°28'7245.7
2014-Sep-18 11:32N 23°02' E 113°21'857.8
2014-Sep-18 11:23N 23°04' E 113°30'1 2.7
2014-Sep-18 11:12N 23°04' E 113°29'0 0.2
2014-Sep-18 10:33N 23°04' E 113°29'12086.9
2014-Sep-18 10:33N 23°05' E 113°28'29465.0
2014-Sep-18 10:30N 22°38' E 113°41'66330590.5
2014-Sep-18 10:28N 30°25' E 122°27'65614399.5
2014-Sep-18 10:25N 22°58' E 113°30'6233.1
2014-Sep-18 10:24N 23°04' E 113°29'96899575.4
2014-Sep-18 10:23N 37°45' E 121°14'9681155.5
2014-Sep-18 09:33N 23°04' E 113°29'052.7
2014-Sep-18 09:33N 23°04' E 113°29'281352.7
2014-Sep-18 09:32N 22°38' E 113°41'663125608.1
2014-Sep-18 09:31N 30°25' E 122°27'4419178.6
2014-Sep-18 09:28N 37°42' E 121°09'96324071.4
2014-Sep-18 09:26N 23°04' E 113°30'6582300.5
2014-Sep-18 09:09N 31°44' E 121°02'6581111.4
2014-Sep-18 08:33N 23°04' E 113°30'068.4
2014-Sep-18 08:33N 23°04' E 113°29'652111781.8
2014-Sep-18 08:33N 30°25' E 122°27'6565556.8
2014-Sep-18 08:25N 22°58' E 113°30'6 7.2
2014-Sep-18 07:33N 23°04' E 113°30'65273330.8
2014-Sep-18 07:33N 30°25' E 122°27'6527475.9
2014-Sep-18 07:28N 23°04' E 113°29'6585313.8
2014-Sep-18 07:20N 31°24' E 121°30'6785161.5
2014-Sep-18 07:12N 22°27' E 113°46'4061.3
2014-Sep-18 06:33N 23°04' E 113°30'65232591.5
2014-Sep-18 06:32N 30°25' E 122°27'6529169.7
2014-Sep-18 06:28N 23°04' E 113°29'6176.9
2014-Sep-18 06:25N 22°58' E 113°30'661.1
2014-Sep-18 06:19N 23°04' E 113°30'6582501.8
2014-Sep-18 06:03N 31°24' E 121°30'6581299.7
2014-Sep-18 05:33N 23°04' E 113°30'652180505.4
2014-Sep-18 05:33N 30°25' E 122°27'65627461.3
2014-Sep-18 05:31N 22°58' E 113°30'6101.7
2014-Sep-18 05:28N 23°04' E 113°29'0 3.3
2014-Sep-18 05:22N 23°04' E 113°29'6584093.4
2014-Sep-18 05:12N 31°24' E 121°30'6581010.8
2014-Sep-18 04:33N 23°04' E 113°30'146.2
2014-Sep-18 04:32N 23°04' E 113°28'652782806.6
2014-Sep-18 04:32N 30°25' E 122°27'6529169.7
2014-Sep-18 04:28N 23°04' E 113°29'6175.7
2014-Sep-18 04:25N 22°58' E 113°30'6524644.9
2014-Sep-18 04:17N 31°58' E 120°20'6883428.1
2014-Sep-18 04:05N 22°13' E 113°35'5197.7
2014-Sep-18 03:33N 23°04' E 113°30'6427069.1
2014-Sep-18 03:28N 31°56' E 120°15'1458145.8
2014-Sep-18 03:27N 30°25' E 122°27'65218197.0
2014-Sep-18 03:25N 23°04' E 113°29'49242.2
2014-Sep-18 03:13N 22°15' E 113°22'6921029.5
2014-Sep-18 02:32N 30°25' E 122°27'65280916.8
2014-Sep-18 02:32N 23°04' E 113°30'63960514.9
2014-Sep-18 02:31N 31°56' E 120°08'63911005.6
2014-Sep-18 02:28N 23°04' E 113°29'6589038.0
2014-Sep-18 02:23N 31°44' E 121°02'30180.3
2014-Sep-18 02:13N 32°01' E 120°33'91606.4
2014-Sep-18 02:13N 31°58' E 120°23'6955234.2
2014-Sep-18 02:05N 22°10' E 113°26'70372283.7
2014-Sep-18 02:05N 31°24' E 121°30'6581269.7
2014-Sep-18 01:33N 23°04' E 113°30'93270.2
2014-Sep-18 01:33N 22°56' E 113°34'66222920.0
2014-Sep-18 01:32N 31°24' E 121°30'651768.9
2014-Sep-18 01:29N 32°02' E 120°28'6229.7
2014-Sep-18 01:28N 31°58' E 120°23'648388697.5
2014-Sep-18 01:28N 23°04' E 113°29'6525782.2
2014-Sep-18 01:21N 30°25' E 122°27'881181.7
2014-Sep-18 01:16N 31°31' E 121°19'68829500.9
2014-Sep-18 01:15N 22°09' E 113°54'6086.0
2014-Sep-18 00:33N 23°04' E 113°29'650585114.2
2014-Sep-18 00:33N 31°59' E 120°26'686224587.4
2014-Sep-18 00:33N 22°11' E 113°48'6852467613.7
2014-Sep-18 00:33N 31°58' E 120°25'6541177013.6
2014-Sep-18 00:33N 22°56' E 113°34'431217.2
2014-Sep-18 00:31N 22°13' E 113°35'52977.1
2014-Sep-18 00:28N 23°04' E 113°29'6525059.4
2014-Sep-18 00:20N 30°25' E 122°27'6932906.1
2014-Sep-18 00:06N 22°10' E 113°27'713.6
2014-Sep-17 23:34N 22°10' E 113°35'545114.9
2014-Sep-17 23:33N 23°04' E 113°29'5412980.9
2014-Sep-17 23:33N 22°10' E 113°31'4682586.1
2014-Sep-17 23:33N 22°56' E 113°34'423504.8
2014-Sep-17 23:32N 22°15' E 113°41'51718.6
2014-Sep-17 23:28N 23°04' E 113°29'65236680.6
2014-Sep-17 23:27N 30°25' E 122°27'77284.9
2014-Sep-17 23:10N 31°24' E 121°30'7913597.3
2014-Sep-17 23:10N 30°38' E 122°46'43115987.9
2014-Sep-17 23:08N 37°42' E 121°09'9631632.9
2014-Sep-17 22:33N 23°04' E 113°29'91115.6
2014-Sep-17 22:33N 22°56' E 113°34'467562.7
2014-Sep-17 22:32N 22°10' E 113°31'69111299.6
2014-Sep-17 22:29N 30°25' E 122°27'68254574.0
2014-Sep-17 22:28N 22°17' E 113°35'72454.3
2014-Sep-17 22:28N 22°10' E 113°32'53230.8
2014-Sep-17 22:14N 23°02' E 113°22'1319.0
2014-Sep-17 21:33N 22°56' E 113°34'41416.8
2014-Sep-17 21:33N 22°56' E 113°30'9469.7
2014-Sep-17 21:32N 23°03' E 113°25'559389.3
2014-Sep-17 21:32N 22°09' E 113°33'55828.1
2014-Sep-17 21:28N 23°04' E 113°29'66815919.6
2014-Sep-17 21:25N 30°33' E 122°43'112941.7
2014-Sep-17 21:18N 31°44' E 121°02'3651771.7
2014-Sep-17 21:06N 37°49' E 121°21'9801815.9
2014-Sep-17 20:33N 22°56' E 113°34'92417.5
2014-Sep-17 20:33N 23°04' E 113°30'974140248.0
2014-Sep-17 20:33N 37°48' E 121°23'44672979.4
2014-Sep-17 20:32N 30°25' E 122°27'65275727.3
2014-Sep-17 20:32N 23°04' E 113°29'6703177.6
2014-Sep-17 20:19N 30°34' E 122°45'70812317.5
2014-Sep-17 20:16N 22°07' E 113°33'691983.5
2014-Sep-17 19:34N 30°25' E 122°27'655157176.2
2014-Sep-17 19:33N 22°56' E 113°34'97997890.3
2014-Sep-17 19:33N 37°48' E 121°21'97363681.2
2014-Sep-17 19:32N 23°04' E 113°29'555647.9
2014-Sep-17 19:31N 22°09' E 113°32'690717.5
2014-Sep-17 18:33N 30°25' E 122°27'65569342.0
2014-Sep-17 18:33N 22°56' E 113°34'9476.7
2014-Sep-17 18:32N 23°04' E 113°29'542985.8
2014-Sep-17 18:31N 22°10' E 113°32'341534.2
2014-Sep-17 18:29N 22°18' E 114°07'661698.2
2014-Sep-17 17:32N 30°25' E 122°27'65252168.1
2014-Sep-17 17:32N 23°04' E 113°29'542940.5
2014-Sep-17 17:31N 22°10' E 113°32'467459.0
2014-Sep-17 17:30N 22°56' E 113°34'351668.4
2014-Sep-17 17:29N 22°26' E 113°53'10005247.2
2014-Sep-17 17:18N 37°49' E 121°19'447608.6
2014-Sep-17 16:34N 30°25' E 122°27'44729236.2
2014-Sep-17 16:33N 37°49' E 121°22'97467412.8
2014-Sep-17 16:32N 23°04' E 113°29'54798.7
2014-Sep-17 16:28N 22°10' E 113°32'46478.4
2014-Sep-17 16:22N 22°56' E 113°34'655811.3
2014-Sep-17 15:34N 30°25' E 122°27'65512090.4
2014-Sep-17 15:30N 22°56' E 113°34'492430.5
2014-Sep-17 15:29N 22°18' E 114°07'5810411.8
2014-Sep-17 15:29N 23°04' E 113°29'63810730.3
2014-Sep-17 15:25N 31°59' E 120°00'55488.3
2014-Sep-17 15:18N 31°44' E 121°02'66310022.2
2014-Sep-17 15:14N 22°58' E 113°30'64312126.2
2014-Sep-17 15:11N 32°00' E 119°60'3552787.5
2014-Sep-17 15:04N 37°49' E 121°24'357697.9
2014-Sep-17 14:33N 31°58' E 120°03'64220102.0
2014-Sep-17 14:31N 22°59' E 113°30'4333.0
2014-Sep-17 14:30N 22°56' E 113°34'6554841.2
2014-Sep-17 14:22N 30°25' E 122°27'68980066.5
2014-Sep-17 14:22N 22°10' E 113°32'6845624.7
2014-Sep-17 14:14N 31°58' E 120°06'4372636.8
2014-Sep-17 14:04N 24°46' E 118°49'311583.9
2014-Sep-17 13:32N 22°58' E 113°30'41160.9
2014-Sep-17 13:32N 22°56' E 113°34'51142.9
2014-Sep-17 13:32N 22°54' E 113°29'64920502.6
2014-Sep-17 13:30N 31°57' E 120°10'014.1
2014-Sep-17 13:29N 31°57' E 120°10'1491598.0
2014-Sep-17 13:23N 30°25' E 122°27'76351.6
2014-Sep-17 13:10N 31°24' E 121°30'71116.2
2014-Sep-17 12:33N 31°57' E 120°16'64846688.4
2014-Sep-17 12:32N 22°58' E 113°30'64930755.9
2014-Sep-17 12:31N 31°57' E 120°17'14523659.4
2014-Sep-17 12:31N 30°25' E 122°27'6551717.1
2014-Sep-17 12:08N 22°56' E 113°34'6531135.8
2014-Sep-17 11:33N 31°60' E 120°21'52369.4
2014-Sep-17 11:33N 32°01' E 120°27'65745511.5
2014-Sep-17 11:32N 22°58' E 113°30'65641433.8
2014-Sep-17 11:32N 30°25' E 122°27'6552418.1
2014-Sep-17 11:15N 22°56' E 113°34'657935.7
2014-Sep-17 10:33N 32°01' E 120°25'657181811.4
2014-Sep-17 10:33N 22°56' E 113°34'4480.7
2014-Sep-17 10:32N 22°58' E 113°30'661792754.5
2014-Sep-17 10:32N 32°02' E 120°33'68149.8
2014-Sep-17 10:05N 31°15' E 121°32'69131.0
2014-Sep-17 09:33N 30°25' E 122°27'1397154.9
2014-Sep-17 09:32N 32°02' E 120°30'70016040.0
2014-Sep-17 09:30N 22°10' E 113°32'34733.8
2014-Sep-17 09:27N 22°45' E 113°33'67511853.8
2014-Sep-17 09:23N 32°00' E 120°45'910.2
2014-Sep-17 08:33N 32°01' E 120°35'136244454.2
2014-Sep-17 08:33N 30°25' E 122°27'13336880.6
2014-Sep-17 08:33N 31°60' E 120°37'66176773.6
2014-Sep-17 08:32N 22°58' E 113°30'99199132.5
2014-Sep-17 08:32N 39°04' E 117°48'4266191967.2
2014-Sep-17 08:31S 23°50' E 151°15'3825327852.1
2014-Sep-17 08:30N 32°00' E 120°24'67813.2
2014-Sep-17 08:25N 31°24' E 121°30'66238099.5
2014-Sep-17 08:25N 31°58' E 120°24'6485665.6
2014-Sep-17 08:18N 23°04' E 113°30'652878.3
2014-Sep-17 07:33N 30°25' E 122°27'9303.1
2014-Sep-17 07:32N 30°27' E 122°16'65352202.0
2014-Sep-17 07:31N 22°51' E 113°33'13457.2
2014-Sep-17 07:29N 22°48' E 113°20'67233139.2
2014-Sep-17 07:28N 32°02' E 120°28'92210.6
2014-Sep-17 07:28N 31°57' E 120°19'18221.3
2014-Sep-17 07:23N 32°00' E 120°39'341656.1
2014-Sep-17 07:22N 32°00' E 119°60'35012466.3
2014-Sep-17 07:20N 37°31' E 122°19'50724.9
2014-Sep-17 07:16N 36°44' E 122°40'3121589.2
2014-Sep-17 07:04N 32°03' E 119°55'20674043.8
2014-Sep-17 06:34N 01°18' E 103°44'2402393065.9
2014-Sep-17 06:33N 39°04' E 117°52'446801947.9
2014-Sep-17 06:33N 32°01' E 120°43'187046.3
2014-Sep-17 06:33N 31°60' E 120°23'308277604.3
2014-Sep-17 06:33N 36°48' E 122°34'38330639.8
2014-Sep-17 06:32N 30°25' E 122°27'6563364.5
2014-Sep-17 06:20N 22°58' E 113°30'99124778.6
2014-Sep-17 06:18N 37°36' E 122°23'9861182793.3
2014-Sep-17 06:18N 23°04' E 113°30'64079388.2
2014-Sep-17 06:18N 31°56' E 120°10'318426.6
2014-Sep-17 05:33N 36°54' E 122°26'956181188.2
2014-Sep-17 05:32N 22°58' E 113°30'65663833.7
2014-Sep-17 05:32N 30°25' E 122°27'205432862.7
2014-Sep-17 05:28N 01°19' E 103°43'14181544.6
2014-Sep-17 04:33N 22°56' E 113°30'6577682.9
2014-Sep-17 04:28N 30°25' E 122°27'205425585.0
2014-Sep-17 04:23N 01°19' E 103°43'207417280.1
2014-Sep-17 04:16N 31°58' E 120°22'656920.2
2014-Sep-17 03:33N 22°54' E 113°30'65617760.8
2014-Sep-17 03:31N 31°58' E 120°22'1425101.7
2014-Sep-17 03:29N 30°25' E 122°27'205424006.7
2014-Sep-17 03:24N 01°19' E 103°43'142116553.8
2014-Sep-17 03:19N 23°02' E 113°22'837.8
2014-Sep-17 03:06N 23°04' E 113°30'1019.1
2014-Sep-17 02:33N 23°03' E 113°19'6618.2
2014-Sep-17 02:33N 23°04' E 113°26'106232.7
2014-Sep-17 02:33N 22°54' E 113°28'65660592.4
2014-Sep-17 02:32N 31°58' E 120°22'658473870.6
2014-Sep-17 02:32N 22°54' E 113°24'66213697.2
2014-Sep-17 02:29N 30°25' E 122°27'6522282.1
2014-Sep-17 02:12N 23°04' E 113°30'142510735.8
2014-Sep-17 02:04N 01°19' E 103°43'20543990.3
2014-Sep-17 01:33N 30°25' E 122°27'1428502.9
2014-Sep-17 01:32N 31°58' E 120°22'2074933125.0
2014-Sep-17 01:32N 01°19' E 103°43'20667437754.2
2014-Sep-17 01:32N 32°02' E 119°57'53462.8
2014-Sep-17 01:25N 31°48' E 120°57'6578218.3
2014-Sep-17 01:20N 23°04' E 113°29'6493108.4
2014-Sep-17 01:08N 31°60' E 120°23'3 5.6
2014-Sep-17 00:33N 32°02' E 120°26'65243489.3
2014-Sep-17 00:32N 23°04' E 113°29'652195634.0
2014-Sep-17 00:32N 30°25' E 122°27'157112925.6
2014-Sep-17 00:32N 31°59' E 120°00'18862.8
2014-Sep-17 00:31N 31°58' E 120°22'355266.0
2014-Sep-17 00:30N 31°47' E 121°01'208191366.9
2014-Sep-17 00:29N 01°19' E 103°43'142517105.6
2014-Sep-17 00:24N 23°04' E 113°30'229731.0
2014-Sep-17 00:05N 23°40' E 117°37'520976.3
2014-Sep-16 23:33N 31°58' E 120°22'101134.0
2014-Sep-16 23:33N 32°02' E 120°33'657197063.2
2014-Sep-16 23:33N 23°02' E 113°31'661793178.4
2014-Sep-16 23:33N 31°45' E 121°06'660475234.6
2014-Sep-16 23:32N 23°04' E 113°29'142625281.6
2014-Sep-16 23:29N 01°19' E 103°43'20657435259.6
2014-Sep-16 23:29N 31°58' E 120°04'64185420.0
2014-Sep-16 23:29N 23°04' E 113°25'662716.1
2014-Sep-16 22:33N 31°42' E 121°10'4137038.3
2014-Sep-16 22:33N 31°58' E 120°26'151103.2
2014-Sep-16 22:32N 31°57' E 120°08'15089957.7
2014-Sep-16 22:32N 30°25' E 122°27'2054110359.4
2014-Sep-16 22:31N 01°19' E 103°43'239845428.4
2014-Sep-16 22:28N 37°42' E 121°14'96554292.2
2014-Sep-16 22:27N 23°04' E 113°29'641719.2
2014-Sep-16 21:33N 31°56' E 120°12'122392.7
2014-Sep-16 21:33N 31°58' E 120°26'349104581.6
2014-Sep-16 21:33N 37°43' E 121°26'4419865.3
2014-Sep-16 21:30N 30°25' E 122°27'9610113.3
2014-Sep-16 21:30N 31°38' E 121°15'66014142.3
2014-Sep-16 21:27N 23°04' E 113°29'643722.1
2014-Sep-16 20:33N 31°57' E 120°15'91626.1
2014-Sep-16 20:33N 31°58' E 120°26'2075122479.5
2014-Sep-16 20:32N 01°19' E 103°43'2079415813.7
2014-Sep-16 20:32N 31°35' E 121°19'6591524.4
2014-Sep-16 20:06N 23°04' E 113°29'6591224.9
2014-Sep-16 19:33N 31°32' E 121°23'6136548.0
2014-Sep-16 19:33N 31°58' E 120°18'6741.1
2014-Sep-16 19:33N 31°58' E 120°26'6506495.5
2014-Sep-16 19:27N 23°04' E 113°29'649723.2
2014-Sep-16 18:33N 31°60' E 120°22'41235.1
2014-Sep-16 18:33N 31°58' E 120°26'6015465.1
2014-Sep-16 18:33N 31°29' E 121°27'20785071.4
2014-Sep-16 18:08N 01°19' E 103°43'20783595.6
2014-Sep-16 17:33N 32°02' E 120°25'6626437.9
2014-Sep-16 17:33N 31°26' E 121°30'641141.3
2014-Sep-16 17:30N 31°58' E 120°26'65012572.0
2014-Sep-16 17:27N 23°04' E 113°29'142611084.6
2014-Sep-16 17:19N 01°19' E 103°43'205414384.9
2014-Sep-16 17:11N 30°25' E 122°27'142228.9
2014-Sep-16 16:33N 32°04' E 120°29'61050.1
2014-Sep-16 16:33N 31°58' E 120°26'652505.3
2014-Sep-16 16:31N 31°22' E 121°30'65723634.5
2014-Sep-16 16:30N 23°04' E 113°29'1426116637.7
2014-Sep-16 16:29N 01°19' E 103°43'20832245.7
2014-Sep-16 15:33N 32°03' E 120°33'8929.1
2014-Sep-16 15:33N 31°58' E 120°26'2075155648.5
2014-Sep-16 15:32N 01°19' E 103°43'142616138.9
2014-Sep-16 15:27N 23°04' E 113°29'6522945.3
2014-Sep-16 15:14N 30°25' E 122°27'39144005.9
2014-Sep-16 15:13N 24°47' E 118°46'441659.7
2014-Sep-16 14:33N 31°58' E 120°26'2075146493.0
2014-Sep-16 14:32N 01°19' E 103°43'140324407.7
2014-Sep-16 14:29N 22°47' E 113°13'23127.2
2014-Sep-16 14:18N 23°04' E 113°29'6383771.3
2014-Sep-16 14:08N 31°58' E 120°03'2033.7
2014-Sep-16 13:33N 31°58' E 120°26'13830.0
2014-Sep-16 13:32N 32°00' E 120°41'65911743.4
2014-Sep-16 13:29N 23°04' E 113°30'11646.7
2014-Sep-16 13:28N 22°53' E 113°31'141633988.3
2014-Sep-16 13:25N 01°19' E 103°43'20752387.7
2014-Sep-16 12:33N 31°58' E 120°26'2075146492.2
2014-Sep-16 12:32N 01°19' E 103°43'20873756533.8
2014-Sep-16 12:32N 32°01' E 120°47'28485.7
2014-Sep-16 12:29N 31°57' E 120°14'1010.9
2014-Sep-16 11:33N 31°58' E 120°26'5715.1
2014-Sep-16 11:32N 31°59' E 120°20'274229.7
2014-Sep-16 11:32N 31°58' E 120°52'208631036.4
2014-Sep-16 11:28N 01°19' E 103°43'207925283.7
2014-Sep-16 11:23N 31°47' E 120°56'113483.9
2014-Sep-16 11:09N 30°25' E 122°27'142238.2
2014-Sep-16 10:34N 32°02' E 120°26'2078311739.0
2014-Sep-16 10:33N 01°19' E 103°43'207534911.2
2014-Sep-16 10:30N 31°58' E 120°26'6498289.7
2014-Sep-16 10:25N 23°04' E 113°30'65238469.9
2014-Sep-16 10:24N 30°25' E 122°27'68225068.4
2014-Sep-16 10:22N 22°17' E 113°35'682829.7
2014-Sep-16 09:33N 30°25' E 122°27'14026436.3
2014-Sep-16 09:33N 31°58' E 120°26'71626.7
2014-Sep-16 09:32N 32°02' E 120°33'243277.6
2014-Sep-16 09:32N 31°47' E 120°55'2079162675.5
2014-Sep-16 09:31N 01°19' E 103°43'1382191311.8
2014-Sep-16 09:31N 22°12' E 113°37'521739.4
2014-Sep-16 09:29N 23°04' E 113°30'103313145.1
2014-Sep-16 09:24N 38°49' E 121°38'505590.9
2014-Sep-16 08:33N 30°25' E 122°27'13927895.7
2014-Sep-16 08:33N 31°58' E 120°26'207585874.2
2014-Sep-16 08:31N 01°19' E 103°43'208381523.2
2014-Sep-16 08:30N 32°00' E 120°40'18108.2
2014-Sep-16 08:20N 31°47' E 120°54'655261987.0
2014-Sep-16 08:20N 23°04' E 113°30'7695064.4
2014-Sep-16 08:10N 34°49' E 119°22'306496.9
2014-Sep-16 07:33N 30°25' E 122°27'2054295761.4
2014-Sep-16 07:33N 01°19' E 103°43'2075226391.9
2014-Sep-16 07:33N 31°58' E 120°26'65018268.1
2014-Sep-16 07:30N 23°04' E 113°29'6527500.9
2014-Sep-16 07:25N 30°37' E 122°15'5557648.5
2014-Sep-16 07:21N 39°05' E 117°44'4 5.4
2014-Sep-16 06:33N 39°04' E 117°49'48819518.7
2014-Sep-16 06:32N 31°29' E 121°25'65924965.2
2014-Sep-16 06:30N 23°04' E 113°29'9861774480.0
2014-Sep-16 06:30N 39°04' E 117°50'44431967.6
2014-Sep-16 06:30N 31°58' E 120°26'5256.7
2014-Sep-16 06:28N 31°60' E 120°20'1235615.4
2014-Sep-16 06:27N 30°46' E 122°16'2065118016.0
2014-Sep-16 06:26N 01°19' E 103°43'0 0.0
2014-Sep-16 05:33N 01°19' E 103°43'141658603.0
2014-Sep-16 05:32N 22°53' E 113°31'667343040.9
2014-Sep-16 05:31N 31°26' E 121°30'6511699.1
2014-Sep-16 05:31N 32°01' E 120°25'336.2
2014-Sep-16 05:27N 31°58' E 120°26'4436068.9
2014-Sep-16 05:22N 39°04' E 117°53'49314079.2
2014-Sep-16 05:20N 31°24' E 121°30'65823942.1
2014-Sep-16 05:18N 23°04' E 113°29'1361.9
2014-Sep-16 05:06N 22°51' E 113°34'6651231.4
2014-Sep-16 04:33N 31°23' E 121°30'6477255.7
2014-Sep-16 04:33N 32°02' E 120°30'44129413.7
2014-Sep-16 04:32N 39°04' E 117°50'010.2
2014-Sep-16 04:31N 39°04' E 117°51'44493995.3
2014-Sep-16 04:31N 31°58' E 120°26'655157244.7
2014-Sep-16 04:31N 22°57' E 113°30'7915.2
2014-Sep-16 04:30N 23°04' E 113°29'6553145.2
2014-Sep-16 04:18N 31°47' E 120°54'207810448.8
2014-Sep-16 04:06N 01°19' E 103°43'20823825.6
2014-Sep-16 03:33N 32°01' E 120°35'666073.1
2014-Sep-16 03:33N 31°18' E 121°34'2072181909.4
2014-Sep-16 03:32N 01°19' E 103°43'2075143671.2
2014-Sep-16 03:31N 31°58' E 120°26'64911925.9
2014-Sep-16 03:28N 23°04' E 113°30'13103.2
2014-Sep-16 03:20N 23°07' E 113°16'13400.2
2014-Sep-16 03:18N 23°04' E 113°29'6564489.9
2014-Sep-16 03:10N 31°22' E 121°29'558250.9
2014-Sep-16 03:09N 32°02' E 120°44'6661113.1
2014-Sep-16 02:33N 23°06' E 113°18'65317688.1
2014-Sep-16 02:31N 31°58' E 120°26'726777.9
2014-Sep-16 02:31N 31°13' E 121°30'65014799.3
2014-Sep-16 02:28N 23°04' E 113°30'65671539.5
2014-Sep-16 02:27N 31°22' E 121°29'20736118.1
2014-Sep-16 02:07N 01°19' E 103°43'20753669.6
2014-Sep-16 01:33N 31°58' E 120°26'207541051.0
2014-Sep-16 01:30N 01°19' E 103°43'142531676.5
2014-Sep-16 01:27N 23°04' E 113°29'0 8.2
2014-Sep-16 01:25N 23°04' E 113°30'6562436.3
2014-Sep-16 01:09N 31°22' E 121°29'39769.5
2014-Sep-16 01:06N 31°47' E 120°54'2748.9
2014-Sep-16 00:33N 31°58' E 120°26'65319579.8
2014-Sep-16 00:31N 22°59' E 113°31'14221279804.5
2014-Sep-16 00:31N 01°19' E 103°43'142613946.4
2014-Sep-16 00:25N 23°04' E 113°30'1292.4
2014-Sep-16 00:17N 22°54' E 113°22'66814307.4
2014-Sep-16 00:14N 31°22' E 121°29'665970.5
2014-Sep-15 23:33N 22°55' E 113°27'67312417.0
2014-Sep-15 23:30N 32°04' E 120°45'66418662.0
2014-Sep-15 23:28N 23°04' E 113°30'142650814.8
2014-Sep-15 23:26N 01°19' E 103°43'1416137795.4
2014-Sep-15 23:26N 22°54' E 113°30'3 3.7
2014-Sep-15 22:33N 22°57' E 113°30'96931722.1
2014-Sep-15 22:31N 37°42' E 121°09'2395538892.0
2014-Sep-15 22:31N 01°19' E 103°43'205418167.1
2014-Sep-15 22:24N 30°25' E 122°27'1101671.5
2014-Sep-15 22:20N 31°47' E 121°02'7216.9
2014-Sep-15 22:19N 31°47' E 120°54'4216507.2
2014-Sep-15 22:15N 38°47' E 121°25'102810138.7
2014-Sep-15 22:09N 23°04' E 113°29'12148.0
2014-Sep-15 22:04N 22°54' E 113°22'6721322.5
2014-Sep-15 21:33N 31°44' E 121°07'660263982.5
2014-Sep-15 21:33N 23°04' E 113°29'142576591.4
2014-Sep-15 21:32N 01°19' E 103°43'2078220034.6
2014-Sep-15 21:32N 31°47' E 120°54'4216342.8
2014-Sep-15 21:28N 38°47' E 121°28'10407256.3
2014-Sep-15 21:19N 22°54' E 113°22'1215.2
2014-Sep-15 20:34N 23°04' E 113°29'142565791.2
2014-Sep-15 20:32N 01°19' E 103°43'208171336.8
2014-Sep-15 20:30N 31°39' E 121°14'66022629.0
2014-Sep-15 20:29N 23°04' E 113°29'65536849.0
2014-Sep-15 20:28N 31°47' E 120°54'6674598.1
2014-Sep-15 20:19N 22°54' E 113°22'14141855.7
2014-Sep-15 19:33N 01°19' E 103°43'14251026343.1
2014-Sep-15 19:33N 23°04' E 113°29'12315.3
2014-Sep-15 19:31N 22°54' E 113°22'66169988.9
2014-Sep-15 19:30N 31°58' E 120°26'70324.0
2014-Sep-15 19:17N 31°14' E 121°29'650888.0
2014-Sep-15 18:34N 23°04' E 113°29'649194827.4
2014-Sep-15 18:33N 31°58' E 120°26'2075113189.0
2014-Sep-15 18:32N 01°19' E 103°43'2462805756.2
2014-Sep-15 18:32N 38°48' E 121°28'104157666.2
2014-Sep-15 18:31N 22°54' E 113°22'12137.2
2014-Sep-15 18:26N 23°04' E 113°29'652391274.1
2014-Sep-15 18:26N 30°25' E 122°27'652745.0
2014-Sep-15 17:33N 23°04' E 113°29'103027675.3
2014-Sep-15 17:31N 38°47' E 121°32'41336236.6
2014-Sep-15 17:30N 31°58' E 120°26'64924099.6
2014-Sep-15 17:29N 23°04' E 113°29'65224202.7
2014-Sep-15 17:27N 30°25' E 122°27'2054142192.7
2014-Sep-15 17:26N 01°19' E 103°43'207363258.4
2014-Sep-15 17:24N 31°20' E 121°33'657774.1
2014-Sep-15 16:33N 23°04' E 113°29'6491168964.2
2014-Sep-15 16:33N 31°58' E 120°26'2075113189.0
2014-Sep-15 16:32N 01°19' E 103°43'207341465.8
2014-Sep-15 16:29N 31°21' E 121°30'66831215.9
2014-Sep-15 16:28N 22°54' E 113°22'6198225364.0
2014-Sep-15 16:26N 49°18' W 123°02'6184636042.6
2014-Sep-15 16:26N 23°04' E 113°29'97694962.3
2014-Sep-15 16:25N 37°34' E 122°01'9761132.1
2014-Sep-15 15:33N 23°04' E 113°29'64918265.3
2014-Sep-15 15:31N 31°58' E 120°26'661300.9
2014-Sep-15 15:28N 31°21' E 121°30'207331493.1
2014-Sep-15 15:24N 01°19' E 103°43'142611379.6
2014-Sep-15 15:17N 23°04' E 113°29'97610614.5
2014-Sep-15 15:11N 37°34' E 122°01'374577.6
2014-Sep-15 14:32N 31°21' E 121°30'656131230.6
2014-Sep-15 14:32N 23°04' E 113°29'64946759.6
2014-Sep-15 14:31N 31°58' E 120°26'2075124508.4
2014-Sep-15 14:30N 01°19' E 103°43'142660378.9
2014-Sep-15 14:29N 23°04' E 113°29'6551665.6
2014-Sep-15 14:05N 31°47' E 120°54'6551235.6
2014-Sep-15 13:33N 23°04' E 113°29'68384803.5
2014-Sep-15 13:33N 31°21' E 122°16'1011297.4
2014-Sep-15 13:28N 31°58' E 120°26'64973051.2
2014-Sep-15 13:28N 23°04' E 113°29'142657024.6
2014-Sep-15 13:26N 01°19' E 103°43'14251608.2
2014-Sep-15 12:33N 23°04' E 113°29'655102554.3
2014-Sep-15 12:33N 31°47' E 120°54'66027622.1
2014-Sep-15 12:31N 23°02' E 113°24'64313938.9
2014-Sep-15 12:28N 31°58' E 120°03'194882.1
2014-Sep-15 12:28N 31°58' E 120°26'65503.7
2014-Sep-15 12:20N 31°24' E 121°31'207510376.5
2014-Sep-15 12:08N 01°19' E 103°43'14262439.2
2014-Sep-15 11:33N 23°04' E 113°30'142630731.6
2014-Sep-15 11:31N 01°19' E 103°43'2384245238.6
2014-Sep-15 11:30N 36°54' E 122°26'31210397.2
2014-Sep-15 11:28N 31°58' E 120°26'261002.7
2014-Sep-15 11:27N 31°47' E 120°54'36325.9
2014-Sep-15 11:20N 31°26' E 121°29'731485.9
2014-Sep-15 11:17N 31°57' E 120°11'20672847.0
2014-Sep-15 10:33N 01°19' E 103°43'2069286474.3
2014-Sep-15 10:33N 31°57' E 120°15'3101116291.3
2014-Sep-15 10:33N 36°46' E 122°29'94628612.5
2014-Sep-15 10:31N 23°04' E 113°30'64913829.0
2014-Sep-15 10:28N 31°58' E 120°26'26107.6
2014-Sep-15 10:14N 31°47' E 120°54'3146.4
2014-Sep-15 09:34N 31°60' E 120°20'207494507.7
2014-Sep-15 09:32N 01°19' E 103°43'207834960.1
2014-Sep-15 09:29N 31°47' E 120°54'263616.7
2014-Sep-15 09:28N 31°58' E 120°26'6497303.4
2014-Sep-15 09:23N 23°04' E 113°30'649789.3
2014-Sep-15 08:34N 31°58' E 120°26'2075415028.5
2014-Sep-15 08:33N 01°19' E 103°43'207880446.3
2014-Sep-15 08:32N 31°47' E 120°54'6712381.6
2014-Sep-15 08:15N 22°45' E 113°30'205016.3
2014-Sep-15 08:15N 23°04' E 113°30'649947.7
2014-Sep-15 07:33N 31°58' E 120°26'649166933.9
2014-Sep-15 07:33N 23°04' E 113°30'142686990.3
2014-Sep-15 07:32N 01°19' E 103°43'2067572278.6
2014-Sep-15 07:32N 31°14' E 121°30'45395.7
2014-Sep-15 07:25N 31°47' E 120°54'39218.7
2014-Sep-15 07:15N 31°21' E 121°27'67058845.7
2014-Sep-15 07:14N 22°18' E 114°07'670994.5
2014-Sep-15 06:33N 31°58' E 120°26'649194757.7
2014-Sep-15 06:33N 23°04' E 113°30'537699.7
2014-Sep-15 06:33N 22°11' E 113°32'333518.5
2014-Sep-15 06:32N 22°18' E 114°07'682188889.7
2014-Sep-15 06:32N 32°02' E 120°45'561614.5
2014-Sep-15 06:30N 31°21' E 121°30'401832.0
2014-Sep-15 06:29N 31°47' E 120°54'461675.3
2014-Sep-15 06:27N 31°17' E 121°34'20378.2
2014-Sep-15 06:24N 31°31' E 121°19'207616143.6
2014-Sep-15 06:16N 01°19' E 103°43'20752911.3
2014-Sep-15 05:33N 31°58' E 120°26'689382.5
2014-Sep-15 05:33N 31°21' E 121°32'691146358.2
2014-Sep-15 05:33N 22°15' E 113°36'493603.7
2014-Sep-15 05:32N 23°04' E 113°30'142631681.5
2014-Sep-15 05:29N 01°19' E 103°43'208210814.7
2014-Sep-15 05:18N 31°60' E 120°38'6983926.4
2014-Sep-15 05:07N 22°22' E 113°17'6961242.8
2014-Sep-15 04:33N 32°01' E 120°33'2080832169.5
2014-Sep-15 04:33N 01°19' E 103°43'2075100924.7
2014-Sep-15 04:32N 31°23' E 121°30'69944168.1
2014-Sep-15 04:31N 22°18' E 113°19'69311943.7
2014-Sep-15 04:28N 31°58' E 120°26'66839.3
2014-Sep-15 04:23N 31°22' E 121°30'6882.7
2014-Sep-15 03:34N 32°01' E 120°25'32729.7
2014-Sep-15 03:33N 31°58' E 120°26'649167014.2
2014-Sep-15 03:33N 23°04' E 113°29'65930798.0
2014-Sep-15 03:32N 31°26' E 121°29'2076173845.3
2014-Sep-15 03:31N 01°19' E 103°43'1421213168.2
2014-Sep-15 03:31N 23°02' E 113°23'531266.5
2014-Sep-15 03:28N 22°10' E 113°31'6999833.7
2014-Sep-15 03:24N 31°47' E 120°54'40307.3
2014-Sep-15 03:16N 31°22' E 121°30'656897.1
2014-Sep-15 02:32N 23°05' E 113°28'1887.7
2014-Sep-15 02:32N 23°04' E 113°29'64635756.3
2014-Sep-15 02:31N 31°58' E 120°19'6199.0
2014-Sep-15 02:29N 31°58' E 120°26'207559291.1
2014-Sep-15 02:27N 01°19' E 103°43'1379275873.2
2014-Sep-15 02:27N 22°10' E 113°35'965.7
2014-Sep-15 02:19N 22°11' E 113°26'10337334.4
2014-Sep-15 02:11N 37°38' E 122°10'9831561.0
2014-Sep-15 01:33N 23°04' E 113°29'4712096.1
2014-Sep-15 01:33N 22°17' E 113°35'138558669.6
2014-Sep-15 01:31N 01°19' E 103°43'1382177672.6
2014-Sep-15 01:31N 22°13' E 113°35'5110220.6
2014-Sep-15 01:30N 23°04' E 113°29'12185.8
2014-Sep-15 01:26N 23°03' E 113°16'6572365113.8
2014-Sep-15 01:26N 31°58' E 120°26'64314.9
2014-Sep-15 01:14N 31°22' E 121°29'656951.6
2014-Sep-15 00:33N 23°04' E 113°29'65625657.7
2014-Sep-15 00:31N 31°47' E 120°55'70235578.5
2014-Sep-15 00:30N 22°10' E 113°27'69758329.8
2014-Sep-15 00:29N 31°58' E 120°26'69092046.6
2014-Sep-15 00:29N 22°13' E 113°35'1381124329.2
2014-Sep-15 00:28N 01°19' E 103°43'20813745371.9
2014-Sep-15 00:28N 32°00' E 120°35'6551808.2
2014-Sep-15 00:06N 23°04' E 113°29'1 2.4
2014-Sep-14 23:32N 23°03' E 113°30'650780074.4
2014-Sep-14 23:32N 31°58' E 120°26'4137.5
2014-Sep-14 23:30N 32°02' E 120°29'6542354340.3
2014-Sep-14 23:30N 23°04' E 113°29'656196675.5
2014-Sep-14 23:30N 31°47' E 120°55'39788.8
2014-Sep-14 23:27N 31°57' E 120°11'68615149.1
2014-Sep-14 23:25N 22°10' E 113°32'137813515.3
2014-Sep-14 23:19N 01°19' E 103°43'20712750.6
2014-Sep-14 22:33N 31°57' E 120°17'2071162048.2
2014-Sep-14 22:33N 01°19' E 103°43'1418729310.6
2014-Sep-14 22:32N 22°55' E 113°30'6562362475.7
2014-Sep-14 22:32N 31°58' E 120°26'65019649.9
2014-Sep-14 22:30N 23°04' E 113°29'656262221.0
2014-Sep-14 22:30N 31°47' E 120°55'3031.1
2014-Sep-14 21:33N 31°58' E 120°23'3150.5
2014-Sep-14 21:32N 31°58' E 120°26'2716276.4
2014-Sep-14 21:32N 31°47' E 120°55'20787482357.6
2014-Sep-14 21:32N 01°19' E 103°43'137851668.0
2014-Sep-14 21:31N 22°10' E 113°32'5419318.8
2014-Sep-14 21:30N 23°04' E 113°29'650685.1
2014-Sep-14 20:33N 31°59' E 120°27'144.8
2014-Sep-14 20:32N 31°58' E 120°26'6508007.9
2014-Sep-14 20:27N 23°04' E 113°29'142528042.1
2014-Sep-14 20:24N 01°19' E 103°43'1378165337.6
2014-Sep-14 20:24N 22°10' E 113°32'6996337.5
2014-Sep-14 20:17N 31°47' E 120°55'355486.1
2014-Sep-14 19:33N 37°42' E 121°09'344112735.7
2014-Sep-14 19:33N 31°59' E 120°27'65910879.7
2014-Sep-14 19:30N 22°51' E 113°34'412213.4
2014-Sep-14 19:29N 22°10' E 113°32'421758.8
2014-Sep-14 19:27N 22°52' E 113°33'65847366.2
2014-Sep-14 19:26N 31°58' E 120°26'20751867725.9
2014-Sep-14 19:26N 01°19' E 103°43'14257943.9
2014-Sep-14 19:15N 23°04' E 113°29'650926.9
2014-Sep-14 18:33N 31°59' E 120°27'69475735.5
2014-Sep-14 18:33N 22°11' E 113°32'417045.9
2014-Sep-14 18:32N 22°52' E 113°33'658236831.1
2014-Sep-14 18:32N 31°58' E 120°26'27796.7
2014-Sep-14 18:30N 31°47' E 120°55'35512792.7
2014-Sep-14 18:29N 37°42' E 121°11'239626956.5
2014-Sep-14 18:23N 01°19' E 103°43'142517880.6
2014-Sep-14 18:18N 23°04' E 113°29'650864.3
2014-Sep-14 17:33N 31°59' E 120°27'34812171.6
2014-Sep-14 17:32N 37°45' E 121°18'3493951.0
2014-Sep-14 17:26N 31°58' E 120°26'697100303.9
2014-Sep-14 17:26N 22°06' E 113°34'70111634.2
2014-Sep-14 17:22N 31°47' E 120°55'2733.3
2014-Sep-14 16:34N 31°59' E 120°27'141.9
2014-Sep-14 16:32N 31°58' E 120°26'65021256.8
2014-Sep-14 16:30N 23°04' E 113°29'201182.6
2014-Sep-14 16:29N 22°44' E 113°29'98664521.1
2014-Sep-14 16:29N 37°44' E 121°15'2400454699.8
2014-Sep-14 16:28N 01°19' E 103°43'13751491.0
2014-Sep-14 15:33N 22°07' E 113°33'69780957.8
2014-Sep-14 15:32N 31°59' E 120°27'1780.4
2014-Sep-14 15:32N 31°58' E 120°26'65021256.6
2014-Sep-14 15:30N 23°04' E 113°29'142538296.7
2014-Sep-14 15:28N 01°19' E 103°43'20762273.1
2014-Sep-14 14:33N 31°59' E 120°27'146.4
2014-Sep-14 14:32N 31°58' E 120°26'6508063.2
2014-Sep-14 14:27N 23°04' E 113°29'142516500.4
2014-Sep-14 14:22N 01°19' E 103°43'2079122665.6
2014-Sep-14 14:21N 31°47' E 120°55'21143.2
2014-Sep-14 14:12N 31°60' E 120°35'811.7
2014-Sep-14 13:33N 31°59' E 120°27'4108.1
2014-Sep-14 13:31N 32°02' E 120°30'5181.8
2014-Sep-14 13:29N 31°58' E 120°26'2075114937.1
2014-Sep-14 13:28N 01°19' E 103°43'208560536.2
2014-Sep-14 13:26N 32°00' E 120°44'7077148.4
2014-Sep-14 13:20N 22°06' E 113°34'7036266.2
2014-Sep-14 13:13N 31°60' E 120°38'20962.0
2014-Sep-14 13:12N 31°47' E 120°55'694624296.1
2014-Sep-14 13:12N 22°14' E 113°36'50523.8
2014-Sep-14 13:06N 23°04' E 113°29'6501182.5
2014-Sep-14 12:33N 31°60' E 120°23'930827.4
2014-Sep-14 12:33N 32°00' E 120°34'67341.4
2014-Sep-14 12:33N 31°59' E 120°27'10742.0
2014-Sep-14 12:33N 31°60' E 120°38'101884.5
2014-Sep-14 12:32N 31°58' E 120°26'27803.2
2014-Sep-14 12:30N 31°47' E 120°55'207860833.8
2014-Sep-14 12:28N 01°19' E 103°43'1425114036.3
2014-Sep-14 12:27N 23°04' E 113°29'47298.1
2014-Sep-14 12:18N 22°17' E 113°35'11177.1
2014-Sep-14 12:14N 22°06' E 113°34'7021024.4
2014-Sep-14 11:33N 32°01' E 120°33'6487.5
2014-Sep-14 11:32N 31°59' E 120°27'1736.4
2014-Sep-14 11:32N 31°58' E 120°26'72428.5
2014-Sep-14 11:32N 31°57' E 120°17'122234.7
2014-Sep-14 11:32N 32°01' E 120°30'208034827.3
2014-Sep-14 11:28N 01°19' E 103°43'142623651.5
2014-Sep-14 11:25N 23°04' E 113°30'58212.5
2014-Sep-14 11:08N 22°06' E 113°34'6971201.8
2014-Sep-14 10:33N 31°59' E 120°27'4870.2
2014-Sep-14 10:33N 32°02' E 120°30'572.0
2014-Sep-14 10:29N 31°58' E 120°26'2075126625.3
2014-Sep-14 10:28N 01°19' E 103°43'208022968.9
2014-Sep-14 10:23N 32°01' E 120°30'65460378.9
2014-Sep-14 10:22N 23°04' E 113°30'65510082.6
2014-Sep-14 10:18N 31°47' E 120°55'3552540.7
2014-Sep-14 10:10N 37°42' E 121°09'344568.1
2014-Sep-14 09:33N 31°59' E 120°27'3405.8
2014-Sep-14 09:33N 32°01' E 120°26'2078498707.2
2014-Sep-14 09:33N 01°19' E 103°43'2079287867.5
2014-Sep-14 09:32N 32°02' E 120°27'700168076.6
2014-Sep-14 09:32N 22°06' E 113°34'583431.4
2014-Sep-14 09:31N 23°04' E 113°30'649389599.3
2014-Sep-14 09:31N 31°58' E 120°26'555.6
2014-Sep-14 09:26N 32°01' E 120°30'4 4.6
2014-Sep-14 08:33N 31°59' E 120°27'4304.1
2014-Sep-14 08:33N 31°59' E 120°22'64825643.5
2014-Sep-14 08:31N 23°04' E 113°30'649389599.3
2014-Sep-14 08:31N 31°58' E 120°26'272122.0
2014-Sep-14 08:30N 31°47' E 120°55'3054121.3
2014-Sep-14 08:30N 31°60' E 120°23'444133243.3
2014-Sep-14 08:30N 39°05' E 117°45'44421323.5
2014-Sep-14 08:29N 32°01' E 120°30'208015763.9
2014-Sep-14 08:21N 01°19' E 103°43'20762628.0
2014-Sep-14 07:33N 31°59' E 120°27'101650.0
2014-Sep-14 07:33N 31°56' E 120°15'11027.5
2014-Sep-14 07:33N 31°57' E 120°16'4451603076.8
2014-Sep-14 07:33N 39°05' E 117°47'44424209.6
2014-Sep-14 07:32N 32°01' E 120°30'65450104.7
2014-Sep-14 07:31N 23°04' E 113°30'649389599.3
2014-Sep-14 07:31N 31°58' E 120°26'272121.8
2014-Sep-14 07:30N 31°47' E 120°55'3553559.7
2014-Sep-14 07:24N 37°42' E 121°09'2395507193.3
2014-Sep-14 07:24N 01°19' E 103°43'208164595.7
2014-Sep-14 07:22N 31°59' E 120°38'70313182.5
2014-Sep-14 07:19N 22°06' E 113°34'700920.5
2014-Sep-14 06:33N 32°02' E 120°27'3305.3
2014-Sep-14 06:33N 31°59' E 120°27'44417023.2
2014-Sep-14 06:31N 39°04' E 117°48'445534032.4
2014-Sep-14 06:31N 31°58' E 120°26'6498408.5
2014-Sep-14 06:26N 23°04' E 113°30'6557635.3
2014-Sep-14 06:21N 31°47' E 120°55'2078110036.0
2014-Sep-14 06:20N 01°19' E 103°43'24001439920.9
2014-Sep-14 06:20N 39°05' E 117°45'486249858.0
2014-Sep-14 06:20N 31°31' E 121°19'67525868.4
2014-Sep-14 06:18N 22°48' E 113°19'443223.5
2014-Sep-14 06:18N 22°06' E 113°34'697948.2
2014-Sep-14 05:33N 31°59' E 120°27'51832.2
2014-Sep-14 05:33N 31°59' E 120°21'64851801.9
2014-Sep-14 05:32N 23°04' E 113°30'64926868.9
2014-Sep-14 05:31N 31°58' E 120°26'44439008.8
2014-Sep-14 05:30N 39°04' E 117°50'123.4
2014-Sep-14 05:28N 39°04' E 117°51'43713567.8
2014-Sep-14 05:26N 31°59' E 119°59'6429796.3
2014-Sep-14 05:22N 23°02' E 113°22'6466122.5
2014-Sep-14 05:16N 31°56' E 120°13'206860516.1
2014-Sep-14 05:14N 01°19' E 103°43'2081144097.8
2014-Sep-14 05:13N 31°59' E 120°38'191628.1
2014-Sep-14 05:12N 31°47' E 120°55'2741.7
2014-Sep-14 04:33N 31°59' E 120°27'1323759.7
2014-Sep-14 04:33N 31°56' E 120°11'33116.4
2014-Sep-14 04:33N 31°56' E 120°15'64222652.1
2014-Sep-14 04:32N 23°04' E 113°29'64977939.9
2014-Sep-14 04:31N 31°58' E 120°26'44627210.0
2014-Sep-14 04:30N 39°05' E 117°46'2400169410.3
2014-Sep-14 04:29N 01°19' E 103°43'208199907.5
2014-Sep-14 04:28N 31°59' E 120°38'4482900.2
2014-Sep-14 04:19N 39°05' E 117°46'46466829.4
2014-Sep-14 04:18N 31°47' E 120°55'7018250.3
2014-Sep-14 04:13N 22°06' E 113°34'6971051.0
2014-Sep-14 03:33N 31°59' E 120°27'44513226.4
2014-Sep-14 03:31N 39°04' E 117°47'44767075.1
2014-Sep-14 03:31N 31°59' E 120°38'2081111836.7
2014-Sep-14 03:30N 01°19' E 103°43'1416849742.7
2014-Sep-14 03:30N 22°54' E 113°28'64780348.4
2014-Sep-14 03:29N 31°56' E 120°07'2466.8
2014-Sep-14 03:29N 31°57' E 120°04'44217489.2
2014-Sep-14 03:27N 39°05' E 117°46'44650190.1
2014-Sep-14 03:27N 31°58' E 120°26'671301781.6
2014-Sep-14 03:27N 22°18' E 114°07'601607.6
2014-Sep-14 03:25N 23°04' E 113°26'6573854.5
2014-Sep-14 03:14N 31°47' E 120°55'7015912.3
2014-Sep-14 03:07N 22°06' E 113°34'6971238.6
2014-Sep-14 02:33N 31°59' E 120°27'656138883.4
2014-Sep-14 02:33N 23°02' E 113°22'1421284159.8
2014-Sep-14 02:33N 01°19' E 103°43'141846416.4
2014-Sep-14 02:31N 22°56' E 113°30'103837008.8
2014-Sep-14 02:29N 38°47' E 121°34'17478189.1
2014-Sep-14 02:29N 39°05' E 117°52'44511040.0
2014-Sep-14 02:27N 31°58' E 120°26'444798950.7
2014-Sep-14 02:27N 39°04' E 117°51'104140310.0
2014-Sep-14 02:25N 22°06' E 113°34'11194.1
2014-Sep-14 02:22N 22°17' E 113°35'10307615.4
2014-Sep-14 02:14N 39°04' E 117°51'10331549.0
2014-Sep-14 01:34N 22°15' E 113°36'689275622.2
2014-Sep-14 01:33N 31°59' E 120°27'44445618.8
2014-Sep-14 01:33N 39°04' E 117°51'444532863.0
2014-Sep-14 01:33N 31°58' E 120°26'65049764.6
2014-Sep-14 01:32N 23°04' E 113°30'986197159.2
2014-Sep-14 01:32N 39°05' E 117°45'51680.5
2014-Sep-14 01:32N 39°04' E 117°51'1042178586.2
2014-Sep-14 01:31N 22°06' E 113°34'70312227.0
2014-Sep-14 01:28N 31°59' E 120°38'208132021.6
2014-Sep-14 01:24N 01°19' E 103°43'20787119.5
2014-Sep-14 01:06N 31°47' E 120°55'27 7.5
2014-Sep-13 21:34N 31°59' E 120°27'2781.8
2014-Sep-13 21:33N 31°58' E 120°25'3393.8
2014-Sep-13 21:33N 31°58' E 120°22'3477756.4
2014-Sep-13 21:30N 37°40' E 121°32'2403665442.6
2014-Sep-13 21:30N 01°19' E 103°43'207845074.3
2014-Sep-13 21:27N 31°47' E 120°55'656131113.3
2014-Sep-13 21:27N 23°04' E 113°29'58440.9
2014-Sep-13 21:19N 22°06' E 113°34'58864.1
2014-Sep-13 21:15N 23°04' E 113°30'65598250.2
2014-Sep-13 21:15N 31°47' E 120°54'355514.8
2014-Sep-13 20:33N 37°40' E 121°32'346177853.1
2014-Sep-13 20:33N 31°59' E 120°27'51276.0
2014-Sep-13 20:33N 31°58' E 120°22'2073829374.6
2014-Sep-13 20:33N 01°19' E 103°43'207879600.0
2014-Sep-13 20:31N 31°47' E 120°55'6551516.2
2014-Sep-13 20:05N 23°04' E 113°30'6501219.4
2014-Sep-13 19:33N 31°59' E 120°27'3459923.3
2014-Sep-13 19:31N 37°39' E 121°32'2402104185.2
2014-Sep-13 19:30N 01°19' E 103°43'207323109.6
2014-Sep-13 19:24N 31°58' E 120°22'31351.9
2014-Sep-13 19:19N 31°47' E 120°55'65520338.2
2014-Sep-13 19:17N 23°04' E 113°30'650889.2
2014-Sep-13 18:33N 31°59' E 120°27'51507.5
2014-Sep-13 18:33N 31°58' E 120°22'31917.9
2014-Sep-13 18:31N 31°47' E 120°55'3561279825.1
2014-Sep-13 18:31N 37°41' E 121°29'2403345976.6
2014-Sep-13 18:31N 01°19' E 103°43'142657026.8
2014-Sep-13 18:29N 23°04' E 113°30'0 0.8
2014-Sep-13 18:27N 23°04' E 113°30'43241.5
2014-Sep-13 18:17N 22°27' E 113°53'6744126.8
2014-Sep-13 18:07N 31°31' E 121°19'5699.4
2014-Sep-13 17:33N 31°58' E 120°22'51842.5
2014-Sep-13 17:33N 31°59' E 120°27'68825262.6
2014-Sep-13 17:31N 22°17' E 113°35'471952.7
2014-Sep-13 17:30N 23°04' E 113°30'0 1.8
2014-Sep-13 17:26N 23°04' E 113°30'1426366602.2
2014-Sep-13 17:26N 01°19' E 103°43'240421266.7
2014-Sep-13 17:19N 37°41' E 121°33'3561774.3
2014-Sep-13 17:07N 31°47' E 120°55'4987.1
2014-Sep-13 16:33N 31°59' E 119°59'194875.5
2014-Sep-13 16:33N 31°58' E 120°22'5247.5
2014-Sep-13 16:32N 31°59' E 120°27'69835874.7
2014-Sep-13 16:31N 22°06' E 113°34'11263.4
2014-Sep-13 16:28N 22°17' E 113°35'471311.0
2014-Sep-13 16:26N 23°04' E 113°30'142656400.3
2014-Sep-13 16:25N 01°19' E 103°43'14265280.1
2014-Sep-13 16:09N 23°04' E 113°29'97143692.4
2014-Sep-13 16:07N 37°41' E 121°33'0 0.2
2014-Sep-13 15:33N 37°41' E 121°33'346623132.3
2014-Sep-13 15:33N 31°59' E 120°27'65149826.5
2014-Sep-13 15:33N 23°04' E 113°29'115.0
2014-Sep-13 15:29N 23°04' E 113°30'647166430.0
2014-Sep-13 15:29N 31°58' E 120°22'69510124.2
2014-Sep-13 15:25N 22°06' E 113°34'137520040.9
2014-Sep-13 15:21N 01°19' E 103°43'20797527.8
2014-Sep-13 15:04N 31°47' E 120°55'2751.8
2014-Sep-13 14:33N 31°59' E 120°27'687164950.0
2014-Sep-13 14:33N 22°17' E 113°35'478513.4
2014-Sep-13 14:33N 23°04' E 113°29'971249660.4
2014-Sep-13 14:32N 37°40' E 121°35'34756775.6
2014-Sep-13 14:32N 31°58' E 120°22'647776697.1
2014-Sep-13 14:32N 23°04' E 113°30'1426466578.9
2014-Sep-13 14:32N 01°19' E 103°43'207913058.7
2014-Sep-13 14:22N 31°47' E 120°55'70112686.5
2014-Sep-13 14:19N 22°06' E 113°34'10251350.8
2014-Sep-13 13:33N 37°41' E 121°39'2406234104.2
2014-Sep-13 13:33N 01°19' E 103°43'14261283045.1
2014-Sep-13 13:33N 23°04' E 113°29'651111515.6
2014-Sep-13 13:32N 31°59' E 120°27'68816622.3
2014-Sep-13 13:30N 22°12' E 113°44'68544041.1
2014-Sep-13 13:29N 31°58' E 120°22'1284464.5
2014-Sep-13 13:27N 30°44' E 122°23'66210594.4
2014-Sep-13 13:24N 23°04' E 113°29'3773742.8
2014-Sep-13 13:17N 22°36' E 120°17'9081236.2
2014-Sep-13 12:33N 37°41' E 121°34'1016914526.6
2014-Sep-13 12:33N 22°08' E 113°49'689137725.0
2014-Sep-13 12:33N 31°59' E 120°27'65190070.3
2014-Sep-13 12:33N 23°04' E 113°29'1426111569.2
2014-Sep-13 12:32N 01°19' E 103°43'207338279.2
2014-Sep-13 12:29N 31°58' E 120°22'6477567.5
2014-Sep-13 12:23N 23°04' E 113°29'9701163.2
2014-Sep-13 11:33N 37°41' E 121°30'346249442.6
2014-Sep-13 11:33N 31°59' E 120°27'6892479049.7
2014-Sep-13 11:33N 22°08' E 113°49'595050.1
2014-Sep-13 11:33N 23°04' E 113°29'1426116641.1
2014-Sep-13 11:32N 01°19' E 103°43'2073439068.1
2014-Sep-13 11:32N 31°58' E 120°22'660792252.7
2014-Sep-13 11:32N 22°42' E 113°41'24181.4
2014-Sep-13 11:24N 23°04' E 113°29'656147510.5
2014-Sep-13 11:23N 31°47' E 120°55'463185266.7
2014-Sep-13 11:23N 39°04' E 117°48'463557.8
2014-Sep-13 10:33N 31°47' E 120°55'276003.2
2014-Sep-13 10:33N 31°59' E 120°27'446535075.6
2014-Sep-13 10:33N 39°05' E 117°45'985221678.5
2014-Sep-13 10:33N 23°04' E 113°29'967217624.1
2014-Sep-13 10:32N 37°41' E 121°23'190171079.2
2014-Sep-13 10:32N 39°05' E 117°45'998115921.0
2014-Sep-13 10:32N 22°50' E 113°36'65612054.6
2014-Sep-13 10:29N 31°58' E 120°21'6867012.7
2014-Sep-13 10:23N 22°08' E 113°49'1383108257.0
2014-Sep-13 10:22N 01°19' E 103°43'142688482.5
2014-Sep-13 10:21N 23°04' E 113°29'651818.6
2014-Sep-13 09:33N 31°59' E 120°27'6552356832.6
2014-Sep-13 09:33N 23°07' E 113°17'642144378.9
2014-Sep-13 09:33N 32°00' E 119°59'4361569919.3
2014-Sep-13 09:33N 39°04' E 117°53'992510255.5
2014-Sep-13 09:33N 22°57' E 113°32'726506.6
2014-Sep-13 09:33N 23°04' E 113°29'59838.1
2014-Sep-13 09:29N 22°08' E 113°49'686493695.7
2014-Sep-13 09:29N 31°58' E 120°21'2073165868.1
2014-Sep-13 09:28N 01°19' E 103°43'206599124.4
2014-Sep-13 09:27N 31°59' E 120°01'6386396.4
2014-Sep-13 09:21N 23°04' E 113°29'6495299.1
2014-Sep-13 09:13N 31°58' E 120°25'28884.5
2014-Sep-13 09:11N 31°47' E 120°55'4623809.4
2014-Sep-13 09:04N 39°04' E 117°52'440861.5
2014-Sep-13 08:33N 31°58' E 120°04'2017839.4
2014-Sep-13 08:33N 31°59' E 120°27'163892.0
2014-Sep-13 08:33N 31°57' E 120°08'146505.0
2014-Sep-13 08:33N 31°58' E 120°25'649106254.9
2014-Sep-13 08:33N 23°04' E 113°29'37030309.1
2014-Sep-13 08:32N 25°59' E 119°28'17421253995.2
2014-Sep-13 08:32N 01°19' E 103°43'142643862.8
2014-Sep-13 08:30N 23°04' E 113°29'65671518.2
2014-Sep-13 08:29N 31°47' E 120°55'65798609.8
2014-Sep-13 08:29N 23°07' E 113°22'649122948.6
2014-Sep-13 08:29N 31°58' E 120°22'68639830.2
2014-Sep-13 08:28N 22°06' E 113°53'103919375.8
2014-Sep-13 08:24N 39°04' E 117°52'50511886.4
2014-Sep-13 08:22N 31°18' E 121°50'5065515.0
2014-Sep-13 08:16N 39°04' E 117°50'9867679.7
2014-Sep-13 08:09N 23°04' E 113°29'6511098.9
2014-Sep-13 07:33N 31°59' E 120°27'655471748.6
2014-Sep-13 07:33N 23°02' E 113°24'644330946.9
2014-Sep-13 07:33N 31°57' E 120°06'153094.6
2014-Sep-13 07:33N 31°58' E 120°24'2100.8
2014-Sep-13 07:32N 31°58' E 120°22'64927813.6
2014-Sep-13 07:30N 23°07' E 113°22'1425223042.0
2014-Sep-13 07:30N 01°19' E 103°43'1426466567.7
2014-Sep-13 07:30N 23°04' E 113°29'656147498.2
2014-Sep-13 07:29N 31°47' E 120°55'6564636.7
2014-Sep-13 07:21N 23°04' E 113°29'98640787.0
2014-Sep-13 07:19N 39°04' E 117°50'4436940.5
2014-Sep-13 07:16N 31°57' E 120°16'1013.9
2014-Sep-13 06:33N 31°59' E 120°27'657102847.4
2014-Sep-13 06:33N 23°03' E 113°18'652260603.4
2014-Sep-13 06:33N 31°57' E 120°19'64534145.8
2014-Sep-13 06:31N 23°04' E 113°29'656337133.8
2014-Sep-13 06:31N 31°47' E 120°55'113204255.5
2014-Sep-13 06:31N 30°25' E 122°27'1423279.0
2014-Sep-13 06:29N 31°58' E 120°22'11361.5
2014-Sep-13 06:27N 31°56' E 120°09'65517346.7
2014-Sep-13 06:25N 22°45' E 113°31'100436882.2
2014-Sep-13 06:23N 39°05' E 117°45'98529313.6
2014-Sep-13 06:21N 23°04' E 113°29'657139093.0
2014-Sep-13 06:21N 31°31' E 121°19'70111525.4
2014-Sep-13 06:17N 22°06' E 113°34'104111716.8
2014-Sep-13 06:12N 39°05' E 117°44'446701.9
2014-Sep-13 05:34N 31°59' E 120°27'444177644.6
2014-Sep-13 05:33N 39°04' E 117°50'444228121.9
2014-Sep-13 05:33N 31°56' E 120°12'64968735.0
2014-Sep-13 05:33N 23°03' E 113°15'65636323.2
2014-Sep-13 05:32N 31°58' E 120°22'64722410.1
2014-Sep-13 05:30N 23°04' E 113°29'985118241.1
2014-Sep-13 05:29N 39°04' E 117°49'141.9
2014-Sep-13 05:28N 39°04' E 117°50'48422042.1
2014-Sep-13 05:27N 31°31' E 121°19'6575525.1
2014-Sep-13 05:20N 23°04' E 113°29'521287.4
2014-Sep-13 05:17N 22°13' E 113°35'770.3
2014-Sep-13 05:11N 22°06' E 113°35'6971097.8
2014-Sep-13 04:33N 31°59' E 120°27'659593093.6
2014-Sep-13 04:33N 23°03' E 113°15'651106567.6
2014-Sep-13 04:33N 31°57' E 120°15'652106721.4
2014-Sep-13 04:33N 22°50' E 113°34'4173176.3
2014-Sep-13 04:33N 22°10' E 113°36'69042852.1
2014-Sep-13 04:32N 31°58' E 120°22'647194217.2
2014-Sep-13 04:31N 23°04' E 113°29'010.6
2014-Sep-13 04:30N 23°04' E 113°29'98618292.2
2014-Sep-13 04:27N 39°04' E 117°50'1033123967.2
2014-Sep-13 04:26N 22°14' E 113°38'6921903.0
2014-Sep-13 04:04N 31°47' E 120°55'2751.7
2014-Sep-13 03:33N 31°59' E 120°27'65186735.6
2014-Sep-13 03:33N 23°04' E 113°29'91154.0
2014-Sep-13 03:32N 22°56' E 113°33'465696.7
2014-Sep-13 03:32N 22°10' E 113°31'693131212.8
2014-Sep-13 03:32N 31°58' E 120°22'3361.9
2014-Sep-13 03:31N 31°58' E 120°18'6548882.7
2014-Sep-13 03:27N 23°03' E 113°15'99028731.9
2014-Sep-13 03:25N 39°04' E 117°49'98888948.7
2014-Sep-13 03:24N 23°03' E 113°19'66223353.5
2014-Sep-13 03:22N 31°47' E 120°55'6567841.3
2014-Sep-13 03:17N 23°04' E 113°29'98665704.8
2014-Sep-13 03:16N 39°05' E 117°46'1 4.1
2014-Sep-13 03:05N 39°05' E 117°45'446858.9
2014-Sep-13 02:33N 31°59' E 120°27'62862.7
2014-Sep-13 02:33N 31°60' E 120°21'684164230.3
2014-Sep-13 02:33N 22°10' E 113°50'56100259.6
2014-Sep-13 02:33N 23°03' E 113°30'5017858.7
2014-Sep-13 02:33N 22°14' E 113°37'68731708.5
2014-Sep-13 02:32N 31°58' E 120°22'64716529.5
2014-Sep-13 02:29N 23°04' E 113°29'8499.5
2014-Sep-13 02:28N 23°02' E 113°21'6621191602.1
2014-Sep-13 02:28N 31°47' E 120°55'66099014.0
2014-Sep-13 02:28N 23°02' E 113°24'65717262.9
2014-Sep-13 02:26N 30°25' E 122°27'3008071.1
2014-Sep-13 02:23N 26°07' E 119°33'3789130.0
2014-Sep-13 02:21N 23°04' E 113°29'9864969.5
2014-Sep-13 02:09N 39°05' E 117°46'9851660.8
2014-Sep-13 01:33N 23°05' E 113°27'6511171574.0
2014-Sep-13 01:33N 31°59' E 120°27'519071.5
2014-Sep-13 01:33N 32°00' E 120°21'685176066.1
2014-Sep-13 01:33N 22°14' E 113°44'532561.8
2014-Sep-13 01:32N 23°05' E 113°26'65769533.9
2014-Sep-13 01:31N 31°47' E 120°55'316140.2
2014-Sep-13 01:31N 31°58' E 120°22'6564261.8
2014-Sep-13 01:22N 23°03' E 113°15'9906824.2
2014-Sep-13 01:13N 39°05' E 117°45'98510813.2
2014-Sep-13 01:08N 23°04' E 113°29'6481141.1
2014-Sep-13 00:33N 32°00' E 120°21'51589.3
2014-Sep-13 00:33N 31°59' E 120°27'651156138.6
2014-Sep-13 00:33N 23°04' E 113°29'64724797.2
2014-Sep-13 00:31N 31°58' E 120°22'3112280.5
2014-Sep-13 00:31N 31°47' E 120°55'691226097.1
2014-Sep-13 00:31N 22°17' E 113°37'486980.2
2014-Sep-13 00:31N 23°01' E 113°15'133836.0
2014-Sep-13 00:30N 23°04' E 113°29'985443438.2
2014-Sep-13 00:30N 39°04' E 117°51'9854473.6
2014-Sep-13 00:17N 23°04' E 113°29'648891.0
2014-Sep-12 23:33N 32°00' E 120°21'53813.3
2014-Sep-12 23:33N 31°59' E 120°27'6511171039.8
2014-Sep-12 23:33N 23°04' E 113°29'509076.4
2014-Sep-12 23:33N 22°14' E 113°35'1034177221.4
2014-Sep-12 23:33N 39°04' E 117°51'44326150.6
2014-Sep-12 23:32N 31°58' E 120°22'64733293.2
2014-Sep-12 23:30N 23°04' E 113°29'0 2.7
2014-Sep-12 23:29N 23°04' E 113°29'61510908.5
2014-Sep-12 23:26N 29°30' E 122°23'15618101.8
2014-Sep-12 23:25N 31°47' E 120°55'3551528.8
2014-Sep-12 23:11N 37°42' E 121°09'9767508.0
2014-Sep-12 23:04N 22°55' E 113°17'1529.2
2014-Sep-12 22:33N 23°04' E 113°29'638766151.4
2014-Sep-12 22:33N 31°58' E 120°04'1517525.0
2014-Sep-12 22:33N 32°00' E 120°21'52724.5
2014-Sep-12 22:33N 31°59' E 120°27'66782801.7
2014-Sep-12 22:33N 22°54' E 113°14'66439827.8
2014-Sep-12 22:32N 31°58' E 120°21'64751772.6
2014-Sep-12 22:31N 23°04' E 113°30'652111735.9
2014-Sep-12 22:31N 30°25' E 122°27'652586904.7
2014-Sep-12 22:30N 23°04' E 113°29'6204779.6
2014-Sep-12 22:23N 29°38' E 122°23'1492607.5
2014-Sep-12 22:19N 31°47' E 120°55'2734.8
2014-Sep-12 21:33N 31°59' E 120°27'519071.5
2014-Sep-12 21:33N 32°00' E 120°21'81817.9
2014-Sep-12 21:33N 31°57' E 120°13'6422310439.6
2014-Sep-12 21:33N 23°04' E 113°29'65622693.7
2014-Sep-12 21:31N 31°47' E 120°55'31707.9
2014-Sep-12 21:29N 31°58' E 120°21'24518.7
2014-Sep-12 21:26N 32°07' E 119°55'6311.8
2014-Sep-12 21:25N 32°01' E 119°58'6386294.0
2014-Sep-12 21:19N 23°04' E 113°29'96510306.9
2014-Sep-12 21:13N 36°47' E 123°11'96518473.6
2014-Sep-12 21:10N 23°04' E 113°30'53645.5
2014-Sep-12 21:05N 22°11' E 113°25'445477.0
2014-Sep-12 21:04N 22°54' E 113°13'6551249.5
2014-Sep-12 20:33N 31°58' E 120°03'655471323.1
2014-Sep-12 20:33N 22°54' E 113°13'665239329.5
2014-Sep-12 20:33N 31°60' E 120°21'648137262.6
2014-Sep-12 20:32N 23°04' E 113°29'649583709.1
2014-Sep-12 20:32N 32°00' E 120°21'14416161.9
2014-Sep-12 20:32N 30°25' E 122°27'14236549.7
2014-Sep-12 20:32N 31°58' E 120°21'58481.9
2014-Sep-12 20:32N 31°59' E 120°27'688225294.0
2014-Sep-12 20:31N 22°15' E 113°37'495065.2
2014-Sep-12 20:31N 23°04' E 113°30'1126.2
2014-Sep-12 20:30N 23°04' E 113°29'9657827.5
2014-Sep-12 20:23N 36°49' E 123°09'10149919.0
2014-Sep-12 20:17N 22°11' E 113°25'70111324.1
2014-Sep-12 20:13N 31°47' E 120°55'656989.6
2014-Sep-12 19:33N 23°04' E 113°29'65432275.0
2014-Sep-12 19:32N 32°02' E 120°29'47110.9
2014-Sep-12 19:32N 31°59' E 120°27'51271.4
2014-Sep-12 19:32N 32°00' E 120°21'118254.4
2014-Sep-12 19:32N 31°57' E 120°08'3298271.0
2014-Sep-12 19:30N 36°51' E 123°06'33226541.1
2014-Sep-12 19:29N 31°31' E 121°19'881016.8
2014-Sep-12 19:24N 30°25' E 122°27'1429472.5
2014-Sep-12 19:23N 31°58' E 120°22'6479322.4
2014-Sep-12 19:18N 23°04' E 113°29'1 5.8
2014-Sep-12 19:10N 23°04' E 113°30'1 1.2
2014-Sep-12 18:33N 23°04' E 113°29'65642969.1
2014-Sep-12 18:32N 32°01' E 120°35'123415.3
2014-Sep-12 18:32N 32°00' E 120°21'5713653.3
2014-Sep-12 18:32N 31°31' E 121°19'52186554.6
2014-Sep-12 18:32N 31°59' E 120°27'53315.7
2014-Sep-12 18:32N 31°58' E 120°22'14285257.2
2014-Sep-12 18:32N 30°25' E 122°27'11324030.1
2014-Sep-12 18:31N 31°47' E 120°55'65598302.1
2014-Sep-12 18:31N 23°04' E 113°30'97074327.5
2014-Sep-12 18:30N 36°56' E 123°07'97022395.7
2014-Sep-12 18:27N 23°04' E 113°29'4054627.6
2014-Sep-12 18:22N 26°45' E 119°43'635776.0
2014-Sep-12 17:33N 36°56' E 123°06'971205546.8
2014-Sep-12 17:33N 23°04' E 113°29'64938280.2
2014-Sep-12 17:32N 32°00' E 120°21'51648.9
2014-Sep-12 17:32N 31°57' E 120°16'911195.4
2014-Sep-12 17:32N 31°59' E 120°27'104030.6
2014-Sep-12 17:31N 32°00' E 120°39'197700.7
2014-Sep-12 17:31N 31°47' E 120°55'65650210.3
2014-Sep-12 17:30N 23°04' E 113°29'0 5.1
2014-Sep-12 17:30N 23°04' E 113°29'65212355.6
2014-Sep-12 17:27N 30°25' E 122°27'1422167.6
2014-Sep-12 17:23N 31°58' E 120°22'647779.3
2014-Sep-12 16:33N 23°04' E 113°30'183658.1
2014-Sep-12 16:33N 22°54' E 113°13'119999.8
2014-Sep-12 16:32N 23°02' E 113°21'65641443.4
2014-Sep-12 16:32N 31°59' E 120°27'619920.1
2014-Sep-12 16:31N 31°60' E 120°21'0127.2
2014-Sep-12 16:31N 32°00' E 120°21'32114879.3
2014-Sep-12 16:31N 31°47' E 120°55'65625934.1
2014-Sep-12 16:30N 23°04' E 113°29'64735312.0
2014-Sep-12 16:29N 31°58' E 120°22'15660.6
2014-Sep-12 16:27N 32°00' E 120°39'6583329.9
2014-Sep-12 16:15N 23°04' E 113°29'6526260.4
2014-Sep-12 16:09N 30°25' E 122°27'38910953.8
2014-Sep-12 16:07N 36°53' E 123°04'3345002.8
2014-Sep-12 16:03N 31°31' E 121°19'6741367.1
2014-Sep-12 15:34N 22°54' E 113°13'183130.5
2014-Sep-12 15:33N 23°04' E 113°30'9653475658.6
2014-Sep-12 15:33N 36°52' E 123°02'9673481357.7
2014-Sep-12 15:33N 23°04' E 113°26'65018284.9
2014-Sep-12 15:31N 32°00' E 120°21'59525.4
2014-Sep-12 15:31N 31°59' E 120°27'31628.2
2014-Sep-12 15:31N 32°01' E 120°24'13213.7
2014-Sep-12 15:27N 32°00' E 120°39'1917414.8
2014-Sep-12 15:27N 31°47' E 120°55'11319435.5
2014-Sep-12 15:27N 30°25' E 122°27'88911.6
2014-Sep-12 15:21N 31°31' E 121°19'562326.8
2014-Sep-12 15:20N 31°58' E 120°22'64733294.9
2014-Sep-12 15:18N 23°04' E 113°29'651868.0
2014-Sep-12 14:34N 31°59' E 120°27'650780407.7
2014-Sep-12 14:33N 23°04' E 113°30'96393718.0
2014-Sep-12 14:33N 36°52' E 122°58'31933812.5
2014-Sep-12 14:32N 32°00' E 120°21'2175.3
2014-Sep-12 14:32N 31°58' E 120°22'685176075.9
2014-Sep-12 14:31N 22°17' E 113°35'473051.7
2014-Sep-12 14:30N 23°04' E 113°29'65813376.2
2014-Sep-12 14:28N 32°00' E 120°39'194096.7
2014-Sep-12 14:27N 31°47' E 120°55'67355025.0
2014-Sep-12 14:27N 22°54' E 113°13'6707133.6
2014-Sep-12 14:21N 30°25' E 122°27'65212486.8
2014-Sep-12 14:18N 23°04' E 113°29'1824.2
2014-Sep-12 13:33N 22°54' E 113°13'4943921.6
2014-Sep-12 13:33N 22°14' E 113°43'5213359.4
2014-Sep-12 13:33N 23°04' E 113°30'959215664.6
2014-Sep-12 13:33N 36°52' E 122°46'959132814.1
2014-Sep-12 13:32N 23°03' E 113°30'251.0
2014-Sep-12 13:30N 23°04' E 113°29'0 4.6
2014-Sep-12 13:30N 23°04' E 113°29'65060045.0
2014-Sep-12 13:29N 31°59' E 120°27'5613.9
2014-Sep-12 13:29N 31°58' E 120°22'1425879.8
2014-Sep-12 13:27N 30°25' E 122°27'1339751.0
2014-Sep-12 13:26N 32°00' E 120°39'1554405.4
2014-Sep-12 13:26N 32°00' E 120°21'32919.0
2014-Sep-12 13:24N 31°47' E 120°55'2731.5
2014-Sep-12 12:33N 31°59' E 120°27'279618.5
2014-Sep-12 12:33N 31°47' E 120°55'673345873.3
2014-Sep-12 12:33N 22°54' E 113°13'969387698.2
2014-Sep-12 12:33N 36°53' E 122°34'953381245.3
2014-Sep-12 12:33N 23°04' E 113°30'64897251.3
2014-Sep-12 12:32N 32°00' E 120°21'649122964.1
2014-Sep-12 12:32N 23°03' E 113°30'64883298.9
2014-Sep-12 12:32N 31°58' E 120°22'152781.4
2014-Sep-12 12:31N 32°00' E 120°39'65824921.1
2014-Sep-12 12:30N 23°04' E 113°29'0 1.6
2014-Sep-12 12:27N 23°04' E 113°29'65215048.6
2014-Sep-12 12:25N 30°25' E 122°27'887231.4
2014-Sep-12 12:24N 31°31' E 121°19'7023162.0
2014-Sep-12 12:11N 22°11' E 113°25'6971120.5
2014-Sep-12 11:33N 31°59' E 120°27'53179.5
2014-Sep-12 11:33N 32°00' E 120°21'152365.4
2014-Sep-12 11:33N 32°00' E 120°39'30839653.3
2014-Sep-12 11:33N 36°55' E 122°27'969872023.7
2014-Sep-12 11:32N 22°54' E 113°13'66448788.1
2014-Sep-12 11:32N 31°58' E 120°22'653469914.3
2014-Sep-12 11:32N 23°02' E 113°22'658118468.1
2014-Sep-12 11:31N 30°25' E 122°27'1137288.6
2014-Sep-12 11:30N 31°47' E 120°55'65626239.2
2014-Sep-12 11:29N 23°03' E 113°30'212.2
2014-Sep-12 11:21N 23°04' E 113°29'53806.2
2014-Sep-12 11:17N 22°11' E 113°25'5373.5
2014-Sep-12 10:34N 23°04' E 113°30'650195121.6
2014-Sep-12 10:33N 31°59' E 120°27'651106506.7
2014-Sep-12 10:33N 23°05' E 113°27'649111234.3
2014-Sep-12 10:33N 32°00' E 120°21'665299339.2
2014-Sep-12 10:32N 22°54' E 113°13'67489930.2
2014-Sep-12 10:32N 32°00' E 120°39'658215382.8
2014-Sep-12 10:32N 23°03' E 113°30'648233197.8
2014-Sep-12 10:32N 31°58' E 120°21'14211123.5
2014-Sep-12 10:31N 30°25' E 122°27'65293904.1
2014-Sep-12 10:30N 23°04' E 113°29'6574170.6
2014-Sep-12 10:21N 31°31' E 121°19'657157643.8
2014-Sep-12 10:21N 23°04' E 113°29'65616053.6
2014-Sep-12 10:18N 31°47' E 120°55'69516037.2
2014-Sep-12 10:16N 22°13' E 113°35'67926302.4
2014-Sep-12 10:14N 31°59' E 120°00'1851675.4
2014-Sep-12 10:08N 29°42' E 122°25'170298.4
2014-Sep-12 09:33N 31°59' E 120°27'651213047.4
2014-Sep-12 09:33N 23°03' E 113°30'649292044.3
2014-Sep-12 09:33N 32°00' E 120°21'212838.1
2014-Sep-12 09:33N 32°01' E 120°46'211399.1
2014-Sep-12 09:32N 31°58' E 120°21'64732821.4
2014-Sep-12 09:30N 23°04' E 113°29'0 6.8
2014-Sep-12 09:29N 23°04' E 113°29'512842.3
2014-Sep-12 09:28N 22°13' E 113°36'511769.6
2014-Sep-12 09:26N 23°04' E 113°30'65522468.4
2014-Sep-12 09:24N 31°47' E 120°55'113617.0
2014-Sep-12 09:13N 30°25' E 122°27'6927785.1
2014-Sep-12 09:08N 22°17' E 113°20'481430.0
2014-Sep-12 09:06N 23°04' E 113°29'6481201.5
2014-Sep-12 08:33N 32°00' E 120°21'136046.6
2014-Sep-12 08:33N 32°00' E 120°37'82766.6
2014-Sep-12 08:33N 31°59' E 120°27'651106461.5
2014-Sep-12 08:33N 23°04' E 113°29'257.4
2014-Sep-12 08:31N 23°05' E 113°27'3129.0
2014-Sep-12 08:30N 23°04' E 113°30'64733769.7
2014-Sep-12 08:29N 31°58' E 120°22'64733290.4
2014-Sep-12 08:27N 23°04' E 113°29'656168572.2
2014-Sep-12 08:27N 31°47' E 120°55'69912404.7
2014-Sep-12 08:24N 22°17' E 113°20'164056.8
2014-Sep-12 08:24N 22°14' E 113°36'515905.4
2014-Sep-12 08:23N 23°04' E 113°30'64232993.2
2014-Sep-12 08:22N 31°57' E 120°13'1471742.9
2014-Sep-12 08:17N 30°25' E 122°27'889360.6
2014-Sep-12 08:16N 31°31' E 121°19'5779.7
2014-Sep-12 07:33N 32°00' E 120°21'5768319.2
2014-Sep-12 07:33N 31°31' E 121°19'6572365030.4
2014-Sep-12 07:33N 23°04' E 113°29'65124396.5
2014-Sep-12 07:32N 31°59' E 120°27'51658.5
2014-Sep-12 07:32N 31°58' E 120°22'3579.7
2014-Sep-12 07:31N 31°58' E 120°18'144103980.9
2014-Sep-12 07:31N 30°25' E 122°27'12922114.1
2014-Sep-12 07:31N 32°01' E 120°46'66295318.4
2014-Sep-12 07:30N 23°04' E 113°30'111.5
2014-Sep-12 07:26N 23°04' E 113°30'511245.4
2014-Sep-12 07:24N 22°14' E 113°36'6947828.9
2014-Sep-12 07:18N 31°47' E 120°55'3126.5
2014-Sep-12 07:17N 31°47' E 120°59'65831998.5
2014-Sep-12 07:15N 23°04' E 113°29'48274.9
2014-Sep-12 07:05N 22°17' E 113°20'6931322.7
2014-Sep-12 06:33N 32°00' E 120°21'6481167225.8
2014-Sep-12 06:33N 23°03' E 113°30'2321.2
2014-Sep-12 06:33N 23°04' E 113°29'651390334.5
2014-Sep-12 06:33N 31°59' E 120°27'372809.5
2014-Sep-12 06:32N 31°44' E 121°07'4124563.1
2014-Sep-12 06:32N 31°58' E 120°21'5613417.2
2014-Sep-12 06:32N 31°31' E 121°19'561020.2
2014-Sep-12 06:29N 31°58' E 120°22'64714562.8
2014-Sep-12 06:26N 23°04' E 113°30'65235552.1
2014-Sep-12 06:25N 30°25' E 122°27'69221294.5
2014-Sep-12 06:23N 22°17' E 113°20'48648.3
2014-Sep-12 06:18N 23°04' E 113°29'65619504.2
2014-Sep-12 06:16N 31°47' E 120°55'69424013.5
2014-Sep-12 06:15N 22°14' E 113°36'63811650.0
2014-Sep-12 06:11N 29°37' E 122°06'130204.2
2014-Sep-12 05:33N 31°39' E 121°15'5145681.3
2014-Sep-12 05:33N 32°00' E 120°21'51059.8
2014-Sep-12 05:33N 31°59' E 120°27'65175549.2
2014-Sep-12 05:33N 23°04' E 113°29'64745703.2
2014-Sep-12 05:32N 31°58' E 120°22'647211858.9
2014-Sep-12 05:31N 23°04' E 113°30'659139582.6
2014-Sep-12 05:31N 31°28' E 121°27'65959341.0
2014-Sep-12 05:31N 23°04' E 113°29'481809.5
2014-Sep-12 05:29N 22°17' E 113°20'48989.0
2014-Sep-12 05:26N 23°04' E 113°30'4815577.4
2014-Sep-12 05:26N 22°17' E 113°36'6913301.1
2014-Sep-12 05:13N 31°47' E 120°55'46713130.3
2014-Sep-12 05:11N 24°21' E 118°18'88516250.2
2014-Sep-12 05:08N 39°05' E 117°44'57013061.5
2014-Sep-12 05:05N 30°25' E 122°27'6521233.1
2014-Sep-12 04:34N 23°04' E 113°29'651468401.4
2014-Sep-12 04:33N 31°59' E 120°27'6546629.9
2014-Sep-12 04:33N 31°22' E 121°30'656196940.8
2014-Sep-12 04:33N 23°04' E 113°30'648291817.6
2014-Sep-12 04:33N 32°00' E 120°21'44132404.7
2014-Sep-12 04:32N 39°03' E 117°49'44361325.8
2014-Sep-12 04:32N 31°58' E 120°22'1429651.8
2014-Sep-12 04:31N 30°25' E 122°27'1132148.5
2014-Sep-12 04:28N 31°47' E 120°55'46837462.3
2014-Sep-12 04:27N 24°21' E 118°14'27117126.7
2014-Sep-12 04:26N 23°04' E 113°30'1 6.3
2014-Sep-12 04:19N 23°04' E 113°29'6602918.4
2014-Sep-12 04:05N 31°30' E 121°26'6601257.3
2014-Sep-12 03:33N 23°03' E 113°30'646465439.1
2014-Sep-12 03:33N 31°58' E 120°20'647179031.0
2014-Sep-12 03:33N 23°04' E 113°29'33988.3
2014-Sep-12 03:33N 23°04' E 113°25'653117471.2
2014-Sep-12 03:33N 31°59' E 120°27'473567634.4
2014-Sep-12 03:33N 24°22' E 118°08'46183008.5
2014-Sep-12 03:32N 31°28' E 121°29'48932034.0
2014-Sep-12 03:31N 39°03' E 117°50'4626519.9
2014-Sep-12 03:27N 31°47' E 120°55'65531459.5
2014-Sep-12 03:26N 23°04' E 113°30'6552357511.9
2014-Sep-12 03:26N 31°17' E 121°34'6986769.2
2014-Sep-12 03:20N 22°17' E 113°20'69213253.9
2014-Sep-12 03:17N 31°58' E 120°22'14285257.2
2014-Sep-12 03:17N 30°25' E 122°27'6613273.2
2014-Sep-12 03:04N 23°04' E 113°16'1222.7
2014-Sep-12 02:34N 23°04' E 113°29'15286.9
2014-Sep-12 02:33N 23°03' E 113°30'647581917.1
2014-Sep-12 02:33N 31°58' E 120°21'3112297.0
2014-Sep-12 02:33N 31°47' E 120°55'2719227.2
2014-Sep-12 02:33N 31°59' E 120°27'62674.9
2014-Sep-12 02:33N 31°58' E 120°20'14357186.6
2014-Sep-12 02:33N 30°25' E 122°27'43020623.7
2014-Sep-12 02:32N 24°25' E 118°03'2717918.1
2014-Sep-12 02:30N 23°02' E 113°22'11353.5
2014-Sep-12 02:28N 22°54' E 113°13'664113846.6
2014-Sep-12 02:27N 31°58' E 120°22'64729125.0
2014-Sep-12 02:26N 23°04' E 113°30'96329879.8
2014-Sep-12 02:24N 37°41' E 121°09'1755480.0
2014-Sep-12 02:22N 39°04' E 117°52'2402157202.6
2014-Sep-12 02:21N 01°19' E 103°43'14261792.5
2014-Sep-12 01:34N 23°04' E 113°29'6511171021.4
2014-Sep-12 01:33N 31°59' E 120°27'6512342017.3
2014-Sep-12 01:33N 23°03' E 113°30'647258605.5
2014-Sep-12 01:33N 31°58' E 120°20'66329471.9
2014-Sep-12 01:32N 22°54' E 113°13'66425985.3
2014-Sep-12 01:30N 31°58' E 120°22'69516347.2
2014-Sep-12 01:28N 22°10' E 113°27'1039162616.3
2014-Sep-12 01:27N 39°04' E 117°47'463139044.3
2014-Sep-12 01:27N 31°47' E 120°55'207858916.0
2014-Sep-12 01:25N 01°19' E 103°44'205423324.0
2014-Sep-12 01:20N 30°25' E 122°27'44736.2
2014-Sep-12 01:16N 29°42' E 122°23'62215985.4
2014-Sep-12 01:14N 23°04' E 113°30'14262095.6
2014-Sep-12 00:33N 01°19' E 103°44'141067678.0
2014-Sep-12 00:32N 22°54' E 113°13'182446.9
2014-Sep-12 00:31N 23°03' E 113°30'65612553.9
2014-Sep-12 00:28N 31°47' E 120°55'2716024.3
2014-Sep-12 00:28N 31°59' E 120°27'6513.8
2014-Sep-12 00:28N 31°58' E 120°20'12496.3
2014-Sep-12 00:28N 31°58' E 120°22'64725605.4
2014-Sep-12 00:26N 23°04' E 113°30'6523425.7
2014-Sep-12 00:15N 30°25' E 122°27'441178.8
2014-Sep-12 00:12N 29°41' E 122°25'645193397.3
2014-Sep-12 00:12N 22°09' E 113°55'25285.6
2014-Sep-12 00:07N 22°09' E 113°27'6941246.4
2014-Sep-11 23:33N 31°58' E 120°20'61554.5
2014-Sep-11 23:33N 31°59' E 120°27'269311.0
2014-Sep-11 23:33N 31°47' E 120°54'66125321.2
2014-Sep-11 23:32N 23°03' E 113°19'1421300864.3
2014-Sep-11 23:31N 01°19' E 103°44'137835175.0
2014-Sep-11 23:29N 22°10' E 113°32'70244329.3
2014-Sep-11 23:28N 29°52' E 123°20'19932494.1
2014-Sep-11 23:28N 31°58' E 120°22'664149398.7
2014-Sep-11 23:27N 22°54' E 113°13'67219682.8
2014-Sep-11 23:25N 31°47' E 120°55'65517476.9
2014-Sep-11 23:23N 23°04' E 113°30'492392.2
2014-Sep-11 23:22N 22°16' E 113°36'100424415.5
2014-Sep-11 23:19N 37°40' E 121°08'344451.0
2014-Sep-11 22:34N 31°58' E 120°21'6882476788.4
2014-Sep-11 22:34N 22°13' E 113°35'687309197.2
2014-Sep-11 22:33N 31°58' E 120°20'67257.8
2014-Sep-11 22:33N 31°59' E 120°27'3461245614.9
2014-Sep-11 22:33N 37°42' E 121°16'100844793.3
2014-Sep-11 22:32N 22°15' E 113°41'68022884.3
2014-Sep-11 22:30N 31°57' E 120°16'391083.6
2014-Sep-11 22:28N 31°46' E 121°00'67625355.4
2014-Sep-11 22:26N 22°27' E 113°53'453330.4
2014-Sep-11 22:26N 22°54' E 113°13'18417.3
2014-Sep-11 22:23N 23°04' E 113°30'1426106920.9
2014-Sep-11 22:22N 01°19' E 103°44'205446795.7
2014-Sep-11 22:20N 30°25' E 122°27'113731.7
2014-Sep-11 22:10N 31°47' E 120°55'331144.3
2014-Sep-11 22:09N 31°59' E 120°19'2 3.3
2014-Sep-11 21:34N 31°58' E 120°21'1388.5
2014-Sep-11 21:33N 31°58' E 120°20'24240.3
2014-Sep-11 21:33N 31°60' E 120°22'41454.7
2014-Sep-11 21:33N 31°57' E 120°19'73658.5
2014-Sep-11 21:33N 31°59' E 120°27'69565852.5
2014-Sep-11 21:32N 22°10' E 113°32'69526321.1
2014-Sep-11 21:31N 31°58' E 120°27'207677836.6
2014-Sep-11 21:29N 01°19' E 103°44'142626730.3
2014-Sep-11 21:26N 23°04' E 113°30'66258101.3
2014-Sep-11 21:25N 31°58' E 120°50'34744665.9
2014-Sep-11 21:25N 37°44' E 121°30'4412432.8
2014-Sep-11 21:14N 30°25' E 122°27'1139726.4
2014-Sep-11 21:13N 31°47' E 120°55'2740.2
2014-Sep-11 20:34N 31°59' E 120°27'34983747.4
2014-Sep-11 20:33N 37°44' E 121°31'24061237192.1
2014-Sep-11 20:33N 01°19' E 103°44'20692483158.6
2014-Sep-11 20:33N 31°56' E 120°16'660158330.5
2014-Sep-11 20:33N 22°54' E 113°13'475440.5
2014-Sep-11 20:32N 22°10' E 113°32'699100647.5
2014-Sep-11 20:32N 32°02' E 120°29'9712.0
2014-Sep-11 20:31N 31°58' E 120°20'1122.0
2014-Sep-11 20:31N 31°58' E 120°21'14213832.2
2014-Sep-11 20:30N 30°25' E 122°27'541177.9
2014-Sep-11 20:27N 29°57' E 123°21'193138942.8
2014-Sep-11 20:27N 32°02' E 120°30'65435165.6
2014-Sep-11 20:26N 23°04' E 113°30'6562081.3
2014-Sep-11 20:07N 32°04' E 120°30'610.8
2014-Sep-11 19:34N 31°59' E 120°27'6672400574.4
2014-Sep-11 19:34N 22°54' E 113°14'1410282048.3
2014-Sep-11 19:33N 01°19' E 103°44'20671860131.2
2014-Sep-11 19:33N 31°56' E 120°12'17620464.0
2014-Sep-11 19:33N 34°48' E 119°31'1777320.9
2014-Sep-11 19:31N 32°00' E 120°37'134033.3
2014-Sep-11 19:31N 31°58' E 120°22'117.9
2014-Sep-11 19:27N 31°58' E 120°20'64675049.8
2014-Sep-11 19:26N 23°04' E 113°30'65553619.7
2014-Sep-11 19:25N 31°47' E 120°55'7048622.7
2014-Sep-11 19:20N 22°04' E 113°32'69415235.5
2014-Sep-11 19:18N 30°25' E 122°27'4403165.0
2014-Sep-11 19:09N 37°43' E 121°38'34516111.1
2014-Sep-11 19:08N 32°02' E 120°35'12177.4
2014-Sep-11 19:04N 31°58' E 120°21'510.1
2014-Sep-11 18:33N 31°59' E 120°27'61019.0
2014-Sep-11 18:33N 31°58' E 120°20'17518511.2
2014-Sep-11 18:33N 34°48' E 119°32'822211247.2
2014-Sep-11 18:32N 22°10' E 113°32'77326743.9
2014-Sep-11 18:31N 32°30' E 122°10'771972.9
2014-Sep-11 18:28N 31°47' E 120°55'316487.1
2014-Sep-11 18:28N 31°58' E 120°22'64719579.1
2014-Sep-11 18:26N 23°04' E 113°30'142630368.1
2014-Sep-11 18:23N 01°19' E 103°44'14078515.4
2014-Sep-11 18:13N 22°48' E 113°21'6681007.9
2014-Sep-11 17:33N 31°59' E 120°27'6411.6
2014-Sep-11 17:33N 31°58' E 120°20'69169127.3
2014-Sep-11 17:32N 22°10' E 113°32'102585827.2
2014-Sep-11 17:31N 37°42' E 121°44'2410129468.7
2014-Sep-11 17:30N 01°19' E 103°44'2201233080.1
2014-Sep-11 17:30N 34°47' E 119°31'17418439.9
2014-Sep-11 17:29N 31°58' E 120°22'311934.5
2014-Sep-11 17:28N 31°47' E 120°55'65518576.9
2014-Sep-11 17:26N 23°04' E 113°30'2583850.6
2014-Sep-11 17:22N 24°24' E 117°57'4334104.9
2014-Sep-11 17:16N 30°25' E 122°27'139196.6
2014-Sep-11 16:33N 31°59' E 120°27'693415897.9
2014-Sep-11 16:33N 22°10' E 113°35'1024307346.9
2014-Sep-11 16:33N 37°44' E 121°42'353634548.9
2014-Sep-11 16:33N 31°58' E 120°20'1100.9
2014-Sep-11 16:32N 31°58' E 120°22'2073146354.1
2014-Sep-11 16:31N 01°19' E 103°44'161629838.2
2014-Sep-11 16:28N 24°24' E 117°57'53971901.2
2014-Sep-11 16:27N 32°33' E 122°17'8312968.8
2014-Sep-11 16:27N 31°47' E 120°55'6552437.6
2014-Sep-11 16:11N 23°04' E 113°30'6501037.4
2014-Sep-11 15:33N 31°59' E 120°27'2076679415.7
2014-Sep-11 15:33N 01°19' E 103°44'2073678533.7
2014-Sep-11 15:33N 31°58' E 120°21'694178422.1
2014-Sep-11 15:33N 22°07' E 113°33'1028127601.3
2014-Sep-11 15:32N 37°45' E 121°38'35328895.9
2014-Sep-11 15:32N 31°58' E 120°20'329565.5
2014-Sep-11 15:31N 31°47' E 120°55'1943007.6
2014-Sep-11 15:27N 34°47' E 119°30'77032625.1
2014-Sep-11 15:26N 23°04' E 113°30'6629723.0
2014-Sep-11 15:22N 31°58' E 120°50'479287390.7
2014-Sep-11 15:22N 24°24' E 117°57'5462860.3
2014-Sep-11 15:10N 32°37' E 122°23'1325285.1
2014-Sep-11 15:09N 30°25' E 122°27'139235.7
2014-Sep-11 14:34N 31°59' E 120°27'2076373678.5
2014-Sep-11 14:33N 01°19' E 103°44'2073466507.0
2014-Sep-11 14:33N 31°58' E 120°21'694312268.0
2014-Sep-11 14:33N 22°07' E 113°33'575106.6
2014-Sep-11 14:32N 23°04' E 113°30'48171840.7
2014-Sep-11 14:32N 22°17' E 113°37'783352568.6
2014-Sep-11 14:32N 32°42' E 122°28'1171113.1
2014-Sep-11 14:26N 31°58' E 120°20'35470899.3
2014-Sep-11 14:25N 37°47' E 121°34'353408.2
2014-Sep-11 13:33N 31°59' E 120°27'4460.4
2014-Sep-11 13:33N 31°58' E 120°21'64749572.5
2014-Sep-11 13:32N 23°04' E 113°30'142691646.4
2014-Sep-11 13:31N 01°19' E 103°44'138639594.6
2014-Sep-11 13:29N 22°13' E 113°46'101916153.1
2014-Sep-11 13:25N 37°49' E 121°29'2061995.6
2014-Sep-11 13:19N 34°47' E 119°31'17416887.8
2014-Sep-11 13:18N 31°58' E 120°20'241488.0
2014-Sep-11 13:18N 32°00' E 120°48'2432.0
2014-Sep-11 12:33N 31°58' E 120°20'61341.7
2014-Sep-11 12:33N 31°59' E 120°27'124600.3
2014-Sep-11 12:33N 31°60' E 120°40'352105717.6
2014-Sep-11 12:33N 37°50' E 121°25'4867052.7
2014-Sep-11 12:29N 29°54' E 123°19'35212656.6
2014-Sep-11 12:27N 34°48' E 119°30'7714657.3
2014-Sep-11 12:17N 23°04' E 113°30'654900.8
2014-Sep-11 11:34N 32°01' E 120°31'102311.6
2014-Sep-11 11:33N 31°58' E 120°20'67198.8
2014-Sep-11 11:33N 31°59' E 120°27'17840029.9
2014-Sep-11 11:33N 34°50' E 119°27'177318798.7
2014-Sep-11 11:33N 31°58' E 120°21'64754203.5
2014-Sep-11 11:32N 23°04' E 113°29'650664.3
2014-Sep-11 10:34N 31°60' E 120°23'36033.4
2014-Sep-11 10:33N 31°59' E 120°27'6399.7
2014-Sep-11 10:33N 31°58' E 120°20'646101176.0
2014-Sep-11 10:32N 23°04' E 113°29'64716887.7
2014-Sep-11 10:30N 31°58' E 120°21'132.1
2014-Sep-11 10:28N 31°58' E 120°21'6941858.3
2014-Sep-11 10:06N 22°06' E 113°34'6921279.2
2014-Sep-11 09:34N 31°57' E 120°18'81937.5
2014-Sep-11 09:33N 31°59' E 120°27'114043.9
2014-Sep-11 09:33N 31°56' E 120°14'64242011.9
2014-Sep-11 09:32N 23°04' E 113°29'1027739755.0
2014-Sep-11 09:32N 38°42' E 121°37'40930031.0
2014-Sep-11 09:31N 31°58' E 120°21'694138800.9
2014-Sep-11 09:31N 22°06' E 113°35'344352.7
2014-Sep-11 09:31N 22°40' E 113°40'99950639.0
2014-Sep-11 09:29N 37°60' E 121°10'9005393.9
2014-Sep-11 09:19N 23°20' E 117°30'5013735.7
2014-Sep-11 09:11N 30°25' E 122°27'66015846.0
2014-Sep-11 09:09N 23°03' E 113°18'6481102.0
2014-Sep-11 08:34N 31°56' E 120°14'6696.2
2014-Sep-11 08:33N 31°56' E 120°07'364109240.4
2014-Sep-11 08:33N 37°57' E 121°08'360215878.8
2014-Sep-11 08:33N 31°59' E 120°27'4792.8
2014-Sep-11 08:32N 32°03' E 120°25'40676981.0
2014-Sep-11 08:32N 38°45' E 121°31'10761937182.7
2014-Sep-11 08:32N 22°11' E 113°34'69111197.8
2014-Sep-11 08:28N 31°58' E 120°21'65111601.4
2014-Sep-11 08:25N 23°02' E 113°25'2614227.3
2014-Sep-11 08:21N 24°24' E 117°55'481599.5
2014-Sep-11 07:33N 32°04' E 120°31'67659.2
2014-Sep-11 07:33N 31°59' E 120°27'51750.8
2014-Sep-11 07:33N 31°58' E 120°21'655589732.3
2014-Sep-11 07:33N 22°52' E 113°34'647105867.7
2014-Sep-11 07:33N 31°56' E 120°08'64314639.7
2014-Sep-11 07:30N 23°02' E 113°25'6737813.5
2014-Sep-11 07:25N 29°55' E 123°19'70613817.3
2014-Sep-11 07:22N 22°10' E 113°27'698867.1
2014-Sep-11 06:33N 31°59' E 120°27'84311.2
2014-Sep-11 06:33N 32°01' E 120°37'66059411.0
2014-Sep-11 06:33N 22°59' E 113°31'65115112.3
2014-Sep-11 06:30N 31°58' E 120°21'19756.3
2014-Sep-11 06:29N 31°59' E 119°59'63814910.4
2014-Sep-11 06:26N 23°05' E 113°27'223.0
2014-Sep-11 06:20N 23°04' E 113°29'661846.2
2014-Sep-11 05:33N 32°01' E 120°44'661108171.1
2014-Sep-11 05:33N 23°04' E 113°29'65173203.5
2014-Sep-11 05:32N 31°59' E 120°27'53425.9
2014-Sep-11 05:32N 31°58' E 120°21'647776905.3
2014-Sep-11 05:32N 23°04' E 113°29'655102580.9
2014-Sep-11 05:32N 32°04' E 120°28'70093380.9
2014-Sep-11 05:31N 22°15' E 113°22'696718.9
2014-Sep-11 04:33N 31°59' E 120°27'650334490.7
2014-Sep-11 04:33N 23°06' E 113°27'657139134.3
2014-Sep-11 04:33N 32°02' E 120°35'121431.4
2014-Sep-11 04:33N 31°58' E 120°21'8745.9
2014-Sep-11 04:32N 32°04' E 120°28'65516973.7
2014-Sep-11 04:30N 23°04' E 113°29'66214023.0
2014-Sep-11 04:27N 32°02' E 120°45'1517.3
2014-Sep-11 03:34N 31°59' E 120°27'657182040.1
2014-Sep-11 03:33N 23°03' E 113°17'10861.6
2014-Sep-11 03:33N 23°06' E 113°27'65518571.0
2014-Sep-11 03:31N 32°04' E 120°28'884.6
2014-Sep-11 03:25N 31°58' E 120°21'64738847.3
2014-Sep-11 03:24N 23°04' E 113°29'6538301.2
2014-Sep-11 03:19N 32°02' E 120°25'6596305.1
2014-Sep-11 03:13N 23°03' E 113°19'11135.4
2014-Sep-11 03:08N 23°03' E 113°31'2 3.2
2014-Sep-11 02:34N 23°04' E 113°29'58740.9
2014-Sep-11 02:33N 23°02' E 113°24'1688.4
2014-Sep-11 02:33N 23°02' E 113°24'655471500.7
2014-Sep-11 02:33N 31°59' E 120°27'650106381.9
2014-Sep-11 02:33N 23°06' E 113°27'65533218.3
2014-Sep-11 02:32N 32°04' E 120°28'1166.6
2014-Sep-11 02:22N 31°57' E 120°18'311.4
2014-Sep-11 02:07N 31°58' E 120°21'4 7.7
2014-Sep-11 01:33N 31°59' E 120°27'650156076.8
2014-Sep-11 01:33N 23°04' E 113°29'651146436.7
2014-Sep-11 01:33N 32°01' E 120°25'6532349184.7
2014-Sep-11 01:33N 23°04' E 113°26'2602.3
2014-Sep-11 01:33N 23°06' E 113°27'65546245.4
2014-Sep-11 01:32N 32°04' E 120°28'14131836.1
2014-Sep-11 01:32N 30°25' E 122°27'1422274.8
2014-Sep-11 01:28N 31°58' E 120°21'647715.0
2014-Sep-11 00:33N 23°04' E 113°29'6501170585.1
2014-Sep-11 00:33N 31°59' E 120°27'65053188.9
2014-Sep-11 00:33N 23°06' E 113°27'65542116.0
2014-Sep-11 00:32N 32°04' E 120°28'8569.8
2014-Sep-11 00:31N 31°58' E 120°21'4142.0
2014-Sep-11 00:29N 31°57' E 120°17'1441589.6
2014-Sep-11 00:24N 30°25' E 122°27'139165.7
2014-Sep-10 23:33N 31°59' E 120°27'650390051.6
2014-Sep-10 23:33N 23°06' E 113°27'652234826.8
2014-Sep-10 23:33N 30°25' E 122°27'65293894.6
2014-Sep-10 23:33N 23°04' E 113°29'65535214.4
2014-Sep-10 23:32N 32°04' E 120°28'69140786.2
2014-Sep-10 23:31N 22°10' E 113°52'6836988.1
2014-Sep-10 23:25N 31°58' E 120°21'212.6
2014-Sep-10 23:17N 31°60' E 120°23'3441629.7
2014-Sep-10 23:04N 37°42' E 121°09'9631864.7
2014-Sep-10 22:33N 23°04' E 113°29'650585296.9
2014-Sep-10 22:33N 31°59' E 120°27'6501170163.6
2014-Sep-10 22:33N 23°06' E 113°27'554714.9
2014-Sep-10 22:33N 22°13' E 113°44'69241502.8
2014-Sep-10 22:32N 32°04' E 120°28'17919532.1
2014-Sep-10 22:31N 29°35' E 122°24'5012059.3
2014-Sep-10 22:31N 30°25' E 122°27'142127852.1
2014-Sep-10 22:31N 31°58' E 120°21'647676.3
2014-Sep-10 21:33N 23°06' E 113°27'2586.0
2014-Sep-10 21:33N 23°04' E 113°29'6502340956.0
2014-Sep-10 21:33N 31°59' E 120°26'1399103.2
2014-Sep-10 21:32N 30°25' E 122°27'14114534.7
2014-Sep-10 21:32N 32°04' E 120°28'69220934.8
2014-Sep-10 21:30N 22°17' E 113°36'6845229.0
2014-Sep-10 21:22N 31°58' E 120°21'647803.6
2014-Sep-10 20:33N 23°04' E 113°30'31962.0
2014-Sep-10 20:33N 23°06' E 113°27'65522246.9
2014-Sep-10 20:32N 32°04' E 120°28'8126.8
2014-Sep-10 20:28N 31°58' E 120°21'1421074.4
2014-Sep-10 20:20N 30°25' E 122°27'131632.6
2014-Sep-10 20:07N 32°01' E 120°42'1323.4
2014-Sep-10 19:33N 31°59' E 120°26'65058504.0
2014-Sep-10 19:33N 23°04' E 113°30'368.1
2014-Sep-10 19:30N 23°06' E 113°27'655147396.0
2014-Sep-10 19:30N 32°04' E 120°28'1415299.7
2014-Sep-10 19:29N 30°25' E 122°27'14211363.4
2014-Sep-10 19:28N 31°58' E 120°21'4115402.9
2014-Sep-10 19:23N 38°46' E 121°31'4125517.9
2014-Sep-10 19:19N 31°57' E 120°20'6 7.9
2014-Sep-10 18:33N 31°59' E 120°27'650180029.9
2014-Sep-10 18:33N 23°04' E 113°30'33274.1
2014-Sep-10 18:33N 23°06' E 113°27'65235585.9
2014-Sep-10 18:32N 30°25' E 122°27'14324435.4
2014-Sep-10 18:32N 31°57' E 120°20'104439.3
2014-Sep-10 18:31N 32°04' E 120°28'8709.9
2014-Sep-10 18:31N 31°58' E 120°21'6683086.2
2014-Sep-10 18:18N 22°27' E 113°53'4358.0
2014-Sep-10 17:33N 23°04' E 113°30'32452.5
2014-Sep-10 17:33N 23°06' E 113°27'650585104.8
2014-Sep-10 17:33N 31°59' E 120°27'13921761.0
2014-Sep-10 17:33N 30°25' E 122°27'1433018.5
2014-Sep-10 17:30N 31°57' E 120°20'105923.9
2014-Sep-10 17:30N 32°04' E 120°28'843.7
2014-Sep-10 17:19N 31°58' E 120°21'647854.4
2014-Sep-10 16:33N 23°04' E 113°30'6502340515.4
2014-Sep-10 16:33N 31°59' E 120°27'13955611.6
2014-Sep-10 16:33N 30°25' E 122°27'143171047.7
2014-Sep-10 16:33N 31°57' E 120°20'645258194.3
2014-Sep-10 16:33N 23°06' E 113°27'65522462.2
2014-Sep-10 16:31N 32°04' E 120°28'8192.7
2014-Sep-10 16:29N 31°58' E 120°21'4 4.7
2014-Sep-10 15:33N 31°59' E 120°27'65060013.2
2014-Sep-10 15:33N 23°04' E 113°30'34905.1
2014-Sep-10 15:33N 23°06' E 113°27'65960821.4
2014-Sep-10 15:32N 31°45' E 121°04'3910886.0
2014-Sep-10 15:32N 31°57' E 120°20'10960.6
2014-Sep-10 15:31N 32°04' E 120°28'8646.8
2014-Sep-10 15:31N 31°58' E 120°21'4401184.7
2014-Sep-10 15:08N 24°46' E 118°48'309529.2
2014-Sep-10 14:33N 23°04' E 113°29'650468190.3
2014-Sep-10 14:33N 31°59' E 120°27'65097516.7
2014-Sep-10 14:33N 23°06' E 113°27'65526205.7
2014-Sep-10 14:31N 32°04' E 120°28'107030.8
2014-Sep-10 14:31N 31°57' E 120°20'14234195.3
2014-Sep-10 14:31N 30°25' E 122°27'1424645.6
2014-Sep-10 14:29N 31°58' E 120°22'685102695.6
2014-Sep-10 14:29N 22°16' E 113°36'5054.5
2014-Sep-10 13:33N 23°06' E 113°26'651585494.2
2014-Sep-10 13:33N 31°59' E 120°27'68950623.6
2014-Sep-10 13:33N 22°11' E 113°43'489696.0
2014-Sep-10 13:32N 22°58' E 113°30'65117355.7
2014-Sep-10 13:30N 31°57' E 120°20'10325.4
2014-Sep-10 13:28N 32°04' E 120°28'8220.1
2014-Sep-10 13:26N 31°58' E 120°22'647739.0
2014-Sep-10 12:33N 23°06' E 113°27'65093646.8
2014-Sep-10 12:33N 31°59' E 120°27'6686.7
2014-Sep-10 12:33N 31°57' E 120°20'10418.3
2014-Sep-10 12:31N 32°04' E 120°28'1419974.9
2014-Sep-10 12:30N 30°25' E 122°27'1426816.7
2014-Sep-10 12:29N 31°58' E 120°21'6588868.9
2014-Sep-10 12:25N 22°55' E 113°25'1113.2
2014-Sep-10 11:33N 23°06' E 113°27'650180080.4
2014-Sep-10 11:33N 31°59' E 120°27'6363.8
2014-Sep-10 11:32N 31°57' E 120°20'142512985.5
2014-Sep-10 11:32N 30°25' E 122°27'1417065.7
2014-Sep-10 11:31N 32°04' E 120°28'8238.1
2014-Sep-10 11:29N 31°58' E 120°21'4 4.6
2014-Sep-10 10:33N 31°59' E 120°27'139100122.4
2014-Sep-10 10:33N 30°25' E 122°27'14211929.6
2014-Sep-10 10:33N 31°57' E 120°20'10388.4
2014-Sep-10 10:31N 32°04' E 120°28'1274764.5
2014-Sep-10 10:29N 30°45' E 122°25'1291469.4
2014-Sep-10 10:24N 31°58' E 120°21'4 5.0
2014-Sep-10 09:33N 31°59' E 120°26'44628140.9
2014-Sep-10 09:32N 39°05' E 117°46'44120360.8
2014-Sep-10 09:31N 32°04' E 120°28'14121202.0
2014-Sep-10 09:31N 30°25' E 122°27'1424824.3
2014-Sep-10 09:29N 31°58' E 120°21'183844.3
2014-Sep-10 09:16N 29°31' E 122°27'3922263.5
2014-Sep-10 09:06N 24°25' E 117°52'435810.8
2014-Sep-10 08:33N 30°25' E 122°27'13941723.1
2014-Sep-10 08:33N 31°59' E 120°26'4154.9
2014-Sep-10 08:31N 31°58' E 120°21'875.8
2014-Sep-10 08:25N 32°04' E 120°28'767.2
2014-Sep-10 08:18N 31°58' E 120°22'16218.6
2014-Sep-10 08:14N 31°58' E 120°03'434641.2
2014-Sep-10 07:33N 24°47' E 119°00'437393424.8
2014-Sep-10 07:33N 31°58' E 120°22'312520.0
2014-Sep-10 07:33N 31°59' E 120°26'13935763.7
2014-Sep-10 07:33N 30°25' E 122°27'1425499.2
2014-Sep-10 07:31N 31°58' E 120°21'10109.5
2014-Sep-10 07:26N 31°57' E 120°10'6339.0
2014-Sep-10 07:25N 31°58' E 120°03'44126444.5
2014-Sep-10 07:24N 39°05' E 117°46'61123928.1
2014-Sep-10 07:22N 29°42' E 122°37'18019602.5
2014-Sep-10 07:22N 32°04' E 120°28'8 9.3
2014-Sep-10 06:33N 31°58' E 120°22'4651.1
2014-Sep-10 06:33N 31°59' E 120°27'931382.3
2014-Sep-10 06:33N 31°57' E 120°17'436196419.8
2014-Sep-10 06:33N 24°47' E 118°49'437157224.8
2014-Sep-10 06:33N 31°57' E 120°16'5613.4
2014-Sep-10 06:32N 31°58' E 120°21'14263892.9
2014-Sep-10 06:32N 30°25' E 122°27'1417828.9
2014-Sep-10 06:31N 32°04' E 120°28'18542.2
2014-Sep-10 06:29N 31°57' E 120°09'5631334.3
2014-Sep-10 06:04N 22°34' E 120°05'5621119.9
2014-Sep-10 05:33N 31°56' E 120°14'61126.2
2014-Sep-10 05:33N 31°59' E 120°21'564338521.3
2014-Sep-10 05:33N 22°35' E 120°08'48779626.2
2014-Sep-10 05:33N 30°25' E 122°27'13929449.9
2014-Sep-10 05:32N 31°59' E 120°27'5208.5
2014-Sep-10 05:31N 32°04' E 120°28'8238.7
2014-Sep-10 05:29N 31°58' E 120°21'4451668.2
2014-Sep-10 05:13N 39°05' E 117°45'45225853.3
2014-Sep-10 05:12N 31°58' E 120°50'33664.9
2014-Sep-10 05:09N 31°55' E 120°12'1321.8
2014-Sep-10 04:33N 31°59' E 120°27'13923832.8
2014-Sep-10 04:33N 30°25' E 122°27'14242594.0
2014-Sep-10 04:33N 31°58' E 120°21'279.4
2014-Sep-10 04:31N 31°58' E 120°24'5628714.3
2014-Sep-10 04:27N 22°37' E 120°16'56713794.2
2014-Sep-10 04:25N 32°04' E 120°28'22963.2
2014-Sep-10 04:23N 31°57' E 120°04'541.7
2014-Sep-10 04:17N 31°59' E 119°59'1163.2
2014-Sep-10 04:06N 31°55' E 120°12'1323.6
2014-Sep-10 03:33N 31°59' E 120°27'4489.5
2014-Sep-10 03:33N 31°58' E 120°21'69239514.8
2014-Sep-10 03:32N 22°18' E 113°20'69945781.2
2014-Sep-10 03:31N 32°04' E 120°28'44045224.0
2014-Sep-10 03:30N 39°04' E 117°51'4445256.4
2014-Sep-10 03:25N 31°58' E 120°24'2 2.6
2014-Sep-10 02:33N 31°59' E 120°27'260.6
2014-Sep-10 02:31N 31°58' E 120°24'7993.3
2014-Sep-10 02:31N 32°04' E 120°28'8163.5
2014-Sep-10 02:28N 31°58' E 120°21'6953918.9
2014-Sep-10 02:17N 22°11' E 113°25'697953.8
2014-Sep-10 01:33N 31°59' E 120°27'1739726.0
2014-Sep-10 01:32N 29°37' E 122°22'1749781.1
2014-Sep-10 01:31N 31°58' E 120°24'2350.0
2014-Sep-10 01:31N 31°58' E 120°21'87272.5
2014-Sep-10 01:31N 32°04' E 120°28'223793.7
2014-Sep-10 01:30N 31°58' E 120°03'405137.4
2014-Sep-10 01:30N 31°58' E 120°50'70834463.1
2014-Sep-10 01:29N 22°10' E 113°27'6613042.3
2014-Sep-10 01:16N 29°39' E 122°26'174247.1
2014-Sep-10 00:34N 31°59' E 120°27'255.4
2014-Sep-10 00:31N 31°58' E 120°24'2366.7
2014-Sep-10 00:31N 31°58' E 120°21'84151.5
2014-Sep-10 00:31N 32°04' E 120°28'16275.6
2014-Sep-10 00:27N 31°55' E 120°12'3248.7
2014-Sep-10 00:26N 31°57' E 120°08'6882915.8
2014-Sep-10 00:12N 22°10' E 113°27'6981082.8
2014-Sep-09 23:34N 31°59' E 120°27'255.8
2014-Sep-09 23:31N 31°58' E 120°24'7816.6
2014-Sep-09 23:31N 32°04' E 120°28'8166.2
2014-Sep-09 23:28N 31°58' E 120°21'796.4
2014-Sep-09 23:24N 31°57' E 120°14'6875185.3
2014-Sep-09 23:16N 22°10' E 113°32'626.0
2014-Sep-09 23:03N 22°14' E 113°36'6891396.7
2014-Sep-09 22:33N 31°59' E 120°27'1533.3
2014-Sep-09 22:33N 31°58' E 120°25'689145805.3
2014-Sep-09 22:33N 22°14' E 113°36'69780983.3
2014-Sep-09 22:32N 31°46' E 121°04'419801.7
2014-Sep-09 22:32N 31°58' E 120°18'1748247.3
2014-Sep-09 22:31N 29°44' E 122°27'17347935.1
2014-Sep-09 22:31N 32°04' E 120°28'855.1
2014-Sep-09 22:22N 31°58' E 120°21'692191657.0
2014-Sep-09 22:22N 22°10' E 113°32'69116588.2
2014-Sep-09 22:19N 31°13' E 121°30'7192.9
2014-Sep-09 21:33N 31°59' E 120°26'31746.7
2014-Sep-09 21:33N 32°02' E 120°27'31442.9
2014-Sep-09 21:33N 32°00' E 120°23'689137820.9
2014-Sep-09 21:33N 22°14' E 113°36'69729176.9
2014-Sep-09 21:31N 31°43' E 121°08'424893.9
2014-Sep-09 21:31N 31°58' E 120°21'81795.0
2014-Sep-09 21:31N 32°04' E 120°28'69111404.5
2014-Sep-09 21:27N 22°08' E 113°55'22328.4
2014-Sep-09 21:23N 22°10' E 113°32'70621900.6
2014-Sep-09 21:21N 31°58' E 120°50'33124.7
2014-Sep-09 21:05N 31°55' E 120°12'1833.7
2014-Sep-09 20:33N 32°02' E 120°32'56486.7
2014-Sep-09 20:33N 31°59' E 120°26'686154408.9
2014-Sep-09 20:33N 22°11' E 113°48'69144410.8
2014-Sep-09 20:32N 32°02' E 120°30'9420.6
2014-Sep-09 20:31N 31°58' E 120°21'81610.4
2014-Sep-09 20:31N 32°04' E 120°28'4419921.9
2014-Sep-09 20:30N 31°40' E 121°12'70228729.5
2014-Sep-09 20:29N 22°10' E 113°32'6854798.8
2014-Sep-09 20:20N 31°55' E 120°12'1316.3
2014-Sep-09 19:33N 31°59' E 120°26'102118.6
2014-Sep-09 19:33N 32°00' E 120°38'6931247546.4
2014-Sep-09 19:33N 22°15' E 113°41'69335648.6
2014-Sep-09 19:32N 32°00' E 120°38'15856.0
2014-Sep-09 19:31N 31°58' E 120°21'969.0
2014-Sep-09 19:24N 31°55' E 120°12'161462.2
2014-Sep-09 19:23N 32°04' E 120°28'7007178.2
2014-Sep-09 19:17N 22°10' E 113°32'6665281.8
2014-Sep-09 19:09N 29°43' E 122°35'175282.0
2014-Sep-09 18:32N 31°59' E 120°26'181298.0
2014-Sep-09 18:31N 32°01' E 120°48'171168.8
2014-Sep-09 18:31N 32°04' E 120°28'16978.5
2014-Sep-09 18:30N 31°55' E 120°12'68570474.3
2014-Sep-09 18:29N 22°10' E 113°32'69251900.3
2014-Sep-09 18:28N 31°58' E 120°21'171961.8
2014-Sep-09 18:18N 29°46' E 122°27'1561607.5
2014-Sep-09 18:12N 31°58' E 120°50'2031.5
2014-Sep-09 17:33N 31°59' E 120°27'1625148.2
2014-Sep-09 17:31N 29°51' E 122°22'663397804.5
2014-Sep-09 17:31N 22°10' E 113°32'69277860.1
2014-Sep-09 17:31N 31°58' E 120°21'82078.9
2014-Sep-09 17:31N 32°04' E 120°28'12722916.1
2014-Sep-09 17:30N 30°42' E 122°23'13413360.4
2014-Sep-09 17:30N 31°55' E 120°12'1313.8
2014-Sep-09 16:33N 31°59' E 120°27'69369308.7
2014-Sep-09 16:33N 22°10' E 113°35'70026522.3
2014-Sep-09 16:31N 31°39' E 121°13'453684.5
2014-Sep-09 16:31N 32°04' E 120°28'47920776.7
2014-Sep-09 16:29N 24°25' E 117°52'47219308.9
2014-Sep-09 16:28N 31°58' E 120°21'9534.8
2014-Sep-09 16:27N 31°55' E 120°12'33563.1
2014-Sep-09 16:23N 31°58' E 120°50'1923.5
2014-Sep-09 15:34N 32°04' E 120°28'51592.9
2014-Sep-09 15:33N 31°59' E 120°27'131448.9
2014-Sep-09 15:33N 31°55' E 120°12'16728579.0
2014-Sep-09 15:32N 29°51' E 122°22'66474750.5
2014-Sep-09 15:32N 22°07' E 113°33'69480605.8
2014-Sep-09 15:31N 31°58' E 120°21'24855.8
2014-Sep-09 15:30N 31°58' E 120°50'27211.2
2014-Sep-09 15:22N 31°39' E 121°13'304273513.7
2014-Sep-09 15:22N 26°45' E 119°43'234835.9
2014-Sep-09 15:05N 29°53' E 122°22'163309.3
2014-Sep-09 14:34N 32°04' E 120°28'52123.8
2014-Sep-09 14:33N 31°59' E 120°27'441067.3
2014-Sep-09 14:31N 31°39' E 121°13'481150.2
2014-Sep-09 14:28N 31°58' E 120°21'668126540.9
2014-Sep-09 14:28N 22°27' E 113°53'79717932.1
2014-Sep-09 14:25N 34°47' E 119°31'1756622.4
2014-Sep-09 14:24N 31°55' E 120°12'1601941.9
2014-Sep-09 14:19N 29°57' E 122°16'157207.8
2014-Sep-09 13:34N 32°04' E 120°28'52130.0
2014-Sep-09 13:33N 31°59' E 120°27'10700.0
2014-Sep-09 13:33N 31°57' E 120°16'690108035.8
2014-Sep-09 13:32N 22°07' E 113°33'69454335.6
2014-Sep-09 13:31N 31°58' E 120°21'1572164.2
2014-Sep-09 13:27N 29°56' E 122°17'1601573.7
2014-Sep-09 13:21N 31°55' E 120°12'55601.1
2014-Sep-09 13:15N 31°39' E 121°13'4463.4
2014-Sep-09 12:34N 31°59' E 120°27'59584.9
2014-Sep-09 12:33N 32°04' E 120°28'10615.3
2014-Sep-09 12:33N 31°59' E 120°19'235.0
2014-Sep-09 12:28N 31°58' E 120°21'482789.5
2014-Sep-09 12:27N 31°39' E 121°13'55346.6
2014-Sep-09 12:18N 31°55' E 120°12'1622.0
2014-Sep-09 11:33N 32°04' E 120°28'725052.7
2014-Sep-09 11:33N 32°00' E 120°21'58172.5
2014-Sep-09 11:33N 31°59' E 120°27'  

Dump ship's entire track history